Temperatur und Luftfeuchte

Temperatur und Luftfeuchte

Nummer Datum und Zeit Sensor ID Temperatur in Celsius gef├╝hlte Temperatur Luftfeuchte in %
51091 2021-10-23 15:51:14 Terrasse 15.50 13.13 1.00
51090 2021-10-23 15:22:51 Terrasse 14.20 14.28 99.90
51089 2021-10-23 14:54:30 Terrasse 13.40 11.82 39.30
51088 2021-10-23 14:26:06 Terrasse 11.40 11.20 99.90
51087 2021-10-23 13:57:47 Terrasse 10.80 10.54 99.90
51086 2021-10-23 13:29:31 Terrasse 10.40 7.52 1.00
51085 2021-10-23 13:01:16 Terrasse 10.40 7.52 1.00
51084 2021-10-23 12:33:01 Terrasse 10.40 7.52 1.00
51083 2021-10-23 12:04:45 Terrasse 10.00 9.66 99.90
51082 2021-10-23 11:36:30 Terrasse 9.70 9.33 99.90
51081 2021-10-23 11:08:15 Terrasse 9.40 9.00 99.90
51080 2021-10-23 10:39:57 Terrasse 8.80 5.76 1.00
51079 2021-10-23 10:11:39 Terrasse 8.20 5.10 1.00
51078 2021-10-23 09:43:23 Terrasse 7.70 4.55 1.00
51077 2021-10-23 09:15:08 Terrasse 7.40 4.22 1.00
51076 2021-10-23 08:46:57 Terrasse 7.10 3.89 1.00
51075 2021-10-23 08:18:41 Terrasse 6.90 3.67 1.00
51074 2021-10-23 07:50:29 Terrasse 6.80 3.56 1.00
51073 2021-10-23 07:22:16 Terrasse 7.00 3.78 1.00
51072 2021-10-23 06:54:02 Terrasse 7.10 3.89 1.00
51071 2021-10-23 06:25:48 Terrasse 7.10 3.89 1.00
51070 2021-10-23 05:57:34 Terrasse 7.00 3.78 1.00
51069 2021-10-23 05:29:21 Terrasse 7.10 3.89 1.00
51068 2021-10-23 05:01:08 Terrasse 7.10 3.89 1.00
51067 2021-10-23 04:32:54 Terrasse 7.10 3.89 1.00
51066 2021-10-23 04:04:41 Terrasse 7.00 3.78 1.00
51065 2021-10-23 03:36:29 Terrasse 7.20 6.58 99.90
51064 2021-10-23 03:08:17 Terrasse 7.30 4.11 1.00
51063 2021-10-23 02:40:05 Terrasse 7.70 7.13 99.90
51062 2021-10-23 02:11:53 Terrasse 8.20 5.10 1.00
51061 2021-10-23 01:43:38 Terrasse 8.20 5.10 1.00
51060 2021-10-23 01:15:24 Terrasse 8.20 7.68 99.90
51059 2021-10-23 00:47:10 Terrasse 8.50 8.01 99.90
51058 2021-10-23 00:18:57 Terrasse 8.60 8.12 99.90
51057 2021-10-22 23:50:43 Terrasse 8.70 8.23 99.90
51056 2021-10-22 23:22:30 Terrasse 8.90 8.45 99.90
51055 2021-10-22 22:54:18 Terrasse 9.10 6.99 35.30
51054 2021-10-22 22:26:05 Terrasse 9.30 8.89 99.90
51053 2021-10-22 21:57:52 Terrasse 9.30 6.31 1.00
51052 2021-10-22 21:29:40 Terrasse 9.40 6.42 1.00
51051 2021-10-22 21:01:26 Terrasse 9.40 6.42 1.00
51050 2021-10-22 20:33:12 Terrasse 9.50 9.11 99.90
51049 2021-10-22 20:04:59 Terrasse 9.60 6.64 1.00
51048 2021-10-22 19:36:46 Terrasse 9.70 6.75 1.00
51047 2021-10-22 19:08:41 Terrasse 9.90 8.61 63.60
51046 2021-10-22 18:40:27 Terrasse 10.10 7.19 1.00
51045 2021-10-22 18:12:16 Terrasse 10.50 7.63 1.00
51044 2021-10-22 17:44:04 Terrasse 11.00 8.18 1.00
51043 2021-10-22 17:15:57 Terrasse 11.90 9.17 1.00
51042 2021-10-22 16:48:12 Terrasse 16.90 14.67 1.00
51041 2021-10-22 16:19:41 Terrasse 12.80 12.74 99.90
51040 2021-10-22 15:51:23 Terrasse 12.90 10.27 1.00
51039 2021-10-22 15:23:06 Terrasse 11.10 8.29 1.00
51038 2021-10-22 14:54:51 Terrasse 10.70 10.43 99.90
51037 2021-10-22 14:26:41 Terrasse 11.30 8.51 1.00
51036 2021-10-22 13:58:37 Terrasse 12.60 9.94 1.00
51035 2021-10-22 13:30:24 Terrasse 13.10 10.49 1.00
51034 2021-10-22 13:02:04 Terrasse 11.80 9.06 1.00
51033 2021-10-22 12:33:46 Terrasse 11.10 10.87 99.90
51032 2021-10-22 12:05:24 Terrasse 9.70 9.33 99.90
51031 2021-10-22 11:37:04 Terrasse 8.40 5.32 1.00
51030 2021-10-22 11:08:45 Terrasse 7.60 4.44 1.00
51029 2021-10-22 10:40:28 Terrasse 6.90 6.25 99.90
51028 2021-10-22 10:12:12 Terrasse 6.30 5.59 99.90
51027 2021-10-22 09:43:53 Terrasse 5.60 4.82 99.90
51026 2021-10-22 09:15:39 Terrasse 5.20 4.38 99.90
51025 2021-10-22 08:47:24 Terrasse 5.10 4.27 99.90
51024 2021-10-22 08:19:12 Terrasse 5.20 4.38 99.90
51023 2021-10-22 07:51:00 Terrasse 5.30 4.49 99.90
51022 2021-10-22 07:22:48 Terrasse 5.40 4.60 99.90
51021 2021-10-22 06:54:36 Terrasse 5.40 4.60 99.90
51020 2021-10-22 06:26:24 Terrasse 5.60 4.82 99.90
51019 2021-10-22 05:58:12 Terrasse 5.70 4.93 99.90
51018 2021-10-22 05:30:00 Terrasse 5.60 4.82 99.90
51017 2021-10-22 05:01:50 Terrasse 5.80 5.04 99.90
51016 2021-10-22 04:33:37 Terrasse 6.10 5.37 99.90
51015 2021-10-22 04:05:25 Terrasse 6.40 5.70 99.90
51014 2021-10-22 03:37:13 Terrasse 6.60 5.92 99.90
51013 2021-10-22 03:09:00 Terrasse 6.70 6.03 99.90
51012 2021-10-22 02:40:48 Terrasse 6.80 6.14 99.90
51011 2021-10-22 02:12:35 Terrasse 6.70 6.03 99.90
51010 2021-10-22 01:44:23 Terrasse 7.00 6.36 99.90
51009 2021-10-22 01:16:13 Terrasse 7.40 6.80 99.90
51008 2021-10-22 00:48:02 Terrasse 7.90 7.35 99.90
51007 2021-10-22 00:19:49 Terrasse 8.30 7.79 99.90
51006 2021-10-21 23:51:37 Terrasse 8.50 8.01 99.90
51005 2021-10-21 23:23:24 Terrasse 8.60 8.12 99.90
51004 2021-10-21 22:55:13 Terrasse 9.00 8.56 99.90
51003 2021-10-21 22:27:00 Terrasse 9.20 8.78 99.90
51002 2021-10-21 21:58:50 Terrasse 9.30 8.89 99.90
51001 2021-10-21 21:30:36 Terrasse 9.40 9.00 99.90
51000 2021-10-21 21:02:22 Terrasse 9.50 9.11 99.90
50999 2021-10-21 20:34:07 Terrasse 9.50 9.11 99.90
50998 2021-10-21 20:05:55 Terrasse 9.70 7.03 11.60
50997 2021-10-21 19:37:43 Terrasse 10.10 7.19 1.00
50996 2021-10-21 19:09:33 Terrasse 10.40 7.52 1.00
50995 2021-10-21 18:41:24 Terrasse 11.00 10.76 99.90
50994 2021-10-21 18:13:20 Terrasse 12.50 9.83 1.00
50993 2021-10-21 17:45:12 Terrasse 13.50 10.93 1.00
50992 2021-10-21 17:17:02 Terrasse 14.40 14.43 97.20
50991 2021-10-21 16:49:04 Terrasse 17.50 17.91 99.90
50990 2021-10-21 16:20:40 Terrasse 20.80 21.54 99.90
50989 2021-10-21 15:52:09 Terrasse 14.90 15.05 99.90
50988 2021-10-21 15:23:53 Terrasse 13.60 11.04 1.00
50987 2021-10-21 14:55:35 Terrasse 13.40 13.40 99.90
50986 2021-10-21 14:27:17 Terrasse 13.10 10.49 1.00
50985 2021-10-21 13:59:06 Terrasse 13.20 10.60 1.00
50984 2021-10-21 13:30:44 Terrasse 12.90 10.27 1.00
50983 2021-10-21 13:02:26 Terrasse 12.60 12.52 99.90
50982 2021-10-21 12:34:11 Terrasse 11.80 9.06 1.00
50981 2021-10-21 12:06:00 Terrasse 12.10 9.39 1.00
50980 2021-10-21 11:37:41 Terrasse 11.90 9.40 9.80
50979 2021-10-21 11:09:26 Terrasse 11.70 8.95 1.00
50978 2021-10-21 10:41:13 Terrasse 11.50 11.31 99.90
50977 2021-10-21 10:12:57 Terrasse 11.20 8.40 1.00
50976 2021-10-21 09:44:43 Terrasse 11.20 9.06 26.40
50975 2021-10-21 09:16:30 Terrasse 11.20 10.98 99.90
50974 2021-10-21 08:48:20 Terrasse 11.40 9.60 38.30
50973 2021-10-21 08:20:08 Terrasse 11.70 8.95 1.00
50972 2021-10-21 07:51:53 Terrasse 11.70 8.95 1.00
50971 2021-10-21 07:23:39 Terrasse 11.80 11.19 82.60
50970 2021-10-21 06:55:27 Terrasse 12.00 9.28 1.00
50969 2021-10-21 06:27:13 Terrasse 12.10 9.39 1.00
50968 2021-10-21 05:58:59 Terrasse 12.10 9.39 1.00
50967 2021-10-21 05:30:47 Terrasse 12.30 12.19 99.90
50966 2021-10-21 05:02:34 Terrasse 12.50 12.41 99.90
50965 2021-10-21 04:34:23 Terrasse 13.00 10.38 1.00
50964 2021-10-21 04:06:10 Terrasse 13.50 10.93 1.00
50963 2021-10-21 03:37:56 Terrasse 13.50 10.93 1.00
50962 2021-10-21 03:09:42 Terrasse 13.60 11.04 1.00
50961 2021-10-21 02:41:26 Terrasse 13.60 11.04 1.00
50960 2021-10-21 02:13:13 Terrasse 13.80 11.26 1.00
50959 2021-10-21 01:45:00 Terrasse 13.90 11.37 1.00
50958 2021-10-21 01:16:47 Terrasse 14.10 11.59 1.00
50957 2021-10-21 00:48:34 Terrasse 14.20 11.70 1.00
50956 2021-10-21 00:20:20 Terrasse 14.20 11.70 1.00
50955 2021-10-20 23:52:07 Terrasse 14.20 11.70 1.00
50954 2021-10-20 23:23:53 Terrasse 14.20 11.70 1.00
50953 2021-10-20 22:55:38 Terrasse 14.20 11.70 1.00
50952 2021-10-20 22:27:24 Terrasse 14.20 11.70 1.00
50951 2021-10-20 21:59:11 Terrasse 14.20 11.70 1.00
50950 2021-10-20 21:30:57 Terrasse 14.20 11.70 1.00
50949 2021-10-20 21:02:42 Terrasse 14.30 11.81 1.00
50948 2021-10-20 20:34:28 Terrasse 14.30 11.81 1.00
50947 2021-10-20 20:06:12 Terrasse 14.20 11.70 1.00
50946 2021-10-20 19:37:58 Terrasse 14.30 11.81 1.00
50945 2021-10-20 19:09:44 Terrasse 14.20 11.70 1.00
50944 2021-10-20 18:41:30 Terrasse 14.30 11.81 1.00
50943 2021-10-20 18:13:16 Terrasse 14.40 11.92 1.00
50942 2021-10-20 17:45:01 Terrasse 14.50 12.03 1.00
50941 2021-10-20 17:16:47 Terrasse 14.60 12.14 1.00
50940 2021-10-20 16:48:31 Terrasse 14.60 12.14 1.00
50939 2021-10-20 16:20:14 Terrasse 14.40 11.92 1.00
50938 2021-10-20 15:51:59 Terrasse 14.20 11.70 1.00
50937 2021-10-20 15:23:45 Terrasse 14.30 11.81 1.00
50936 2021-10-20 14:55:28 Terrasse 14.20 11.70 1.00
50935 2021-10-20 14:27:14 Terrasse 13.90 11.37 1.00
50934 2021-10-20 13:58:58 Terrasse 13.80 11.26 1.00
50933 2021-10-20 13:30:43 Terrasse 13.60 11.04 1.00
50932 2021-10-20 13:02:24 Terrasse 13.20 10.60 1.00
50931 2021-10-20 12:34:08 Terrasse 12.60 9.94 1.00
50930 2021-10-20 12:05:53 Terrasse 12.50 9.83 1.00
50929 2021-10-20 11:37:35 Terrasse 11.80 9.06 1.00
50928 2021-10-20 11:09:20 Terrasse 11.60 8.84 1.00
50927 2021-10-20 10:41:05 Terrasse 11.30 8.51 1.00
50926 2021-10-20 10:12:49 Terrasse 11.00 8.18 1.00
50925 2021-10-20 09:44:31 Terrasse 10.60 7.74 1.00
50924 2021-10-20 09:16:16 Terrasse 10.30 7.41 1.00
50923 2021-10-20 08:48:00 Terrasse 10.10 7.19 1.00
50922 2021-10-20 08:19:44 Terrasse 9.80 6.86 1.00
50921 2021-10-20 07:51:29 Terrasse 9.60 6.64 1.00
50920 2021-10-20 07:23:16 Terrasse 9.50 6.53 1.00
50919 2021-10-20 06:55:03 Terrasse 9.50 6.53 1.00
50918 2021-10-20 06:26:48 Terrasse 9.50 6.53 1.00
50917 2021-10-20 05:58:36 Terrasse 9.50 6.53 1.00
50916 2021-10-20 05:30:23 Terrasse 9.60 6.64 1.00
50915 2021-10-20 05:02:09 Terrasse 9.70 6.75 1.00
50914 2021-10-20 04:33:56 Terrasse 9.70 6.75 1.00
50913 2021-10-20 04:05:42 Terrasse 9.80 6.86 1.00
50912 2021-10-20 03:37:28 Terrasse 9.90 6.97 1.00
50911 2021-10-20 03:09:14 Terrasse 10.00 7.08 1.00
50910 2021-10-20 02:40:59 Terrasse 10.10 7.19 1.00
50909 2021-10-20 02:12:47 Terrasse 10.20 7.30 1.00
50908 2021-10-20 01:44:33 Terrasse 10.20 7.30 1.00
50907 2021-10-20 01:16:18 Terrasse 10.20 7.30 1.00
50906 2021-10-20 00:48:04 Terrasse 10.20 7.30 1.00
50905 2021-10-20 00:19:50 Terrasse 10.10 7.19 1.00
50904 2021-10-19 23:51:37 Terrasse 10.20 7.30 1.00
50903 2021-10-19 23:23:24 Terrasse 10.30 7.41 1.00
50902 2021-10-19 22:55:11 Terrasse 10.50 7.63 1.00
50901 2021-10-19 22:26:58 Terrasse 10.60 7.74 1.00
50900 2021-10-19 21:58:45 Terrasse 10.70 7.85 1.00
50899 2021-10-19 21:31:57 Terrasse 10.60 7.74 1.00
50898 2021-10-19 21:01:57 Terrasse 10.50 7.63 1.00
50897 2021-10-19 20:33:43 Terrasse 10.60 7.74 1.00
50896 2021-10-19 20:05:28 Terrasse 10.60 7.74 1.00
50895 2021-10-19 19:37:14 Terrasse 10.70 7.85 1.00
50894 2021-10-19 19:09:01 Terrasse 10.90 8.07 1.00
50893 2021-10-19 18:40:49 Terrasse 11.10 8.29 1.00
50892 2021-10-19 18:12:37 Terrasse 11.30 8.51 1.00
50891 2021-10-19 17:44:22 Terrasse 11.20 8.40 1.00
50890 2021-10-19 17:16:08 Terrasse 11.10 8.29 1.00
50889 2021-10-19 16:49:16 Terrasse 10.90 8.07 1.00
50888 2021-10-19 16:19:28 Terrasse 10.80 7.96 1.00
50887 2021-10-19 15:51:13 Terrasse 10.70 7.85 1.00
50886 2021-10-19 15:22:57 Terrasse 10.50 7.63 1.00
50885 2021-10-19 14:54:57 Terrasse 10.10 7.19 1.00
50884 2021-10-19 14:26:45 Terrasse 9.90 6.97 1.00
50883 2021-10-19 13:58:28 Terrasse 9.80 6.86 1.00
50882 2021-10-19 13:30:13 Terrasse 9.70 6.75 1.00
50881 2021-10-19 13:02:05 Terrasse 9.50 6.53 1.00
50880 2021-10-19 12:33:49 Terrasse 9.40 6.42 1.00
50879 2021-10-19 12:05:35 Terrasse 9.30 6.31 1.00
50878 2021-10-19 11:37:19 Terrasse 9.00 5.98 1.00
50877 2021-10-19 11:09:20 Terrasse 8.80 5.76 1.00
50876 2021-10-19 10:41:16 Terrasse 8.60 5.54 1.00
50875 2021-10-19 10:12:59 Terrasse 8.60 5.54 1.00
50874 2021-10-19 09:45:12 Terrasse 8.50 5.43 1.00
50873 2021-10-19 09:16:49 Terrasse 8.50 5.43 1.00
50872 2021-10-19 08:48:37 Terrasse 8.50 5.43 1.00
50871 2021-10-19 08:20:23 Terrasse 8.60 5.54 1.00
50870 2021-10-19 07:52:10 Terrasse 8.70 5.65 1.00
50869 2021-10-19 07:23:56 Terrasse 8.80 5.76 1.00
50868 2021-10-19 06:55:44 Terrasse 8.80 5.76 1.00
50867 2021-10-19 06:27:31 Terrasse 8.80 5.76 1.00
50866 2021-10-19 06:00:38 Terrasse 8.80 5.76 1.00
50865 2021-10-19 05:30:59 Terrasse 8.40 5.32 1.00
50864 2021-10-19 05:02:45 Terrasse 8.60 5.54 1.00
50863 2021-10-19 04:34:31 Terrasse 8.60 5.54 1.00
50862 2021-10-19 04:06:17 Terrasse 8.50 5.43 1.00
50861 2021-10-19 03:38:02 Terrasse 8.50 5.43 1.00
50860 2021-10-19 03:09:48 Terrasse 8.40 5.32 1.00
50859 2021-10-19 02:41:32 Terrasse 8.30 5.21 1.00
50858 2021-10-19 02:13:19 Terrasse 8.30 5.21 1.00
50857 2021-10-19 01:45:06 Terrasse 8.30 5.21 1.00
50856 2021-10-19 01:16:52 Terrasse 8.30 5.21 1.00
50855 2021-10-19 00:48:38 Terrasse 8.20 5.10 1.00
50854 2021-10-19 00:20:24 Terrasse 8.10 7.57 99.90
50853 2021-10-18 23:52:10 Terrasse 8.10 7.57 99.90
50852 2021-10-18 23:23:57 Terrasse 8.10 7.57 99.90
50851 2021-10-18 22:55:45 Terrasse 8.10 7.57 99.90
50850 2021-10-18 22:27:32 Terrasse 8.30 7.79 99.90
50849 2021-10-18 21:59:20 Terrasse 8.50 8.01 99.90
50848 2021-10-18 21:31:07 Terrasse 8.60 8.12 99.90
50847 2021-10-18 21:02:54 Terrasse 8.80 8.34 99.90
50846 2021-10-18 20:34:42 Terrasse 8.90 8.45 99.90
50845 2021-10-18 20:06:29 Terrasse 8.90 8.45 99.90
50844 2021-10-18 19:38:15 Terrasse 9.00 8.56 99.90
50843 2021-10-18 19:10:03 Terrasse 9.30 8.89 99.90
50842 2021-10-18 18:41:50 Terrasse 9.40 9.00 99.90
50841 2021-10-18 18:13:39 Terrasse 9.60 9.22 99.90
50840 2021-10-18 17:45:26 Terrasse 9.80 9.44 99.90
50839 2021-10-18 17:17:12 Terrasse 9.80 9.44 99.90
50838 2021-10-18 16:48:59 Terrasse 9.80 9.44 99.90
50837 2021-10-18 16:20:44 Terrasse 9.70 9.33 99.90
50836 2021-10-18 15:52:31 Terrasse 9.70 9.33 99.90
50835 2021-10-18 15:24:17 Terrasse 9.60 9.22 99.90
50834 2021-10-18 14:56:06 Terrasse 9.60 9.22 99.90
50833 2021-10-18 14:27:52 Terrasse 9.60 9.22 99.90
50832 2021-10-18 13:59:37 Terrasse 9.50 9.11 99.90
50831 2021-10-18 13:31:23 Terrasse 9.50 9.11 99.90
50830 2021-10-18 13:03:09 Terrasse 9.50 9.11 99.90
50829 2021-10-18 12:34:55 Terrasse 9.40 9.00 99.90
50828 2021-10-18 12:06:39 Terrasse 9.10 8.67 99.90
50827 2021-10-18 11:38:24 Terrasse 8.90 8.45 99.90
50826 2021-10-18 11:10:09 Terrasse 8.80 5.76 1.00
50825 2021-10-18 10:41:54 Terrasse 8.70 5.65 1.00
50824 2021-10-18 10:13:40 Terrasse 8.60 5.54 1.00
50823 2021-10-18 09:45:25 Terrasse 8.50 5.43 1.00
50822 2021-10-18 09:17:13 Terrasse 8.30 5.21 1.00
50821 2021-10-18 08:48:57 Terrasse 8.00 4.88 1.00
50820 2021-10-18 08:20:43 Terrasse 7.90 4.77 1.00
50819 2021-10-18 07:52:28 Terrasse 7.60 7.02 99.90
50818 2021-10-18 07:24:14 Terrasse 7.30 6.69 99.90
50817 2021-10-18 06:56:00 Terrasse 7.00 6.36 99.90
50816 2021-10-18 06:27:47 Terrasse 7.20 6.58 99.90
50815 2021-10-18 05:59:31 Terrasse 6.90 6.06 92.40
50814 2021-10-18 05:31:18 Terrasse 6.90 3.67 1.00
50813 2021-10-18 05:03:06 Terrasse 7.10 3.89 1.00
50812 2021-10-18 04:34:54 Terrasse 7.30 4.11 1.00
50811 2021-10-18 04:06:42 Terrasse 7.50 4.33 1.00
50810 2021-10-18 03:38:28 Terrasse 7.70 4.55 1.00
50809 2021-10-18 03:10:17 Terrasse 7.90 7.35 99.90
50808 2021-10-18 02:42:05 Terrasse 8.00 7.46 99.90
50807 2021-10-18 02:13:53 Terrasse 8.10 7.57 99.90
50806 2021-10-18 01:45:41 Terrasse 8.20 7.22 82.10
50805 2021-10-18 01:17:28 Terrasse 8.50 7.08 64.00
50804 2021-10-18 00:49:16 Terrasse 8.70 8.23 99.90
50803 2021-10-18 00:21:04 Terrasse 8.80 8.34 99.90
50802 2021-10-17 23:52:52 Terrasse 9.10 8.67 99.90
50801 2021-10-17 23:24:39 Terrasse 9.20 6.84 25.60
50800 2021-10-17 22:56:26 Terrasse 9.40 6.42 1.00
50799 2021-10-17 22:28:14 Terrasse 9.50 6.53 1.00
50798 2021-10-17 22:00:01 Terrasse 9.70 6.75 1.00
50797 2021-10-17 21:31:49 Terrasse 9.80 9.44 99.90
50796 2021-10-17 21:03:40 Terrasse 10.00 7.08 1.00
50795 2021-10-17 20:35:25 Terrasse 10.10 7.19 1.00
50794 2021-10-17 20:07:13 Terrasse 10.30 7.41 1.00
50793 2021-10-17 19:39:00 Terrasse 10.60 10.32 99.90
50792 2021-10-17 19:10:49 Terrasse 10.90 10.65 99.90
50791 2021-10-17 18:42:39 Terrasse 11.50 11.31 99.90
50790 2021-10-17 18:14:30 Terrasse 12.20 9.50 1.00
50789 2021-10-17 17:46:20 Terrasse 12.80 10.16 1.00
50788 2021-10-17 17:18:13 Terrasse 13.70 13.73 99.90
50787 2021-10-17 16:50:01 Terrasse 14.30 11.81 1.00
50786 2021-10-17 16:21:53 Terrasse 14.80 12.36 1.00
50785 2021-10-17 15:53:35 Terrasse 14.60 12.14 1.00
50784 2021-10-17 15:25:20 Terrasse 14.40 11.92 1.00
50783 2021-10-17 14:57:05 Terrasse 14.00 13.13 64.10
50782 2021-10-17 14:28:51 Terrasse 14.20 12.04 13.80
50781 2021-10-17 14:00:37 Terrasse 14.20 14.28 99.90
50780 2021-10-17 13:32:16 Terrasse 13.60 13.62 99.90
50779 2021-10-17 13:03:55 Terrasse 12.80 12.74 99.90
50778 2021-10-17 12:35:40 Terrasse 12.50 9.83 1.00
50777 2021-10-17 12:07:24 Terrasse 12.50 12.41 99.90
50776 2021-10-17 11:39:04 Terrasse 11.60 9.04 8.60
50775 2021-10-17 11:10:41 Terrasse 10.40 10.09 99.30
50774 2021-10-17 10:42:25 Terrasse 9.80 6.86 1.00
50773 2021-10-17 10:14:09 Terrasse 9.50 6.53 1.00
50772 2021-10-17 09:45:54 Terrasse 9.50 6.53 1.00
50771 2021-10-17 09:17:41 Terrasse 9.50 9.09 98.90
50770 2021-10-17 08:49:25 Terrasse 9.20 6.20 1.00
50769 2021-10-17 08:21:11 Terrasse 9.00 5.98 1.00
50768 2021-10-17 07:52:57 Terrasse 8.90 5.87 1.00
50767 2021-10-17 07:24:44 Terrasse 8.80 5.76 1.00
50766 2021-10-17 06:56:31 Terrasse 8.80 5.76 1.00
50765 2021-10-17 06:28:20 Terrasse 8.90 5.87 1.00
50764 2021-10-17 06:00:06 Terrasse 8.90 5.87 1.00
50763 2021-10-17 05:31:53 Terrasse 8.90 5.87 1.00
50762 2021-10-17 05:03:40 Terrasse 9.00 5.98 1.00
50761 2021-10-17 04:35:25 Terrasse 9.00 5.98 1.00
50760 2021-10-17 04:07:11 Terrasse 9.10 8.67 99.90
50759 2021-10-17 03:38:59 Terrasse 9.20 7.53 51.80
50758 2021-10-17 03:10:44 Terrasse 9.10 6.09 1.00
50757 2021-10-17 02:42:32 Terrasse 9.00 8.56 99.90
50756 2021-10-17 02:14:20 Terrasse 9.20 8.78 99.90
50755 2021-10-17 01:46:07 Terrasse 9.40 6.42 1.00
50754 2021-10-17 01:17:54 Terrasse 9.50 9.11 99.90
50753 2021-10-17 00:49:40 Terrasse 9.60 8.87 86.40
50752 2021-10-17 00:21:28 Terrasse 9.60 6.64 1.00
50751 2021-10-16 23:53:14 Terrasse 9.50 6.53 1.00
50750 2021-10-16 23:25:01 Terrasse 9.60 8.35 66.40
50749 2021-10-16 22:56:49 Terrasse 9.70 9.33 99.90
50748 2021-10-16 22:28:35 Terrasse 9.90 6.97 1.00
50747 2021-10-16 22:00:24 Terrasse 10.20 9.88 99.90
50746 2021-10-16 21:32:10 Terrasse 10.20 9.88 99.90
50745 2021-10-16 21:03:56 Terrasse 10.20 8.13 32.70
50744 2021-10-16 20:35:42 Terrasse 10.20 7.30 1.00
50743 2021-10-16 20:07:33 Terrasse 10.60 7.74 1.00
50742 2021-10-16 19:39:22 Terrasse 11.30 10.23 66.70
50741 2021-10-16 19:11:13 Terrasse 12.00 9.28 1.00
50740 2021-10-16 18:43:08 Terrasse 12.90 10.27 1.00
50739 2021-10-16 18:15:02 Terrasse 14.30 11.81 1.00
50738 2021-10-16 17:46:57 Terrasse 16.00 13.68 1.00
50737 2021-10-16 17:19:09 Terrasse 19.70 17.75 1.00
50736 2021-10-16 16:50:57 Terrasse 27.60 25.50 1.00
50735 2021-10-16 16:22:33 Terrasse 24.60 23.14 1.00
50734 2021-10-16 15:54:08 Terrasse 21.20 21.98 99.90
50733 2021-10-16 15:25:45 Terrasse 18.40 18.90 99.90
50732 2021-10-16 14:57:28 Terrasse 17.20 15.05 2.80
50731 2021-10-16 14:29:11 Terrasse 16.40 14.26 6.40
50730 2021-10-16 14:00:50 Terrasse 15.90 16.15 99.90
50729 2021-10-16 13:32:34 Terrasse 15.60 13.24 1.00
50728 2021-10-16 13:04:23 Terrasse 15.20 12.80 1.00
50727 2021-10-16 12:35:54 Terrasse 13.80 11.26 1.00
50726 2021-10-16 12:07:30 Terrasse 12.30 9.61 1.00
50725 2021-10-16 11:39:10 Terrasse 11.00 10.76 99.90
50724 2021-10-16 11:10:50 Terrasse 10.00 7.79 28.20
50723 2021-10-16 10:42:30 Terrasse 8.90 8.45 99.90
50722 2021-10-16 10:14:08 Terrasse 7.80 4.66 1.00
50721 2021-10-16 09:45:49 Terrasse 6.80 3.56 1.00
50720 2021-10-16 09:17:36 Terrasse 6.80 6.14 99.90
50719 2021-10-16 08:49:23 Terrasse 6.70 6.03 99.90
50718 2021-10-16 08:21:08 Terrasse 6.50 5.81 99.90
50717 2021-10-16 07:52:55 Terrasse 6.60 5.92 99.90
50716 2021-10-16 07:24:43 Terrasse 6.70 6.03 99.90
50715 2021-10-16 06:56:29 Terrasse 6.70 6.03 99.90
50714 2021-10-16 06:28:16 Terrasse 6.30 5.59 99.90
50713 2021-10-16 06:00:02 Terrasse 6.20 5.48 99.90
50712 2021-10-16 05:31:48 Terrasse 6.30 5.59 99.90
50711 2021-10-16 05:03:36 Terrasse 6.50 5.81 99.90
50710 2021-10-16 04:35:24 Terrasse 6.70 6.03 99.90
50709 2021-10-16 04:07:12 Terrasse 7.10 6.47 99.90
50708 2021-10-16 03:38:59 Terrasse 7.20 6.58 99.90
50707 2021-10-16 03:10:47 Terrasse 7.50 6.91 99.90
50706 2021-10-16 02:42:35 Terrasse 7.80 7.24 99.90
50705 2021-10-16 02:14:21 Terrasse 7.80 7.24 99.90
50704 2021-10-16 01:46:09 Terrasse 7.90 7.35 99.90
50703 2021-10-16 01:17:58 Terrasse 8.00 7.46 99.90
50702 2021-10-16 00:49:45 Terrasse 8.30 7.79 99.90
50701 2021-10-16 00:21:33 Terrasse 8.40 7.90 99.90
50700 2021-10-15 23:53:20 Terrasse 8.50 8.01 99.90
50699 2021-10-15 23:25:08 Terrasse 8.70 8.23 99.90
50698 2021-10-15 22:56:54 Terrasse 8.80 8.34 99.90
50697 2021-10-15 22:28:41 Terrasse 8.90 8.45 99.90
50696 2021-10-15 22:00:29 Terrasse 9.00 8.56 99.90
50695 2021-10-15 21:32:19 Terrasse 9.30 8.89 99.90
50694 2021-10-15 21:04:08 Terrasse 9.70 9.33 99.90
50693 2021-10-15 20:35:57 Terrasse 10.30 9.99 99.90
50692 2021-10-15 20:07:43 Terrasse 10.60 7.74 1.00
50691 2021-10-15 19:39:31 Terrasse 10.80 10.54 99.90
50690 2021-10-15 19:11:19 Terrasse 11.00 8.18 1.00
50689 2021-10-15 18:43:08 Terrasse 11.20 10.98 99.90
50688 2021-10-15 18:14:55 Terrasse 11.40 8.62 1.00
50687 2021-10-15 17:46:41 Terrasse 11.60 8.84 1.00
50686 2021-10-15 17:18:27 Terrasse 11.70 8.95 1.00
50685 2021-10-15 16:50:12 Terrasse 11.60 8.84 1.00
50684 2021-10-15 16:21:57 Terrasse 11.70 8.95 1.00
50683 2021-10-15 15:53:42 Terrasse 11.70 8.95 1.00
50682 2021-10-15 15:25:29 Terrasse 11.80 9.06 1.00
50681 2021-10-15 14:57:18 Terrasse 12.00 11.86 99.90
50680 2021-10-15 14:29:06 Terrasse 12.20 9.50 1.00
50679 2021-10-15 14:00:50 Terrasse 12.30 9.61 1.00
50678 2021-10-15 13:32:41 Terrasse 12.90 12.85 99.90
50677 2021-10-15 13:04:23 Terrasse 12.60 12.52 99.90
50676 2021-10-15 12:35:58 Terrasse 11.10 8.29 1.00
50675 2021-10-15 12:07:35 Terrasse 10.40 10.10 99.90
50674 2021-10-15 11:39:16 Terrasse 9.30 8.89 99.90
50673 2021-10-15 11:11:04 Terrasse 9.40 9.00 99.90
50672 2021-10-15 10:42:51 Terrasse 9.40 9.00 99.90
50671 2021-10-15 10:14:35 Terrasse 9.00 8.56 99.90
50670 2021-10-15 09:46:18 Terrasse 8.50 5.43 1.00
50669 2021-10-15 09:18:03 Terrasse 8.20 5.10 1.00
50668 2021-10-15 08:49:49 Terrasse 8.10 4.99 1.00
50667 2021-10-15 08:21:34 Terrasse 7.90 4.77 1.00
50666 2021-10-15 07:53:20 Terrasse 7.80 4.66 1.00
50665 2021-10-15 07:25:07 Terrasse 7.70 7.13 99.90
50664 2021-10-15 06:56:52 Terrasse 7.70 7.13 99.90
50663 2021-10-15 06:28:40 Terrasse 7.70 7.13 99.90
50662 2021-10-15 06:00:27 Terrasse 7.60 7.02 99.90
50661 2021-10-15 05:32:14 Terrasse 7.80 7.24 99.90
50660 2021-10-15 05:04:01 Terrasse 8.00 7.46 99.90
50659 2021-10-15 04:35:48 Terrasse 8.20 7.68 99.90
50658 2021-10-15 04:07:37 Terrasse 8.40 7.90 99.90
50657 2021-10-15 03:39:24 Terrasse 8.60 8.12 99.90
50656 2021-10-15 03:11:11 Terrasse 8.70 8.23 99.90
50655 2021-10-15 02:42:58 Terrasse 8.80 8.34 99.90
50654 2021-10-15 02:14:48 Terrasse 9.00 8.56 99.90
50653 2021-10-15 01:46:34 Terrasse 9.20 8.78 99.90
50652 2021-10-15 01:18:23 Terrasse 9.60 9.22 99.90
50651 2021-10-15 00:50:09 Terrasse 9.90 9.55 99.90
50650 2021-10-15 00:21:56 Terrasse 10.20 9.88 99.90
50649 2021-10-14 23:53:44 Terrasse 10.40 10.10 99.90
50648 2021-10-14 23:25:32 Terrasse 10.80 10.54 99.90
50647 2021-10-14 22:57:19 Terrasse 11.20 8.40 1.00
50646 2021-10-14 22:29:06 Terrasse 11.50 11.31 99.90
50645 2021-10-14 22:00:53 Terrasse 11.60 11.42 99.90
50644 2021-10-14 21:32:40 Terrasse 11.80 11.64 99.90
50643 2021-10-14 21:04:26 Terrasse 11.80 11.64 99.90
50642 2021-10-14 20:36:13 Terrasse 11.90 11.75 99.90
50641 2021-10-14 20:08:00 Terrasse 11.90 11.75 99.90
50640 2021-10-14 19:39:50 Terrasse 12.00 11.86 99.90
50639 2021-10-14 19:11:36 Terrasse 12.20 12.08 99.90
50638 2021-10-14 18:43:23 Terrasse 12.40 12.30 99.90
50637 2021-10-14 18:15:09 Terrasse 12.50 12.41 99.90
50636 2021-10-14 17:46:57 Terrasse 12.70 12.63 99.90
50635 2021-10-14 17:18:43 Terrasse 12.80 12.74 99.90
50634 2021-10-14 16:50:30 Terrasse 13.20 10.60 1.00
50633 2021-10-14 16:22:17 Terrasse 12.90 10.27 1.00
50632 2021-10-14 15:54:03 Terrasse 12.90 10.27 1.00
50631 2021-10-14 15:25:47 Terrasse 12.80 10.16 1.00
50630 2021-10-14 14:57:32 Terrasse 12.40 9.72 1.00
50629 2021-10-14 14:29:19 Terrasse 12.40 9.72 1.00
50628 2021-10-14 14:01:00 Terrasse 11.40 11.20 99.90
50627 2021-10-14 13:32:43 Terrasse 11.00 10.76 99.90
50626 2021-10-14 13:04:29 Terrasse 10.80 10.54 99.90
50625 2021-10-14 12:36:14 Terrasse 10.80 10.54 99.90
50624 2021-10-14 12:07:59 Terrasse 10.60 10.32 99.90
50623 2021-10-14 11:39:42 Terrasse 10.30 9.99 99.90
50622 2021-10-14 11:11:27 Terrasse 10.10 9.77 99.90
50621 2021-10-14 10:43:11 Terrasse 10.00 9.66 99.90
50620 2021-10-14 10:14:56 Terrasse 9.80 9.44 99.90
50619 2021-10-14 09:46:41 Terrasse 9.60 9.22 99.90
50618 2021-10-14 09:18:26 Terrasse 9.30 8.89 99.90
50617 2021-10-14 08:50:10 Terrasse 9.20 8.78 99.90
50616 2021-10-14 08:21:55 Terrasse 9.00 8.56 99.90
50615 2021-10-14 07:53:42 Terrasse 9.10 8.67 99.90
50614 2021-10-14 07:25:29 Terrasse 9.20 8.78 99.90
50613 2021-10-14 06:57:18 Terrasse 9.30 8.89 99.90
50612 2021-10-14 06:29:04 Terrasse 9.30 8.89 99.90
50611 2021-10-14 06:00:50 Terrasse 9.30 8.89 99.90
50610 2021-10-14 05:32:37 Terrasse 9.50 9.11 99.90
50609 2021-10-14 05:04:23 Terrasse 9.50 9.11 99.90
50608 2021-10-14 04:36:08 Terrasse 9.50 9.11 99.90
50607 2021-10-14 04:07:54 Terrasse 9.50 9.11 99.90
50606 2021-10-14 03:39:41 Terrasse 9.50 9.11 99.90
50605 2021-10-14 03:11:28 Terrasse 9.50 9.11 99.90
50604 2021-10-14 02:43:14 Terrasse 9.50 9.11 99.90
50603 2021-10-14 02:15:00 Terrasse 9.50 9.11 99.90
50602 2021-10-14 01:46:45 Terrasse 9.50 9.11 99.90
50601 2021-10-14 01:18:31 Terrasse 9.60 9.22 99.90
50600 2021-10-14 00:50:17 Terrasse 9.60 7.11 18.80
50599 2021-10-14 00:22:04 Terrasse 9.70 6.75 1.00
50598 2021-10-13 22:55:14 Terrasse 9.80 6.86 1.00
50597 2021-10-13 21:01:05 Terrasse 10.30 7.41 1.00
50596 2021-10-13 20:32:41 Terrasse 10.50 7.63 1.00
50595 2021-10-13 20:04:31 Terrasse 10.70 7.85 1.00
50594 2021-10-13 19:36:13 Terrasse 10.90 8.07 1.00
50593 2021-10-13 19:07:05 Terrasse 11.30 11.09 99.90
50592 2021-10-13 18:38:58 Terrasse 12.00 9.28 1.00
50591 2021-10-13 18:10:48 Terrasse 13.10 10.49 1.00
50590 2021-10-13 17:42:49 Terrasse 14.90 15.05 99.90
50589 2021-10-13 17:15:31 Terrasse 22.80 23.74 99.90
50588 2021-10-13 16:46:48 Terrasse 24.40 25.50 99.90
50587 2021-10-13 16:18:30 Terrasse 19.00 16.98 1.00
50586 2021-10-13 15:19:22 Terrasse 12.30 9.61 1.00
50585 2021-10-13 14:51:26 Terrasse 13.00 10.38 1.00
50584 2021-10-13 14:23:21 Terrasse 12.70 10.05 1.00
50583 2021-10-13 13:55:05 Terrasse 12.10 11.97 99.90
50582 2021-10-13 13:27:12 Terrasse 11.10 8.29 1.00
50581 2021-10-13 12:59:06 Terrasse 11.70 11.53 99.90
50580 2021-10-13 12:31:27 Terrasse 11.70 8.95 1.00
50579 2021-10-13 12:03:11 Terrasse 11.60 11.42 99.90
50578 2021-10-13 11:35:19 Terrasse 10.00 7.22 6.20
50577 2021-10-13 11:07:12 Terrasse 9.20 8.78 99.90
50576 2021-10-13 10:38:47 Terrasse 8.70 8.23 99.90
50575 2021-10-13 10:09:53 Terrasse 8.40 7.90 99.90
50574 2021-10-13 09:41:19 Terrasse 8.10 7.57 99.90
50573 2021-10-13 09:12:19 Terrasse 7.90 4.77 1.00
50572 2021-10-13 08:43:35 Terrasse 7.60 4.44 1.00
50571 2021-10-13 08:14:48 Terrasse 7.40 4.22 1.00
50570 2021-10-13 07:46:17 Terrasse 7.50 4.33 1.00
50569 2021-10-13 07:19:31 Terrasse 7.50 4.33 1.00
50568 2021-10-13 06:51:00 Terrasse 7.50 4.33 1.00
50567 2021-10-13 06:22:15 Terrasse 7.40 4.22 1.00
50566 2021-10-13 05:51:00 Terrasse 7.50 4.33 1.00
50565 2021-10-13 05:22:47 Terrasse 7.50 4.33 1.00
50564 2021-10-13 04:54:32 Terrasse 7.30 4.11 1.00
50563 2021-10-13 04:26:18 Terrasse 7.30 4.11 1.00
50562 2021-10-13 03:58:04 Terrasse 7.10 6.47 99.90
50561 2021-10-13 03:29:50 Terrasse 6.90 6.25 99.90
50560 2021-10-13 03:01:36 Terrasse 6.80 6.14 99.90
50559 2021-10-13 02:33:24 Terrasse 6.90 6.25 99.90
50558 2021-10-13 02:05:11 Terrasse 7.00 6.36 99.90
50557 2021-10-13 01:36:59 Terrasse 7.00 6.36 99.90
50556 2021-10-13 01:08:48 Terrasse 7.40 6.20 76.60
50555 2021-10-13 00:40:37 Terrasse 7.30 6.45 90.40
50554 2021-10-13 00:12:26 Terrasse 7.70 6.93 91.90
50553 2021-10-12 23:44:13 Terrasse 8.00 5.92 40.70
50552 2021-10-12 23:16:02 Terrasse 8.20 7.68 99.90
50551 2021-10-12 22:47:50 Terrasse 8.30 7.79 99.90
50550 2021-10-12 22:19:36 Terrasse 8.40 7.90 99.90
50549 2021-10-12 21:51:24 Terrasse 8.50 8.01 99.90
50548 2021-10-12 21:23:13 Terrasse 8.80 8.34 99.90
50547 2021-10-12 20:55:02 Terrasse 9.00 8.56 99.90
50546 2021-10-12 20:26:49 Terrasse 9.20 8.78 99.90
50545 2021-10-12 19:58:37 Terrasse 9.50 9.11 99.90
50544 2021-10-12 19:30:25 Terrasse 9.90 9.55 99.90
50543 2021-10-12 19:02:15 Terrasse 10.20 9.88 99.90
50542 2021-10-12 18:34:03 Terrasse 10.50 10.21 99.90
50541 2021-10-12 18:05:51 Terrasse 10.70 10.43 99.90
50540 2021-10-12 17:37:40 Terrasse 11.30 11.09 99.90
50539 2021-10-12 17:09:27 Terrasse 11.50 11.31 99.90
50538 2021-10-12 16:41:08 Terrasse 11.40 11.20 99.90
50537 2021-10-12 16:12:54 Terrasse 11.30 8.51 1.00
50536 2021-10-12 15:44:40 Terrasse 11.30 8.51 1.00
50535 2021-10-12 15:16:27 Terrasse 11.40 8.62 1.00
50534 2021-10-12 14:48:14 Terrasse 11.40 8.62 1.00
50533 2021-10-12 14:19:59 Terrasse 11.00 10.76 99.90
50532 2021-10-12 13:51:44 Terrasse 10.80 10.54 99.90
50531 2021-10-12 13:23:30 Terrasse 10.80 10.54 99.90
50530 2021-10-12 12:55:14 Terrasse 10.70 10.43 99.90
50529 2021-10-12 12:27:01 Terrasse 10.60 7.74 1.00
50528 2021-10-12 11:58:47 Terrasse 10.50 10.21 99.90
50527 2021-10-12 11:30:31 Terrasse 10.30 7.41 1.00
50526 2021-10-12 11:02:18 Terrasse 10.20 7.30 1.00
50525 2021-10-12 10:34:04 Terrasse 10.20 7.30 1.00
50524 2021-10-12 10:05:50 Terrasse 10.20 7.30 1.00
50523 2021-10-12 09:37:35 Terrasse 10.10 9.77 99.90
50522 2021-10-12 09:09:20 Terrasse 10.00 9.66 99.90
50521 2021-10-12 08:41:05 Terrasse 9.90 9.55 99.90
50520 2021-10-12 08:12:51 Terrasse 9.80 9.44 99.90
50519 2021-10-12 07:44:38 Terrasse 9.80 9.44 99.90
50518 2021-10-12 07:16:24 Terrasse 9.80 6.86 1.00
50517 2021-10-12 06:48:11 Terrasse 9.90 9.55 99.90
50516 2021-10-12 06:19:59 Terrasse 10.10 7.19 1.00
50515 2021-10-12 05:51:54 Terrasse 10.10 9.77 99.90
50514 2021-10-12 05:23:40 Terrasse 10.20 9.88 99.90
50513 2021-10-12 04:55:28 Terrasse 10.30 9.99 99.90
50512 2021-10-12 04:27:15 Terrasse 10.30 9.99 99.90
50511 2021-10-12 03:59:05 Terrasse 10.30 9.99 99.90
50510 2021-10-12 03:30:49 Terrasse 10.30 9.99 99.90
50509 2021-10-12 03:02:37 Terrasse 10.40 10.10 99.90
50508 2021-10-12 02:34:23 Terrasse 10.50 10.21 99.90
50507 2021-10-12 02:06:10 Terrasse 10.60 10.32 99.90
50506 2021-10-12 01:37:54 Terrasse 10.50 10.21 99.90
50505 2021-10-12 01:09:40 Terrasse 10.50 10.21 99.90
50504 2021-10-12 00:41:26 Terrasse 10.60 10.32 99.90
50503 2021-10-12 00:13:11 Terrasse 10.70 8.78 36.60
50502 2021-10-11 23:44:59 Terrasse 10.80 7.96 1.00
50501 2021-10-11 23:16:47 Terrasse 10.90 8.07 1.00
50500 2021-10-11 22:48:33 Terrasse 11.00 10.75 99.30
50499 2021-10-11 22:20:19 Terrasse 11.00 8.18 1.00
50498 2021-10-11 21:52:05 Terrasse 10.90 8.07 1.00
50497 2021-10-11 21:23:52 Terrasse 11.00 8.18 1.00
50496 2021-10-11 20:55:39 Terrasse 11.10 8.29 1.00
50495 2021-10-11 20:27:26 Terrasse 11.20 10.98 99.90
50494 2021-10-11 19:59:14 Terrasse 11.40 11.20 99.90
50493 2021-10-11 19:31:01 Terrasse 11.60 11.41 99.50
50492 2021-10-11 19:02:48 Terrasse 11.70 8.95 1.00
50491 2021-10-11 18:34:36 Terrasse 12.10 9.39 1.00
50490 2021-10-11 18:06:27 Terrasse 12.70 10.05 1.00
50489 2021-10-11 17:39:09 Terrasse 13.00 10.38 1.00
50488 2021-10-11 17:10:19 Terrasse 13.40 10.82 1.00
50487 2021-10-11 16:42:19 Terrasse 14.50 12.03 1.00
50486 2021-10-11 16:14:04 Terrasse 15.50 13.13 1.00
50485 2021-10-11 15:45:52 Terrasse 16.00 13.68 1.00
50484 2021-10-11 15:17:25 Terrasse 13.80 11.26 1.00
50483 2021-10-11 14:49:07 Terrasse 12.90 12.85 99.90
50482 2021-10-11 14:20:56 Terrasse 13.30 13.29 99.90
50481 2021-10-11 13:52:40 Terrasse 13.10 13.07 99.90
50480 2021-10-11 13:25:11 Terrasse 12.60 9.94 1.00
50479 2021-10-11 12:57:25 Terrasse 12.40 9.72 1.00
50478 2021-10-11 12:29:17 Terrasse 11.40 11.20 99.90
50477 2021-10-11 12:00:18 Terrasse 10.90 10.65 99.90
50476 2021-10-11 11:32:01 Terrasse 10.50 10.21 99.90
50475 2021-10-11 11:03:44 Terrasse 10.00 7.08 1.00
50474 2021-10-11 10:35:30 Terrasse 9.80 6.86 1.00
50473 2021-10-11 10:07:14 Terrasse 9.60 9.22 99.90
50472 2021-10-11 09:39:00 Terrasse 9.40 9.00 99.90
50471 2021-10-11 09:10:43 Terrasse 9.00 8.56 99.90
50470 2021-10-11 08:42:28 Terrasse 8.70 8.23 99.90
50469 2021-10-11 08:14:12 Terrasse 8.40 7.90 99.90
50468 2021-10-11 07:45:59 Terrasse 8.40 7.90 99.90
50467 2021-10-11 07:17:47 Terrasse 8.50 8.01 99.90
50466 2021-10-11 06:49:34 Terrasse 8.50 8.01 99.90
50465 2021-10-11 06:21:20 Terrasse 8.10 6.05 41.70
50464 2021-10-11 05:54:32 Terrasse 8.00 7.46 99.90
50463 2021-10-11 04:57:29 Terrasse 7.70 5.94 54.00
50462 2021-10-11 04:28:58 Terrasse 7.80 4.66 1.00
50461 2021-10-11 04:00:36 Terrasse 8.00 4.88 1.00
50460 2021-10-11 03:32:07 Terrasse 8.30 5.21 1.00
50459 2021-10-11 03:03:48 Terrasse 8.30 7.79 99.90
50458 2021-10-11 02:35:38 Terrasse 8.60 8.12 99.90
50457 2021-10-11 02:07:15 Terrasse 8.50 5.43 1.00
50456 2021-10-11 01:38:53 Terrasse 8.90 8.45 99.90
50455 2021-10-11 01:10:29 Terrasse 8.80 8.34 99.90
50454 2021-10-11 00:42:16 Terrasse 9.20 6.20 1.00
50453 2021-10-11 00:14:32 Terrasse 9.40 6.42 1.00
50452 2021-10-10 23:44:55 Terrasse 9.60 9.22 99.90
50451 2021-10-10 23:16:42 Terrasse 9.90 9.55 99.90
50450 2021-10-10 22:48:30 Terrasse 10.00 7.54 18.40
50449 2021-10-10 22:20:18 Terrasse 10.20 7.30 1.00
50448 2021-10-10 21:52:06 Terrasse 10.20 7.30 1.00
50447 2021-10-10 21:23:54 Terrasse 10.40 10.10 99.90
50446 2021-10-10 20:55:41 Terrasse 10.80 10.54 99.90
50445 2021-10-10 20:27:32 Terrasse 11.20 10.98 99.90
50444 2021-10-10 19:59:22 Terrasse 11.70 8.95 1.00
50443 2021-10-10 19:31:13 Terrasse 12.40 10.31 23.50
50442 2021-10-10 19:03:04 Terrasse 13.10 13.07 99.90
50441 2021-10-10 18:34:56 Terrasse 14.10 11.59 1.00
50440 2021-10-10 18:06:51 Terrasse 15.50 13.13 1.00
50439 2021-10-10 17:38:50 Terrasse 17.40 17.80 99.90
50438 2021-10-10 17:11:02 Terrasse 24.40 25.50 99.90
50437 2021-10-10 16:42:22 Terrasse 22.30 23.19 99.90
50436 2021-10-10 16:14:03 Terrasse 16.80 14.56 1.00
50435 2021-10-10 15:45:51 Terrasse 17.80 18.12 95.00
50434 2021-10-10 15:17:44 Terrasse 18.80 16.76 1.00
50433 2021-10-10 14:49:31 Terrasse 18.40 18.90 99.90
50432 2021-10-10 14:21:09 Terrasse 17.70 18.13 99.90
50431 2021-10-10 13:52:53 Terrasse 17.80 18.24 99.90
50430 2021-10-10 13:24:36 Terrasse 17.40 17.80 99.90
50429 2021-10-10 12:56:27 Terrasse 17.20 17.58 99.90
50428 2021-10-10 12:27:49 Terrasse 15.20 15.38 99.90
50427 2021-10-10 11:59:23 Terrasse 13.10 10.49 1.00
50426 2021-10-10 11:31:04 Terrasse 12.00 11.86 99.90
50425 2021-10-10 11:02:44 Terrasse 11.20 8.40 1.00
50424 2021-10-10 10:34:24 Terrasse 10.40 7.52 1.00
50423 2021-10-10 10:06:06 Terrasse 9.50 9.11 99.90
50422 2021-10-10 09:37:47 Terrasse 8.70 5.65 1.00
50421 2021-10-10 09:09:30 Terrasse 7.90 7.35 99.90
50420 2021-10-10 08:41:16 Terrasse 7.60 7.02 99.90
50419 2021-10-10 08:13:03 Terrasse 7.60 7.02 99.90
50418 2021-10-10 07:44:50 Terrasse 7.80 7.24 99.90
50417 2021-10-10 07:16:38 Terrasse 8.00 4.88 1.00
50416 2021-10-10 06:48:27 Terrasse 8.30 5.21 1.00
50415 2021-10-10 06:20:16 Terrasse 8.80 6.24 19.20
50414 2021-10-10 05:52:05 Terrasse 8.90 5.87 1.00
50413 2021-10-10 05:23:53 Terrasse 9.20 8.78 99.90
50412 2021-10-10 04:55:41 Terrasse 9.40 6.42 1.00
50411 2021-10-10 04:27:30 Terrasse 9.60 9.22 99.90
50410 2021-10-10 03:59:17 Terrasse 9.90 6.97 1.00
50409 2021-10-10 03:31:06 Terrasse 10.10 7.19 1.00
50408 2021-10-10 03:02:55 Terrasse 10.40 9.19 64.90
50407 2021-10-10 02:34:42 Terrasse 10.60 7.74 1.00
50406 2021-10-10 02:06:35 Terrasse 11.10 8.29 1.00
50405 2021-10-10 01:38:23 Terrasse 11.50 11.31 99.90
50404 2021-10-10 01:10:12 Terrasse 11.70 8.95 1.00
50403 2021-10-10 00:42:03 Terrasse 12.10 9.39 1.00
50402 2021-10-10 00:13:48 Terrasse 12.20 9.50 1.00
50401 2021-10-09 23:46:28 Terrasse 12.50 9.83 1.00
50400 2021-10-09 23:18:39 Terrasse 12.80 10.16 1.00
50399 2021-10-09 22:50:49 Terrasse 13.00 12.96 99.90
50398 2021-10-09 22:21:58 Terrasse 13.20 10.60 1.00
50397 2021-10-09 21:53:44 Terrasse 13.50 13.51 99.90
50396 2021-10-09 21:26:08 Terrasse 13.80 13.84 99.90
50395 2021-10-09 20:58:12 Terrasse 14.00 14.06 99.90
50394 2021-10-09 20:30:39 Terrasse 14.40 14.37 94.90
50393 2021-10-09 20:02:37 Terrasse 14.90 12.47 1.00
50392 2021-10-09 19:34:26 Terrasse 15.50 13.13 1.00
50391 2021-10-09 19:06:20 Terrasse 16.00 13.68 1.00
50390 2021-10-09 18:38:16 Terrasse 17.30 15.11 1.00
50389 2021-10-09 18:10:10 Terrasse 18.60 19.12 99.90
50388 2021-10-09 17:42:11 Terrasse 21.30 19.51 1.00
50387 2021-10-09 17:14:40 Terrasse 31.00 28.00 1.00
50386 2021-10-09 16:46:18 Terrasse 31.10 28.08 1.00
50385 2021-10-09 16:17:51 Terrasse 25.60 24.24 1.00
50384 2021-10-09 15:49:28 Terrasse 22.90 23.41 82.80
50383 2021-10-09 15:21:09 Terrasse 21.10 19.29 1.00
50382 2021-10-09 14:52:56 Terrasse 20.70 18.85 1.00
50381 2021-10-09 14:24:40 Terrasse 20.20 18.30 1.00
50380 2021-10-09 13:56:38 Terrasse 20.10 18.19 1.00
50379 2021-10-09 13:28:27 Terrasse 19.50 17.53 1.00
50378 2021-10-09 13:00:34 Terrasse 19.50 17.53 1.00
50377 2021-10-09 12:31:53 Terrasse 17.70 18.13 99.90
50376 2021-10-09 12:03:27 Terrasse 15.50 13.13 1.00
50375 2021-10-09 11:35:05 Terrasse 14.40 11.92 1.00
50374 2021-10-09 11:06:46 Terrasse 13.40 13.40 99.90
50373 2021-10-09 10:38:26 Terrasse 12.40 9.72 1.00
50372 2021-10-09 10:10:08 Terrasse 11.70 8.95 1.00
50371 2021-10-09 09:41:50 Terrasse 11.00 9.62 56.10
50370 2021-10-09 09:13:34 Terrasse 10.50 7.63 1.00
50369 2021-10-09 08:45:19 Terrasse 10.30 7.41 1.00
50368 2021-10-09 08:17:06 Terrasse 10.20 9.88 99.90
50367 2021-10-09 07:48:52 Terrasse 10.20 9.88 99.90
50366 2021-10-09 07:20:39 Terrasse 10.40 7.52 1.00
50365 2021-10-09 06:52:27 Terrasse 10.50 7.63 1.00
50364 2021-10-09 06:24:14 Terrasse 10.60 9.36 62.90
50363 2021-10-09 05:57:02 Terrasse 10.70 10.43 99.90
50362 2021-10-09 05:28:54 Terrasse 10.70 7.85 1.00
50361 2021-10-09 05:00:48 Terrasse 10.80 10.54 99.90
50360 2021-10-09 04:32:42 Terrasse 11.00 8.23 2.90
50359 2021-10-09 04:05:06 Terrasse 11.10 8.29 1.00
50358 2021-10-09 03:36:13 Terrasse 11.20 10.98 99.90
50357 2021-10-09 03:08:07 Terrasse 11.30 11.09 99.90
50356 2021-10-09 02:40:08 Terrasse 11.50 11.31 99.90
50355 2021-10-09 02:12:03 Terrasse 11.60 8.84 1.00
50354 2021-10-09 01:43:59 Terrasse 11.80 10.19 44.10
50353 2021-10-09 01:15:54 Terrasse 11.80 11.64 99.90
50352 2021-10-09 00:47:57 Terrasse 12.10 11.97 99.90
50351 2021-10-09 00:19:58 Terrasse 12.10 9.39 1.00
50350 2021-10-08 23:51:02 Terrasse 12.30 12.19 99.90
50349 2021-10-08 23:22:50 Terrasse 12.50 12.41 99.90
50348 2021-10-08 22:54:36 Terrasse 12.70 12.63 99.90
50347 2021-10-08 22:26:24 Terrasse 12.90 12.85 99.90
50346 2021-10-08 21:58:12 Terrasse 13.20 13.18 99.90
50345 2021-10-08 21:30:00 Terrasse 13.50 13.51 99.90
50344 2021-10-08 21:01:48 Terrasse 13.80 11.26 1.00
50343 2021-10-08 20:33:38 Terrasse 14.20 11.70 1.00
50342 2021-10-08 20:05:26 Terrasse 14.70 12.25 1.00
50341 2021-10-08 19:37:14 Terrasse 15.10 12.69 1.00
50340 2021-10-08 19:09:01 Terrasse 15.60 15.82 99.90
50339 2021-10-08 18:40:52 Terrasse 16.20 13.90 1.00
50338 2021-10-08 18:12:42 Terrasse 16.90 14.67 1.00
50337 2021-10-08 17:44:37 Terrasse 18.40 18.90 99.90
50336 2021-10-08 17:16:47 Terrasse 23.80 24.84 99.90
50335 2021-10-08 16:48:41 Terrasse 24.20 25.28 99.90
50334 2021-10-08 16:19:56 Terrasse 18.30 18.79 99.90
50333 2021-10-08 15:51:46 Terrasse 18.70 17.42 30.40
50332 2021-10-08 15:23:25 Terrasse 17.40 17.80 99.90
50331 2021-10-08 14:55:18 Terrasse 18.30 16.21 1.00
50330 2021-10-08 14:27:02 Terrasse 17.90 15.77 1.00
50329 2021-10-08 13:58:45 Terrasse 17.50 17.91 99.90
50328 2021-10-08 13:30:29 Terrasse 17.20 17.58 99.90
50327 2021-10-08 13:02:26 Terrasse 18.50 16.43 1.00
50326 2021-10-08 12:34:01 Terrasse 18.80 19.34 99.90
50325 2021-10-08 12:05:32 Terrasse 16.80 14.56 1.00
50324 2021-10-08 11:37:13 Terrasse 15.40 15.60 99.90
50323 2021-10-08 11:08:51 Terrasse 14.50 12.03 1.00
50322 2021-10-08 10:40:32 Terrasse 13.40 10.82 1.00
50321 2021-10-08 10:12:12 Terrasse 12.40 12.30 99.90
50320 2021-10-08 09:43:53 Terrasse 11.50 11.31 99.90
50319 2021-10-08 09:15:35 Terrasse 10.80 10.54 99.90
50318 2021-10-08 08:47:22 Terrasse 10.50 10.21 99.90
50317 2021-10-08 08:19:09 Terrasse 10.40 10.10 99.90
50316 2021-10-08 07:50:57 Terrasse 10.40 10.10 99.90
50315 2021-10-08 07:22:44 Terrasse 10.40 10.10 99.90
50314 2021-10-08 06:54:32 Terrasse 10.40 10.10 99.90
50313 2021-10-08 06:26:19 Terrasse 10.50 10.21 99.90
50312 2021-10-08 05:58:07 Terrasse 10.60 9.97 86.50
50311 2021-10-08 05:29:54 Terrasse 10.50 9.99 91.20
50310 2021-10-08 05:01:41 Terrasse 10.60 9.49 68.00
50309 2021-10-08 04:33:30 Terrasse 10.70 8.57 28.50
50308 2021-10-08 04:05:17 Terrasse 11.00 8.42 10.30
50307 2021-10-08 03:37:03 Terrasse 11.00 9.70 59.30
50306 2021-10-08 03:08:49 Terrasse 11.10 8.98 27.50
50305 2021-10-08 02:40:36 Terrasse 11.00 10.76 99.90
50304 2021-10-08 02:12:22 Terrasse 11.00 10.75 99.20
50303 2021-10-08 01:44:09 Terrasse 11.00 9.76 61.60
50302 2021-10-08 01:15:54 Terrasse 10.90 8.79 28.60
50301 2021-10-08 00:47:43 Terrasse 11.00 8.18 1.00
50300 2021-10-08 00:19:29 Terrasse 11.10 8.98 27.30
50299 2021-10-07 23:51:17 Terrasse 11.20 8.40 1.00
50298 2021-10-07 23:23:06 Terrasse 11.30 8.51 1.00
50297 2021-10-07 22:54:52 Terrasse 11.40 8.62 1.00
50296 2021-10-07 22:26:39 Terrasse 11.60 8.84 1.00
50295 2021-10-07 21:58:27 Terrasse 11.80 9.06 1.00
50294 2021-10-07 21:30:16 Terrasse 12.10 9.39 1.00
50293 2021-10-07 21:02:04 Terrasse 12.50 12.41 99.90
50292 2021-10-07 20:33:52 Terrasse 12.70 12.63 99.90
50291 2021-10-07 20:05:42 Terrasse 13.10 13.07 99.90
50290 2021-10-07 19:37:33 Terrasse 13.60 13.62 99.90
50289 2021-10-07 19:09:24 Terrasse 14.20 14.28 99.90
50288 2021-10-07 18:41:15 Terrasse 15.10 12.69 1.00
50287 2021-10-07 18:13:05 Terrasse 16.10 13.79 1.00
50286 2021-10-07 17:45:01 Terrasse 17.70 18.13 99.90
50285 2021-10-07 17:16:40 Terrasse 19.30 17.31 1.00
50284 2021-10-07 16:48:52 Terrasse 23.10 21.49 1.00
50283 2021-10-07 16:20:21 Terrasse 22.80 21.16 1.00
50282 2021-10-07 15:51:47 Terrasse 18.20 18.59 96.30
50281 2021-10-07 15:23:31 Terrasse 16.40 16.70 99.90
50280 2021-10-07 14:55:28 Terrasse 17.70 18.13 99.90
50279 2021-10-07 14:27:17 Terrasse 19.10 19.67 99.90
50278 2021-10-07 13:59:06 Terrasse 18.50 17.60 45.90
50277 2021-10-07 13:30:46 Terrasse 17.80 15.66 1.00
50276 2021-10-07 13:02:28 Terrasse 16.50 14.23 1.00
50275 2021-10-07 12:33:55 Terrasse 16.40 16.70 99.90
50274 2021-10-07 12:05:26 Terrasse 14.70 12.25 1.00
50273 2021-10-07 11:37:07 Terrasse 13.40 13.40 99.90
50272 2021-10-07 11:08:42 Terrasse 12.30 9.61 1.00
50271 2021-10-07 10:40:26 Terrasse 11.60 8.84 1.00
50270 2021-10-07 10:12:09 Terrasse 11.00 8.18 1.00
50269 2021-10-07 09:43:57 Terrasse 10.80 7.96 1.00
50268 2021-10-07 09:15:44 Terrasse 10.90 8.07 1.00
50267 2021-10-07 08:47:30 Terrasse 11.00 8.18 1.00
50266 2021-10-07 08:19:15 Terrasse 10.90 8.07 1.00
50265 2021-10-07 07:51:02 Terrasse 10.70 7.85 1.00
50264 2021-10-07 07:22:48 Terrasse 10.70 7.85 1.00
50263 2021-10-07 06:54:36 Terrasse 10.80 7.96 1.00
50262 2021-10-07 06:26:23 Terrasse 10.80 7.96 1.00
50261 2021-10-07 05:58:10 Terrasse 10.80 7.96 1.00
50260 2021-10-07 05:29:58 Terrasse 10.80 7.96 1.00
50259 2021-10-07 05:01:45 Terrasse 10.70 7.85 1.00
50258 2021-10-07 04:33:31 Terrasse 10.80 7.96 1.00
50257 2021-10-07 04:05:19 Terrasse 10.80 7.96 1.00
50256 2021-10-07 03:37:06 Terrasse 10.80 7.96 1.00
50255 2021-10-07 03:08:52 Terrasse 10.90 8.07 1.00
50254 2021-10-07 02:40:39 Terrasse 10.90 8.07 1.00
50253 2021-10-07 02:12:25 Terrasse 10.90 8.07 1.00
50252 2021-10-07 01:44:13 Terrasse 10.90 8.07 1.00
50251 2021-10-07 01:16:00 Terrasse 10.90 8.07 1.00
50250 2021-10-07 00:47:47 Terrasse 10.90 8.07 1.00
50249 2021-10-07 00:19:33 Terrasse 10.80 7.96 1.00
50248 2021-10-06 23:51:20 Terrasse 10.90 8.07 1.00
50247 2021-10-06 23:23:08 Terrasse 11.00 8.18 1.00
50246 2021-10-06 22:54:55 Terrasse 11.10 8.29 1.00
50245 2021-10-06 22:26:44 Terrasse 11.20 8.40 1.00
50244 2021-10-06 21:58:32 Terrasse 11.30 8.51 1.00
50243 2021-10-06 21:30:18 Terrasse 11.40 8.62 1.00
50242 2021-10-06 21:02:07 Terrasse 11.50 11.31 99.90
50241 2021-10-06 20:33:54 Terrasse 11.50 8.73 1.00
50240 2021-10-06 20:05:40 Terrasse 11.60 8.84 1.00
50239 2021-10-06 19:37:27 Terrasse 11.60 8.84 1.00
50238 2021-10-06 19:09:13 Terrasse 11.70 8.95 1.00
50237 2021-10-06 18:41:02 Terrasse 11.90 11.75 99.90
50236 2021-10-06 18:12:48 Terrasse 12.00 11.86 99.90
50235 2021-10-06 17:44:36 Terrasse 12.10 11.97 99.90
50234 2021-10-06 17:16:24 Terrasse 12.50 11.07 48.40
50233 2021-10-06 16:48:05 Terrasse 11.90 11.75 99.90
50232 2021-10-06 16:19:50 Terrasse 11.80 9.06 1.00
50231 2021-10-06 15:51:37 Terrasse 11.80 9.06 1.00
50230 2021-10-06 15:23:22 Terrasse 11.80 9.06 1.00
50229 2021-10-06 14:55:11 Terrasse 11.90 9.17 1.00
50228 2021-10-06 14:26:56 Terrasse 11.80 9.06 1.00
50227 2021-10-06 13:58:43 Terrasse 11.60 8.84 1.00
50226 2021-10-06 13:30:30 Terrasse 11.70 8.95 1.00
50225 2021-10-06 13:02:16 Terrasse 11.70 8.95 1.00
50224 2021-10-06 12:34:05 Terrasse 12.00 11.86 99.90
50223 2021-10-06 12:05:47 Terrasse 11.50 8.73 1.00
50222 2021-10-06 11:37:34 Terrasse 11.50 11.31 99.90
50221 2021-10-06 11:09:19 Terrasse 11.30 11.09 99.90
50220 2021-10-06 10:41:06 Terrasse 11.40 11.20 99.90
50219 2021-10-06 10:12:49 Terrasse 10.80 7.96 1.00
50218 2021-10-06 09:44:36 Terrasse 10.60 7.74 1.00
50217 2021-10-06 09:16:22 Terrasse 10.60 7.74 1.00
50216 2021-10-06 08:48:09 Terrasse 10.80 7.96 1.00
50215 2021-10-06 08:19:55 Terrasse 10.50 7.63 1.00
50214 2021-10-06 07:51:43 Terrasse 10.50 7.63 1.00
50213 2021-10-06 07:23:30 Terrasse 10.40 7.52 1.00
50212 2021-10-06 06:55:18 Terrasse 10.40 7.52 1.00
50211 2021-10-06 06:27:04 Terrasse 10.40 7.52 1.00
50210 2021-10-06 05:58:50 Terrasse 10.40 7.52 1.00
50209 2021-10-06 05:30:38 Terrasse 10.50 7.63 1.00
50208 2021-10-06 05:02:25 Terrasse 10.60 7.74 1.00
50207 2021-10-06 04:34:13 Terrasse 10.70 7.85 1.00
50206 2021-10-06 04:05:59 Terrasse 10.80 7.96 1.00
50205 2021-10-06 03:37:47 Terrasse 10.80 7.96 1.00
50204 2021-10-06 03:09:34 Terrasse 11.00 8.18 1.00
50203 2021-10-06 02:41:22 Terrasse 11.00 8.18 1.00
50202 2021-10-06 02:13:09 Terrasse 11.10 8.29 1.00
50201 2021-10-06 01:44:56 Terrasse 11.10 8.29 1.00
50200 2021-10-06 01:16:42 Terrasse 11.20 8.40 1.00
50199 2021-10-06 00:48:30 Terrasse 11.20 8.40 1.00
50198 2021-10-06 00:20:16 Terrasse 11.30 8.51 1.00
50197 2021-10-05 23:52:07 Terrasse 11.60 11.42 99.90
50196 2021-10-05 23:23:53 Terrasse 11.90 11.75 99.90
50195 2021-10-05 22:55:41 Terrasse 12.30 12.19 99.90
50194 2021-10-05 22:27:35 Terrasse 12.50 9.83 1.00
50193 2021-10-05 21:59:26 Terrasse 12.90 10.27 1.00
50192 2021-10-05 21:31:32 Terrasse 13.10 10.49 1.00
50191 2021-10-05 21:03:13 Terrasse 13.30 10.71 1.00
50190 2021-10-05 20:34:59 Terrasse 13.50 10.93 1.00
50189 2021-10-05 20:06:45 Terrasse 13.50 10.93 1.00
50188 2021-10-05 19:38:32 Terrasse 13.70 11.15 1.00
50187 2021-10-05 19:10:21 Terrasse 14.00 11.48 1.00
50186 2021-10-05 18:42:09 Terrasse 14.30 14.39 99.90
50185 2021-10-05 18:13:57 Terrasse 14.50 12.03 1.00
50184 2021-10-05 17:45:44 Terrasse 14.70 12.25 1.00
50183 2021-10-05 17:17:34 Terrasse 15.20 15.38 99.90
50182 2021-10-05 16:49:22 Terrasse 15.30 12.91 1.00
50181 2021-10-05 16:21:11 Terrasse 15.90 16.15 99.90
50180 2021-10-05 15:52:52 Terrasse 15.60 15.82 99.90
50179 2021-10-05 15:24:40 Terrasse 15.90 16.15 99.90
50178 2021-10-05 14:56:18 Terrasse 15.20 12.80 1.00
50177 2021-10-05 14:28:05 Terrasse 14.70 14.83 99.90
50176 2021-10-05 13:59:49 Terrasse 14.60 14.72 99.90
50175 2021-10-05 13:31:29 Terrasse 13.60 13.62 99.90
50174 2021-10-05 13:03:12 Terrasse 13.20 10.60 1.00
50173 2021-10-05 12:34:59 Terrasse 13.10 10.49 1.00
50172 2021-10-05 12:06:43 Terrasse 12.60 9.94 1.00
50171 2021-10-05 11:39:42 Terrasse 12.50 9.83 1.00
50170 2021-10-05 11:10:18 Terrasse 12.40 9.72 1.00
50169 2021-10-05 10:42:11 Terrasse 12.40 9.72 1.00
50168 2021-10-05 10:13:58 Terrasse 12.00 9.28 1.00
50167 2021-10-05 09:45:44 Terrasse 12.00 9.28 1.00
50166 2021-10-05 09:17:30 Terrasse 12.10 9.39 1.00
50165 2021-10-05 08:49:17 Terrasse 12.10 9.39 1.00
50164 2021-10-05 08:21:03 Terrasse 12.00 9.28 1.00
50163 2021-10-05 07:52:50 Terrasse 12.00 9.28 1.00
50162 2021-10-05 07:24:39 Terrasse 11.90 9.17 1.00
50161 2021-10-05 06:56:30 Terrasse 12.00 9.28 1.00
50160 2021-10-05 06:28:23 Terrasse 12.00 9.28 1.00
50159 2021-10-05 06:00:12 Terrasse 12.10 9.39 1.00
50158 2021-10-05 05:31:59 Terrasse 12.20 9.50 1.00
50157 2021-10-05 05:03:46 Terrasse 12.30 9.61 1.00
50156 2021-10-05 04:35:31 Terrasse 12.30 9.61 1.00
50155 2021-10-05 04:07:18 Terrasse 12.40 9.72 1.00
50154 2021-10-05 03:39:05 Terrasse 12.60 9.94 1.00
50153 2021-10-05 03:10:52 Terrasse 12.60 9.94 1.00
50152 2021-10-05 02:42:38 Terrasse 12.70 10.05 1.00
50151 2021-10-05 02:14:25 Terrasse 12.60 9.94 1.00
50150 2021-10-05 01:46:14 Terrasse 12.60 9.94 1.00
50149 2021-10-05 01:18:00 Terrasse 12.70 10.05 1.00
50148 2021-10-05 00:49:46 Terrasse 12.80 12.74 99.90
50147 2021-10-05 00:21:34 Terrasse 13.00 12.96 99.90
50146 2021-10-04 23:53:19 Terrasse 13.10 13.07 99.90
50145 2021-10-04 23:25:08 Terrasse 13.10 13.07 99.90
50144 2021-10-04 22:56:56 Terrasse 13.30 13.29 99.90
50143 2021-10-04 22:28:52 Terrasse 13.30 13.29 99.90
50142 2021-10-04 22:00:36 Terrasse 13.30 13.29 99.90
50141 2021-10-04 21:32:23 Terrasse 13.30 13.29 99.90
50140 2021-10-04 21:04:10 Terrasse 13.50 13.51 99.90
50139 2021-10-04 20:35:57 Terrasse 13.60 13.62 99.90
50138 2021-10-04 20:07:44 Terrasse 13.70 13.73 99.90
50137 2021-10-04 19:39:30 Terrasse 13.80 13.84 99.90
50136 2021-10-04 19:11:17 Terrasse 14.00 14.06 99.90
50135 2021-10-04 18:43:06 Terrasse 14.30 11.81 1.00
50134 2021-10-04 18:14:53 Terrasse 14.70 12.25 1.00
50133 2021-10-04 17:46:41 Terrasse 15.00 12.58 1.00
50132 2021-10-04 17:18:27 Terrasse 14.70 12.25 1.00
50131 2021-10-04 16:50:18 Terrasse 15.50 15.71 99.90
50130 2021-10-04 16:21:57 Terrasse 14.70 12.25 1.00
50129 2021-10-04 15:53:44 Terrasse 14.60 12.36 9.30
50128 2021-10-04 15:25:29 Terrasse 14.50 12.03 1.00
50127 2021-10-04 14:57:15 Terrasse 14.40 11.92 1.00
50126 2021-10-04 14:29:02 Terrasse 14.40 14.50 99.90
50125 2021-10-04 14:00:46 Terrasse 14.20 14.28 99.90
50124 2021-10-04 13:32:32 Terrasse 13.90 13.95 99.90
50123 2021-10-04 13:04:19 Terrasse 13.90 13.95 99.90
50122 2021-10-04 12:36:07 Terrasse 14.00 14.06 99.90
50121 2021-10-04 12:07:50 Terrasse 13.70 13.73 99.90
50120 2021-10-04 11:39:35 Terrasse 13.50 13.51 99.90
50119 2021-10-04 11:11:21 Terrasse 13.40 13.40 99.90
50118 2021-10-04 10:43:06 Terrasse 13.30 10.71 1.00
50117 2021-10-04 10:14:50 Terrasse 13.00 10.38 1.00
50116 2021-10-04 09:46:36 Terrasse 12.90 10.27 1.00
50115 2021-10-04 09:18:21 Terrasse 12.80 10.16 1.00
50114 2021-10-04 08:50:07 Terrasse 12.70 10.05 1.00
50113 2021-10-04 08:21:53 Terrasse 12.60 9.94 1.00
50112 2021-10-04 07:53:40 Terrasse 12.60 9.94 1.00
50111 2021-10-04 07:25:25 Terrasse 12.60 9.94 1.00
50110 2021-10-04 06:57:11 Terrasse 12.60 9.94 1.00
50109 2021-10-04 06:28:59 Terrasse 12.70 12.63 99.90
50108 2021-10-04 06:00:46 Terrasse 12.80 12.74 99.90
50107 2021-10-04 05:32:32 Terrasse 12.80 12.74 99.90
50106 2021-10-04 05:04:19 Terrasse 13.00 12.96 99.90
50105 2021-10-04 04:36:05 Terrasse 13.00 12.96 99.90
50104 2021-10-04 04:07:53 Terrasse 13.10 13.07 99.90
50103 2021-10-04 03:39:38 Terrasse 13.20 13.18 99.90
50102 2021-10-04 03:11:24 Terrasse 13.20 10.60 1.00
50101 2021-10-04 02:43:12 Terrasse 13.40 10.82 1.00
50100 2021-10-04 02:15:00 Terrasse 13.50 10.93 1.00
50099 2021-10-04 01:46:47 Terrasse 13.60 11.04 1.00
50098 2021-10-04 01:18:35 Terrasse 13.80 11.26 1.00
50097 2021-10-04 00:50:23 Terrasse 14.10 11.59 1.00
50096 2021-10-04 00:22:11 Terrasse 14.30 11.81 1.00
50095 2021-10-03 23:54:00 Terrasse 14.70 12.25 1.00
50094 2021-10-03 23:25:49 Terrasse 15.10 12.69 1.00
50093 2021-10-03 22:57:37 Terrasse 15.40 13.64 24.80
50092 2021-10-03 22:29:25 Terrasse 15.70 15.93 99.90
50091 2021-10-03 22:01:12 Terrasse 15.90 16.15 99.90
50090 2021-10-03 21:33:00 Terrasse 16.10 16.37 99.90
50089 2021-10-03 21:04:47 Terrasse 16.20 16.48 99.90
50088 2021-10-03 20:36:35 Terrasse 16.50 16.81 99.90
50087 2021-10-03 20:08:22 Terrasse 16.70 14.78 13.70
50086 2021-10-03 19:40:08 Terrasse 16.80 14.56 1.00
50085 2021-10-03 19:11:56 Terrasse 17.10 14.89 1.00
50084 2021-10-03 18:43:44 Terrasse 17.40 17.80 99.90
50083 2021-10-03 18:15:32 Terrasse 17.60 15.44 1.00
50082 2021-10-03 17:47:19 Terrasse 17.80 15.66 1.00
50081 2021-10-03 17:19:04 Terrasse 17.80 15.66 1.00
50080 2021-10-03 16:50:50 Terrasse 17.90 18.35 99.90
50079 2021-10-03 16:22:36 Terrasse 18.00 15.88 1.00
50078 2021-10-03 15:54:20 Terrasse 17.80 15.66 1.00
50077 2021-10-03 15:26:04 Terrasse 17.40 17.80 99.90
50076 2021-10-03 14:57:49 Terrasse 17.30 15.11 1.00
50075 2021-10-03 14:29:32 Terrasse 16.90 14.67 1.00
50074 2021-10-03 14:01:16 Terrasse 16.80 17.14 99.90
50073 2021-10-03 13:33:02 Terrasse 17.00 14.78 1.00
50072 2021-10-03 13:04:47 Terrasse 16.90 17.25 99.90
50071 2021-10-03 12:36:29 Terrasse 16.50 16.81 99.90
50070 2021-10-03 12:08:14 Terrasse 16.50 14.23 1.00
50069 2021-10-03 11:39:59 Terrasse 16.50 14.23 1.00
50068 2021-10-03 11:11:44 Terrasse 16.30 16.59 99.90
50067 2021-10-03 10:43:29 Terrasse 16.10 16.37 99.90
50066 2021-10-03 10:15:13 Terrasse 15.80 16.04 99.90
50065 2021-10-03 09:46:58 Terrasse 15.80 16.04 99.90
50064 2021-10-03 09:18:45 Terrasse 15.80 13.46 1.00
50063 2021-10-03 08:50:31 Terrasse 15.80 14.12 26.40
50062 2021-10-03 08:22:17 Terrasse 15.80 14.44 38.60
50061 2021-10-03 07:54:02 Terrasse 15.80 16.04 99.90
50060 2021-10-03 07:25:47 Terrasse 15.80 13.46 1.00
50059 2021-10-03 06:57:33 Terrasse 15.80 13.46 1.00
50058 2021-10-03 06:29:18 Terrasse 15.80 13.46 1.00
50057 2021-10-03 06:01:04 Terrasse 15.80 13.46 1.00
50056 2021-10-03 05:32:50 Terrasse 15.80 16.04 99.90
50055 2021-10-03 05:04:37 Terrasse 15.80 13.46 1.00
50054 2021-10-03 04:36:23 Terrasse 15.80 13.46 1.00
50053 2021-10-03 04:08:11 Terrasse 15.80 16.04 99.90
50052 2021-10-03 03:39:57 Terrasse 15.90 13.57 1.00
50051 2021-10-03 03:11:45 Terrasse 16.00 16.26 99.90
50050 2021-10-03 02:43:30 Terrasse 16.00 16.26 99.90
50049 2021-10-03 02:15:17 Terrasse 16.10 13.79 1.00
50048 2021-10-03 01:47:02 Terrasse 16.10 13.79 1.00
50047 2021-10-03 01:18:48 Terrasse 16.00 13.68 1.00
50046 2021-10-03 00:50:33 Terrasse 16.00 13.68 1.00
50045 2021-10-03 00:22:18 Terrasse 15.90 16.15 99.90
50044 2021-10-02 23:54:04 Terrasse 15.90 14.52 37.40
50043 2021-10-02 23:25:50 Terrasse 16.00 13.68 1.00
50042 2021-10-02 22:57:35 Terrasse 16.00 13.68 1.00
50041 2021-10-02 22:29:22 Terrasse 16.00 13.68 1.00
50040 2021-10-02 22:01:07 Terrasse 16.00 13.68 1.00
50039 2021-10-02 21:32:53 Terrasse 16.00 16.26 99.90
50038 2021-10-02 21:04:39 Terrasse 16.10 13.79 1.00
50037 2021-10-02 20:36:25 Terrasse 16.20 16.48 99.90
50036 2021-10-02 20:08:11 Terrasse 16.30 16.59 99.90
50035 2021-10-02 19:39:59 Terrasse 16.60 16.92 99.90
50034 2021-10-02 19:11:46 Terrasse 17.00 17.29 96.90
50033 2021-10-02 18:43:35 Terrasse 17.40 15.22 1.00
50032 2021-10-02 18:15:26 Terrasse 18.10 18.57 99.90
50031 2021-10-02 17:47:36 Terrasse 18.40 18.90 99.90
50030 2021-10-02 17:19:12 Terrasse 19.30 19.89 99.90
50029 2021-10-02 16:51:00 Terrasse 19.80 17.86 1.00
50028 2021-10-02 16:22:44 Terrasse 19.80 17.86 1.00
50027 2021-10-02 15:54:25 Terrasse 18.00 16.04 6.90
50026 2021-10-02 15:26:17 Terrasse 18.40 16.32 1.00
50025 2021-10-02 14:58:20 Terrasse 19.80 20.44 99.90
50024 2021-10-02 14:29:42 Terrasse 18.00 18.46 99.90
50023 2021-10-02 14:01:23 Terrasse 16.80 14.56 1.00
50022 2021-10-02 13:33:12 Terrasse 17.20 15.00 1.00
50021 2021-10-02 13:05:01 Terrasse 17.20 17.58 99.90
50020 2021-10-02 12:36:39 Terrasse 16.40 14.12 1.00
50019 2021-10-02 12:08:24 Terrasse 16.40 16.70 99.90
50018 2021-10-02 11:40:09 Terrasse 16.20 13.90 1.00
50017 2021-10-02 11:11:49 Terrasse 15.20 15.38 99.90
50016 2021-10-02 10:43:31 Terrasse 14.80 12.36 1.00
50015 2021-10-02 10:15:14 Terrasse 14.30 14.39 99.90
50014 2021-10-02 09:46:55 Terrasse 13.40 10.82 1.00
50013 2021-10-02 09:18:40 Terrasse 12.90 10.27 1.00
50012 2021-10-02 08:50:26 Terrasse 12.90 10.27 1.00
50011 2021-10-02 08:22:11 Terrasse 12.80 10.16 1.00
50010 2021-10-02 07:53:58 Terrasse 12.70 10.05 1.00
50009 2021-10-02 07:25:44 Terrasse 12.70 10.05 1.00
50008 2021-10-02 06:57:30 Terrasse 12.60 9.94 1.00
50007 2021-10-02 06:29:17 Terrasse 12.70 10.05 1.00
50006 2021-10-02 06:01:03 Terrasse 12.70 10.05 1.00
50005 2021-10-02 05:32:49 Terrasse 12.70 12.63 99.90
50004 2021-10-02 05:04:36 Terrasse 12.70 12.63 99.90
50003 2021-10-02 04:36:22 Terrasse 12.70 12.63 99.90
50002 2021-10-02 04:08:13 Terrasse 12.80 12.74 99.90
50001 2021-10-02 03:39:56 Terrasse 12.80 12.74 99.90
50000 2021-10-02 03:11:43 Terrasse 12.80 10.16 1.00
49999 2021-10-02 02:43:29 Terrasse 12.70 10.05 1.00
49998 2021-10-02 02:15:15 Terrasse 12.70 10.05 1.00
49997 2021-10-02 01:47:01 Terrasse 12.70 10.05 1.00
49996 2021-10-02 01:18:47 Terrasse 12.70 12.63 99.90
49995 2021-10-02 00:50:33 Terrasse 12.60 9.94 1.00
49994 2021-10-02 00:22:19 Terrasse 12.80 12.74 99.90
49993 2021-10-01 23:54:05 Terrasse 12.60 12.52 99.90
49992 2021-10-01 23:25:52 Terrasse 12.80 12.74 99.90
49991 2021-10-01 22:57:41 Terrasse 13.00 12.96 99.90
49990 2021-10-01 22:29:28 Terrasse 13.30 10.71 1.00
49989 2021-10-01 22:01:15 Terrasse 13.40 13.40 99.90
49988 2021-10-01 21:33:03 Terrasse 13.70 11.15 1.00
49987 2021-10-01 21:04:52 Terrasse 14.10 14.17 99.90
49986 2021-10-01 20:36:40 Terrasse 14.40 11.92 1.00
49985 2021-10-01 20:08:28 Terrasse 14.80 14.94 99.70
49984 2021-10-01 19:40:17 Terrasse 15.20 15.38 99.90
49983 2021-10-01 19:12:05 Terrasse 15.60 15.82 99.90
49982 2021-10-01 18:43:55 Terrasse 16.50 16.81 99.90
49981 2021-10-01 18:15:45 Terrasse 17.40 16.97 67.80
49980 2021-10-01 17:47:35 Terrasse 18.00 17.61 67.30
49979 2021-10-01 17:19:25 Terrasse 18.90 18.43 60.50
49978 2021-10-01 16:51:25 Terrasse 21.30 20.90 54.20
49977 2021-10-01 16:23:13 Terrasse 23.00 22.73 52.80
49976 2021-10-01 15:54:55 Terrasse 22.20 21.97 57.10
49975 2021-10-01 15:26:35 Terrasse 20.90 20.65 61.30
49974 2021-10-01 14:58:34 Terrasse 21.00 20.78 62.30
49973 2021-10-01 14:29:56 Terrasse 20.10 18.19 1.00
49972 2021-10-01 14:01:36 Terrasse 19.40 20.00 99.90
49971 2021-10-01 13:33:24 Terrasse 19.10 17.09 1.00
49970 2021-10-01 13:05:26 Terrasse 20.30 18.41 1.00
49969 2021-10-01 12:37:09 Terrasse 19.40 17.42 1.00
49968 2021-10-01 12:08:08 Terrasse 14.90 12.47 1.00
49967 2021-10-01 11:39:48 Terrasse 13.40 10.82 1.00
49966 2021-10-01 11:11:29 Terrasse 12.40 9.72 1.00
49965 2021-10-01 10:43:09 Terrasse 11.40 8.62 1.00
49964 2021-10-01 10:14:51 Terrasse 10.70 7.85 1.00
49963 2021-10-01 09:46:34 Terrasse 10.10 7.19 1.00
49962 2021-10-01 09:18:19 Terrasse 9.60 6.64 1.00
49961 2021-10-01 08:50:04 Terrasse 9.10 6.09 1.00
49960 2021-10-01 08:21:49 Terrasse 8.80 5.76 1.00
49959 2021-10-01 07:53:36 Terrasse 8.70 8.23 99.90
49958 2021-10-01 07:25:23 Terrasse 8.80 8.34 99.90
49957 2021-10-01 06:57:11 Terrasse 8.80 6.07 12.70
49956 2021-10-01 06:28:57 Terrasse 8.90 5.87 1.00
49955 2021-10-01 06:00:45 Terrasse 9.10 6.09 1.00
49954 2021-10-01 05:32:34 Terrasse 9.20 6.20 1.00
49953 2021-10-01 05:04:22 Terrasse 9.40 6.42 1.00
49952 2021-10-01 04:36:11 Terrasse 9.50 6.53 1.00
49951 2021-10-01 04:07:58 Terrasse 9.70 6.75 1.00
49950 2021-10-01 03:39:46 Terrasse 9.90 9.55 99.90
49949 2021-10-01 03:11:34 Terrasse 10.00 9.66 99.90
49948 2021-10-01 02:43:22 Terrasse 10.20 7.30 1.00
49947 2021-10-01 02:15:10 Terrasse 10.50 10.21 99.90
49946 2021-10-01 01:46:59 Terrasse 10.70 10.43 99.90
49945 2021-10-01 01:18:47 Terrasse 11.00 8.18 1.00
49944 2021-10-01 00:50:32 Terrasse 11.00 8.18 1.00
49943 2021-10-01 00:22:21 Terrasse 11.20 8.40 1.00
49942 2021-09-30 23:54:07 Terrasse 11.30 8.51 1.00
49941 2021-09-30 23:25:58 Terrasse 11.30 8.51 1.00
49940 2021-09-30 22:57:49 Terrasse 11.60 9.01 7.30
49939 2021-09-30 22:29:37 Terrasse 11.80 9.86 31.60
49938 2021-09-30 22:01:30 Terrasse 11.90 9.17 1.00
49937 2021-09-30 21:33:16 Terrasse 12.10 9.39 1.00
49936 2021-09-30 21:05:03 Terrasse 12.30 9.61 1.00
49935 2021-09-30 20:36:50 Terrasse 12.50 9.83 1.00
49934 2021-09-30 20:08:39 Terrasse 12.70 10.05 1.00
49933 2021-09-30 19:40:27 Terrasse 13.10 10.49 1.00
49932 2021-09-30 19:12:14 Terrasse 13.50 10.93 1.00
49931 2021-09-30 18:44:03 Terrasse 13.70 13.73 99.90
49930 2021-09-30 18:15:53 Terrasse 14.20 13.76 80.00
49929 2021-09-30 17:47:40 Terrasse 14.40 13.89 76.40
49928 2021-09-30 17:19:28 Terrasse 14.70 14.24 77.30
49927 2021-09-30 16:51:17 Terrasse 15.20 14.76 76.00
49926 2021-09-30 16:23:06 Terrasse 15.80 15.33 72.70
49925 2021-09-30 15:23:27 Terrasse 17.20 16.84 71.30
49924 2021-09-30 14:55:25 Terrasse 17.80 17.55 73.20
49923 2021-09-30 14:26:52 Terrasse 17.00 17.08 89.00
49922 2021-09-30 13:58:33 Terrasse 16.40 16.49 91.70
49921 2021-09-30 13:30:24 Terrasse 16.80 16.92 91.20
49920 2021-09-30 13:02:16 Terrasse 17.00 17.20 93.60
49919 2021-09-30 12:34:02 Terrasse 18.00 15.88 1.00
49918 2021-09-30 12:05:06 Terrasse 13.30 10.71 1.00
49917 2021-09-30 11:36:49 Terrasse 12.40 12.30 99.90
49916 2021-09-30 11:08:31 Terrasse 11.40 8.62 1.00
49915 2021-09-30 10:40:12 Terrasse 10.40 10.10 99.90
49914 2021-09-30 10:11:53 Terrasse 9.60 6.64 1.00
49913 2021-09-30 09:43:35 Terrasse 9.00 7.32 52.40
49912 2021-09-30 09:15:17 Terrasse 8.30 7.79 99.90
49911 2021-09-30 08:47:00 Terrasse 7.60 6.39 75.60
49910 2021-09-30 08:18:46 Terrasse 7.30 4.11 1.00
49909 2021-09-30 07:50:33 Terrasse 7.30 4.11 1.00
49908 2021-09-30 07:22:20 Terrasse 7.40 6.80 99.90
49907 2021-09-30 06:54:10 Terrasse 7.70 4.55 1.00
49906 2021-09-30 06:25:59 Terrasse 7.80 4.66 1.00
49905 2021-09-30 05:57:48 Terrasse 8.10 7.57 99.90
49904 2021-09-30 05:29:35 Terrasse 8.30 7.79 99.90
49903 2021-09-30 05:01:24 Terrasse 8.40 7.90 99.90
49902 2021-09-30 04:33:13 Terrasse 8.40 7.90 99.90
49901 2021-09-30 04:05:00 Terrasse 8.40 7.90 99.90
49900 2021-09-30 03:36:49 Terrasse 8.70 7.06 55.10
49899 2021-09-30 03:08:36 Terrasse 8.80 5.76 1.00
49898 2021-09-30 02:40:23 Terrasse 9.00 5.98 1.00
49897 2021-09-30 02:12:11 Terrasse 9.10 6.09 1.00
49896 2021-09-30 01:43:59 Terrasse 9.30 6.31 1.00
49895 2021-09-30 01:15:47 Terrasse 9.60 9.16 97.30
49894 2021-09-30 00:47:35 Terrasse 10.00 7.08 1.00
49893 2021-09-30 00:19:25 Terrasse 10.50 9.20 61.20
49892 2021-09-29 23:51:13 Terrasse 10.90 8.07 1.00
49891 2021-09-29 23:23:03 Terrasse 11.20 10.13 67.30
49890 2021-09-29 22:54:50 Terrasse 11.50 11.31 99.90
49889 2021-09-29 22:26:38 Terrasse 11.60 8.84 1.00
49888 2021-09-29 21:58:25 Terrasse 11.90 9.17 1.00
49887 2021-09-29 21:30:14 Terrasse 12.10 11.97 99.90
49886 2021-09-29 21:02:03 Terrasse 12.50 9.83 1.00
49885 2021-09-29 20:33:52 Terrasse 13.00 10.38 1.00
49884 2021-09-29 20:05:40 Terrasse 13.30 13.29 99.90
49883 2021-09-29 19:37:29 Terrasse 13.60 11.04 1.00
49882 2021-09-29 19:09:17 Terrasse 14.00 14.06 99.90
49881 2021-09-29 18:41:06 Terrasse 14.40 11.92 1.00
49880 2021-09-29 18:12:58 Terrasse 15.10 15.27 99.90
49879 2021-09-29 17:44:50 Terrasse 16.20 13.90 1.00
49878 2021-09-29 17:16:37 Terrasse 17.60 15.44 1.00
49877 2021-09-29 16:48:13 Terrasse 16.20 14.83 36.40
49876 2021-09-29 16:20:08 Terrasse 17.10 17.47 99.90
49875 2021-09-29 15:51:46 Terrasse 15.80 13.46 1.00
49874 2021-09-29 15:23:36 Terrasse 16.80 17.14 99.90
49873 2021-09-29 14:54:58 Terrasse 14.20 14.28 99.90
49872 2021-09-29 14:26:43 Terrasse 13.80 13.79 97.90
49871 2021-09-29 13:58:32 Terrasse 14.30 14.39 99.90
49870 2021-09-29 13:30:21 Terrasse 14.90 15.05 99.90
49869 2021-09-29 13:02:12 Terrasse 15.30 12.91 1.00
49868 2021-09-29 12:34:08 Terrasse 16.20 13.90 1.00
49867 2021-09-29 12:05:38 Terrasse 15.20 14.75 75.60
49866 2021-09-29 11:37:17 Terrasse 14.10 11.59 1.00
49865 2021-09-29 11:09:02 Terrasse 13.60 11.04 1.00
49864 2021-09-29 10:40:48 Terrasse 13.50 10.93 1.00
49863 2021-09-29 10:12:28 Terrasse 12.80 12.74 99.90
49862 2021-09-29 09:44:14 Terrasse 12.70 10.30 10.70
49861 2021-09-29 09:16:00 Terrasse 12.50 12.41 99.90
49860 2021-09-29 08:47:44 Terrasse 11.90 11.75 99.90
49859 2021-09-29 08:19:29 Terrasse 11.80 11.42 91.40
49858 2021-09-29 07:51:16 Terrasse 11.80 9.06 1.00
49857 2021-09-29 07:23:06 Terrasse 12.00 9.28 1.00
49856 2021-09-29 06:54:55 Terrasse 12.30 11.24 63.30
49855 2021-09-29 06:26:43 Terrasse 12.60 12.52 99.90
49854 2021-09-29 05:58:31 Terrasse 12.80 11.14 38.30
49853 2021-09-29 05:30:19 Terrasse 13.00 10.38 1.00
49852 2021-09-29 05:02:08 Terrasse 13.10 10.49 1.00
49851 2021-09-29 04:33:54 Terrasse 13.00 10.38 1.00
49850 2021-09-29 04:05:40 Terrasse 12.90 10.27 1.00
49849 2021-09-29 03:37:26 Terrasse 12.90 10.27 1.00
49848 2021-09-29 03:09:13 Terrasse 12.70 12.63 99.90
49847 2021-09-29 02:41:00 Terrasse 12.90 12.85 99.90
49846 2021-09-29 02:12:47 Terrasse 12.90 12.85 99.90
49845 2021-09-29 01:44:34 Terrasse 13.20 10.60 1.00
49844 2021-09-29 01:16:22 Terrasse 13.20 13.18 99.90
49843 2021-09-29 00:48:08 Terrasse 13.30 10.71 1.00
49842 2021-09-29 00:19:55 Terrasse 13.40 10.82 1.00
49841 2021-09-28 23:51:42 Terrasse 13.40 10.82 1.00
49840 2021-09-28 23:23:29 Terrasse 13.50 10.93 1.00
49839 2021-09-28 22:55:20 Terrasse 13.60 11.04 1.00
49838 2021-09-28 22:27:07 Terrasse 13.80 11.26 1.00
49837 2021-09-28 21:58:53 Terrasse 13.90 13.95 99.90
49836 2021-09-28 21:30:40 Terrasse 14.00 14.06 99.90
49835 2021-09-28 21:02:29 Terrasse 14.20 14.28 99.90
49834 2021-09-28 20:34:18 Terrasse 14.50 12.03 1.00
49833 2021-09-28 20:06:06 Terrasse 15.00 12.58 1.00
49832 2021-09-28 19:37:54 Terrasse 15.40 13.02 1.00
49831 2021-09-28 19:09:43 Terrasse 16.00 13.68 1.00
49830 2021-09-28 18:41:33 Terrasse 16.70 17.03 99.90
49829 2021-09-28 18:13:21 Terrasse 17.10 14.89 1.00
49828 2021-09-28 17:45:10 Terrasse 17.60 15.44 1.00
49827 2021-09-28 17:16:58 Terrasse 18.00 15.88 1.00
49826 2021-09-28 16:48:46 Terrasse 18.30 16.21 1.00
49825 2021-09-28 16:20:34 Terrasse 18.80 19.34 99.90
49824 2021-09-28 15:52:17 Terrasse 18.80 19.34 99.90
49823 2021-09-28 15:23:59 Terrasse 18.40 16.32 1.00
49822 2021-09-28 14:55:54 Terrasse 19.50 19.69 83.80
49821 2021-09-28 14:27:44 Terrasse 20.80 18.96 1.00
49820 2021-09-28 13:59:21 Terrasse 19.90 20.55 99.90
49819 2021-09-28 13:30:52 Terrasse 18.00 18.46 99.90
49818 2021-09-28 13:02:54 Terrasse 19.10 17.09 1.00
49817 2021-09-28 12:34:35 Terrasse 18.80 16.76 1.00
49816 2021-09-28 12:06:07 Terrasse 16.70 17.03 99.90
49815 2021-09-28 11:37:49 Terrasse 15.90 16.15 99.90
49814 2021-09-28 11:09:31 Terrasse 15.40 13.02 1.00
49813 2021-09-28 10:41:14 Terrasse 14.70 12.25 1.00
49812 2021-09-28 10:12:57 Terrasse 14.10 11.59 1.00
49811 2021-09-28 09:44:40 Terrasse 13.40 13.40 99.90
49810 2021-09-28 09:16:23 Terrasse 13.00 12.96 99.90
49809 2021-09-28 08:48:07 Terrasse 12.70 12.63 99.90
49808 2021-09-28 08:19:53 Terrasse 12.40 12.30 99.90
49807 2021-09-28 07:51:38 Terrasse 12.40 12.30 99.90
49806 2021-09-28 07:23:24 Terrasse 12.40 12.30 99.90
49805 2021-09-28 06:55:09 Terrasse 12.10 11.97 99.90
49804 2021-09-28 06:26:57 Terrasse 12.20 12.08 99.90
49803 2021-09-28 05:58:44 Terrasse 12.60 12.52 99.90
49802 2021-09-28 05:30:31 Terrasse 12.80 12.74 99.90
49801 2021-09-28 05:02:21 Terrasse 13.10 13.07 99.90
49800 2021-09-28 04:34:08 Terrasse 13.30 13.29 99.90
49799 2021-09-28 04:05:53 Terrasse 13.30 13.29 99.90
49798 2021-09-28 03:37:40 Terrasse 13.40 13.40 99.90
49797 2021-09-28 03:09:29 Terrasse 13.80 13.84 99.90
49796 2021-09-28 02:41:17 Terrasse 14.10 14.10 97.00
49795 2021-09-28 02:13:05 Terrasse 14.30 14.39 99.90
49794 2021-09-28 01:44:52 Terrasse 14.40 13.35 55.80
49793 2021-09-28 01:16:38 Terrasse 14.50 12.39 14.90
49792 2021-09-28 00:48:25 Terrasse 14.50 12.03 1.00
49791 2021-09-28 00:20:11 Terrasse 14.70 12.99 29.40
49790 2021-09-27 23:51:57 Terrasse 14.90 12.47 1.00
49789 2021-09-27 23:23:45 Terrasse 15.10 13.25 22.20
49788 2021-09-27 22:55:34 Terrasse 15.50 13.13 1.00
49787 2021-09-27 22:27:26 Terrasse 16.50 16.81 99.90
49786 2021-09-27 21:59:13 Terrasse 17.30 15.11 1.00
49785 2021-09-27 21:30:58 Terrasse 17.40 15.22 1.00
49784 2021-09-27 21:02:45 Terrasse 17.60 15.44 1.00
49783 2021-09-27 20:34:30 Terrasse 17.60 15.44 1.00
49782 2021-09-27 20:06:17 Terrasse 17.80 15.66 1.00
49781 2021-09-27 19:38:03 Terrasse 18.00 18.46 99.90
49780 2021-09-27 19:09:50 Terrasse 18.20 16.10 1.00
49779 2021-09-27 18:41:36 Terrasse 18.50 16.43 1.00
49778 2021-09-27 18:13:22 Terrasse 18.60 16.54 1.00
49777 2021-09-27 17:45:09 Terrasse 18.70 16.65 1.00
49776 2021-09-27 17:16:56 Terrasse 18.90 19.45 99.90
49775 2021-09-27 16:48:45 Terrasse 18.90 19.45 99.90
49774 2021-09-27 16:20:30 Terrasse 18.90 19.45 99.90
49773 2021-09-27 15:52:17 Terrasse 19.10 19.67 99.90
49772 2021-09-27 15:23:58 Terrasse 18.90 19.45 99.90
49771 2021-09-27 14:55:41 Terrasse 18.50 19.01 99.90
49770 2021-09-27 14:27:24 Terrasse 18.40 18.90 99.90
49769 2021-09-27 13:59:11 Terrasse 18.50 19.01 99.90
49768 2021-09-27 13:30:54 Terrasse 18.00 18.46 99.90
49767 2021-09-27 13:02:41 Terrasse 18.10 18.57 99.90
49766 2021-09-27 12:34:33 Terrasse 18.70 19.23 99.90
49765 2021-09-27 12:06:07 Terrasse 17.10 14.89 1.00
49764 2021-09-27 11:37:49 Terrasse 16.90 14.67 1.00
49763 2021-09-27 11:09:32 Terrasse 16.30 14.01 1.00
49762 2021-09-27 10:41:18 Terrasse 16.10 13.79 1.00
49761 2021-09-27 10:13:04 Terrasse 16.00 13.68 1.00
49760 2021-09-27 09:44:50 Terrasse 15.90 13.57 1.00
49759 2021-09-27 09:16:36 Terrasse 15.80 13.46 1.00
49758 2021-09-27 08:48:23 Terrasse 15.70 13.35 1.00
49757 2021-09-27 08:20:09 Terrasse 15.80 13.46 1.00
49756 2021-09-27 07:51:55 Terrasse 15.70 13.35 1.00
49755 2021-09-27 07:23:41 Terrasse 15.70 13.35 1.00
49754 2021-09-27 06:55:28 Terrasse 15.80 13.46 1.00
49753 2021-09-27 06:27:15 Terrasse 15.80 13.46 1.00
49752 2021-09-27 05:59:00 Terrasse 15.80 13.46 1.00
49751 2021-09-27 05:30:44 Terrasse 15.80 13.46 1.00
49750 2021-09-27 05:02:29 Terrasse 15.60 13.24 1.00
49749 2021-09-27 04:34:15 Terrasse 15.60 13.24 1.00
49748 2021-09-27 04:06:00 Terrasse 15.60 13.24 1.00
49747 2021-09-27 03:37:47 Terrasse 15.70 13.35 1.00
49746 2021-09-27 03:09:33 Terrasse 15.80 13.46 1.00
49745 2021-09-27 02:41:20 Terrasse 16.00 13.68 1.00
49744 2021-09-27 02:13:08 Terrasse 16.20 13.90 1.00
49743 2021-09-27 01:44:55 Terrasse 16.50 14.23 1.00
49742 2021-09-27 01:16:42 Terrasse 16.60 14.34 1.00
49741 2021-09-27 00:48:28 Terrasse 16.80 14.56 1.00
49740 2021-09-27 00:20:15 Terrasse 16.90 14.67 1.00
49739 2021-09-26 23:52:01 Terrasse 17.00 14.78 1.00
49738 2021-09-26 23:23:48 Terrasse 17.00 14.78 1.00
49737 2021-09-26 22:55:34 Terrasse 17.10 14.89 1.00
49736 2021-09-26 22:27:21 Terrasse 17.20 15.00 1.00
49735 2021-09-26 21:59:08 Terrasse 17.20 15.00 1.00
49734 2021-09-26 21:30:54 Terrasse 17.40 15.22 1.00
49733 2021-09-26 21:02:40 Terrasse 17.50 15.33 1.00
49732 2021-09-26 20:34:26 Terrasse 17.70 15.55 1.00
49731 2021-09-26 20:06:13 Terrasse 17.90 15.77 1.00
49730 2021-09-26 19:38:00 Terrasse 18.00 15.88 1.00
49729 2021-09-26 19:09:47 Terrasse 18.10 15.99 1.00
49728 2021-09-26 18:41:35 Terrasse 18.30 16.21 1.00
49727 2021-09-26 18:13:22 Terrasse 18.50 16.43 1.00
49726 2021-09-26 17:45:06 Terrasse 18.50 16.43 1.00
49725 2021-09-26 17:16:54 Terrasse 18.60 16.54 1.00
49724 2021-09-26 16:48:42 Terrasse 18.80 16.76 1.00
49723 2021-09-26 16:20:29 Terrasse 19.00 19.56 99.90
49722 2021-09-26 15:52:12 Terrasse 19.00 16.98 1.00
49721 2021-09-26 15:23:59 Terrasse 19.00 19.56 99.90
49720 2021-09-26 14:55:40 Terrasse 18.70 16.65 1.00
49719 2021-09-26 14:27:26 Terrasse 18.50 16.43 1.00
49718 2021-09-26 13:59:14 Terrasse 18.90 19.45 99.90
49717 2021-09-26 13:31:03 Terrasse 19.50 17.53 1.00
49716 2021-09-26 13:02:50 Terrasse 19.80 20.44 99.90
49715 2021-09-26 12:34:36 Terrasse 19.90 18.76 31.20
49714 2021-09-26 12:06:26 Terrasse 20.50 21.21 99.90
49713 2021-09-26 11:38:13 Terrasse 20.60 18.74 1.00
49712 2021-09-26 11:09:55 Terrasse 19.90 17.97 1.00
49711 2021-09-26 10:41:38 Terrasse 19.40 17.42 1.00
49710 2021-09-26 10:13:17 Terrasse 18.50 16.43 1.00
49709 2021-09-26 09:44:58 Terrasse 17.60 17.37 74.90
49708 2021-09-26 09:16:37 Terrasse 16.80 16.42 72.10
49707 2021-09-26 08:48:20 Terrasse 16.30 16.59 99.90
49706 2021-09-26 08:20:04 Terrasse 16.00 13.68 1.00
49705 2021-09-26 07:51:49 Terrasse 15.80 13.46 1.00
49704 2021-09-26 07:23:35 Terrasse 15.90 13.57 1.00
49703 2021-09-26 06:55:22 Terrasse 16.00 13.68 1.00
49702 2021-09-26 06:27:08 Terrasse 16.20 13.90 1.00
49701 2021-09-26 05:58:55 Terrasse 16.40 16.70 99.90
49700 2021-09-26 05:30:42 Terrasse 16.60 16.92 99.90
49699 2021-09-26 05:02:29 Terrasse 16.80 14.56 1.00
49698 2021-09-26 04:34:14 Terrasse 16.90 14.67 1.00
49697 2021-09-26 04:06:01 Terrasse 17.10 14.89 1.00
49696 2021-09-26 03:37:48 Terrasse 17.30 15.11 1.00
49695 2021-09-26 03:09:38 Terrasse 17.60 18.02 99.90
49694 2021-09-26 02:41:24 Terrasse 17.90 18.35 99.90
49693 2021-09-26 02:13:10 Terrasse 18.00 15.88 1.00
49692 2021-09-26 01:44:56 Terrasse 18.00 18.31 94.10
49691 2021-09-26 01:16:42 Terrasse 18.10 18.57 99.90
49690 2021-09-26 00:48:30 Terrasse 18.20 16.10 1.00
49689 2021-09-26 00:20:15 Terrasse 18.20 18.68 99.90
49688 2021-09-25 23:52:01 Terrasse 18.30 16.21 1.00
49687 2021-09-25 23:23:46 Terrasse 18.30 18.79 99.90
49686 2021-09-25 22:55:33 Terrasse 18.30 16.21 1.00
49685 2021-09-25 22:27:21 Terrasse 18.40 18.90 99.90
49684 2021-09-25 21:59:08 Terrasse 18.50 16.43 1.00
49683 2021-09-25 21:30:55 Terrasse 18.50 16.43 1.00
49682 2021-09-25 21:02:42 Terrasse 18.50 16.43 1.00
49681 2021-09-25 20:34:30 Terrasse 18.80 16.76 1.00
49680 2021-09-25 20:06:19 Terrasse 19.30 17.31 1.00
49679 2021-09-25 19:38:10 Terrasse 20.10 20.77 99.90
49678 2021-09-25 19:10:03 Terrasse 21.10 21.23 75.30
49677 2021-09-25 18:41:53 Terrasse 22.30 22.33 66.70
49676 2021-09-25 18:13:44 Terrasse 23.10 23.14 64.00
49675 2021-09-25 17:45:36 Terrasse 24.20 24.18 57.70
49674 2021-09-25 17:17:27 Terrasse 25.70 25.81 56.80
49673 2021-09-25 16:49:15 Terrasse 25.90 26.07 58.50
49672 2021-09-25 16:21:02 Terrasse 26.50 27.29 56.50
49671 2021-09-25 15:52:47 Terrasse 27.00 28.10 60.30
49670 2021-09-25 15:24:28 Terrasse 25.80 27.03 70.70
49669 2021-09-25 14:56:11 Terrasse 24.70 25.24 77.20
49668 2021-09-25 14:27:54 Terrasse 24.20 24.78 80.50
49667 2021-09-25 13:59:42 Terrasse 24.10 24.79 85.10
49666 2021-09-25 13:31:34 Terrasse 24.30 24.99 84.50
49665 2021-09-25 13:03:31 Terrasse 25.20 26.10 90.30
49664 2021-09-25 12:34:46 Terrasse 24.10 25.17 99.90
49663 2021-09-25 12:06:00 Terrasse 19.50 20.11 99.90
49662 2021-09-25 11:37:41 Terrasse 18.50 19.01 99.90
49661 2021-09-25 11:09:21 Terrasse 17.50 17.91 99.90
49660 2021-09-25 10:41:01 Terrasse 16.60 14.34 1.00
49659 2021-09-25 10:12:42 Terrasse 15.90 13.57 1.00
49658 2021-09-25 09:44:22 Terrasse 15.20 15.38 99.90
49657 2021-09-25 09:16:03 Terrasse 14.60 14.72 99.90
49656 2021-09-25 08:47:47 Terrasse 14.10 14.17 99.90
49655 2021-09-25 08:19:31 Terrasse 13.70 13.73 99.90
49654 2021-09-25 07:51:17 Terrasse 13.40 10.82 1.00
49653 2021-09-25 07:23:04 Terrasse 13.50 10.93 1.00
49652 2021-09-25 06:54:50 Terrasse 13.60 11.04 1.00
49651 2021-09-25 06:26:37 Terrasse 13.80 11.26 1.00
49650 2021-09-25 05:58:31 Terrasse 13.60 11.04 1.00
49649 2021-09-25 05:30:16 Terrasse 13.70 11.15 1.00
49648 2021-09-25 05:02:03 Terrasse 13.60 11.04 1.00
49647 2021-09-25 04:33:58 Terrasse 13.90 11.37 1.00
49646 2021-09-25 04:05:43 Terrasse 13.90 13.95 99.90
49645 2021-09-25 03:37:32 Terrasse 14.00 14.06 99.90
49644 2021-09-25 02:38:33 Terrasse 14.40 14.50 99.90
49643 2021-09-25 02:10:27 Terrasse 14.60 14.72 99.90
49642 2021-09-25 01:42:13 Terrasse 14.70 13.83 61.60
49641 2021-09-25 01:14:07 Terrasse 14.90 12.47 1.00
49640 2021-09-25 00:45:53 Terrasse 15.20 12.80 1.00
49639 2021-09-25 00:17:41 Terrasse 15.60 13.24 1.00
49638 2021-09-24 23:49:29 Terrasse 16.00 16.26 99.90
49637 2021-09-24 23:21:18 Terrasse 16.30 16.59 99.90
49636 2021-09-24 22:53:05 Terrasse 16.40 14.12 1.00
49635 2021-09-24 22:24:52 Terrasse 16.40 14.12 1.00
49634 2021-09-24 21:56:37 Terrasse 16.40 16.70 99.90
49633 2021-09-24 21:28:25 Terrasse 16.50 14.23 1.00
49632 2021-09-24 21:00:13 Terrasse 16.90 17.25 99.90
49631 2021-09-24 20:32:02 Terrasse 17.40 15.22 1.00
49630 2021-09-24 20:03:52 Terrasse 17.80 15.66 1.00
49629 2021-09-24 19:35:40 Terrasse 18.20 16.10 1.00
49628 2021-09-24 19:07:29 Terrasse 18.70 16.65 1.00
49627 2021-09-24 18:39:18 Terrasse 19.20 17.20 1.00
49626 2021-09-24 18:11:09 Terrasse 19.80 20.44 99.90
49625 2021-09-24 17:42:58 Terrasse 20.20 18.30 1.00
49624 2021-09-24 17:14:46 Terrasse 20.90 19.07 1.00
49623 2021-09-24 16:46:31 Terrasse 20.20 18.30 1.00
49622 2021-09-24 16:18:21 Terrasse 20.90 19.07 1.00
49621 2021-09-24 15:50:03 Terrasse 20.60 21.32 99.90
49620 2021-09-24 15:21:51 Terrasse 20.70 20.76 74.10
49619 2021-09-24 14:53:44 Terrasse 21.80 22.48 93.50
49618 2021-09-24 14:25:35 Terrasse 23.10 23.89 92.70
49617 2021-09-24 13:57:14 Terrasse 22.20 23.02 97.50
49616 2021-09-24 13:29:12 Terrasse 23.50 24.34 93.10
49615 2021-09-24 13:01:14 Terrasse 24.00 24.98 96.60
49614 2021-09-24 12:32:17 Terrasse 20.20 20.88 99.90
49613 2021-09-24 12:03:59 Terrasse 19.60 20.22 99.90
49612 2021-09-24 11:35:39 Terrasse 18.70 19.23 99.90
49611 2021-09-24 11:07:19 Terrasse 17.80 18.24 99.90
49610 2021-09-24 10:39:01 Terrasse 17.00 17.36 99.90
49609 2021-09-24 10:10:44 Terrasse 16.40 16.70 99.90
49608 2021-09-24 09:42:25 Terrasse 15.70 15.93 99.90
49607 2021-09-24 09:14:08 Terrasse 15.20 15.38 99.90
49606 2021-09-24 08:45:52 Terrasse 14.70 14.83 99.90
49605 2021-09-24 08:17:37 Terrasse 14.30 14.39 99.90
49604 2021-09-24 07:49:23 Terrasse 14.00 14.06 99.90
49603 2021-09-24 07:21:11 Terrasse 14.00 14.06 99.90
49602 2021-09-24 06:52:59 Terrasse 14.10 14.17 99.90
49601 2021-09-24 06:24:48 Terrasse 14.40 14.50 99.90
49600 2021-09-24 05:56:37 Terrasse 14.70 14.83 99.90
49599 2021-09-24 05:28:25 Terrasse 14.80 14.94 99.90
49598 2021-09-24 05:00:12 Terrasse 14.90 15.05 99.90
49597 2021-09-24 04:31:59 Terrasse 15.10 15.27 99.90
49596 2021-09-24 04:03:47 Terrasse 15.50 15.71 99.90
49595 2021-09-24 03:35:36 Terrasse 15.60 15.82 99.90
49594 2021-09-24 03:07:25 Terrasse 16.00 16.26 99.90
49593 2021-09-24 02:39:12 Terrasse 16.10 16.37 99.90
49592 2021-09-24 02:10:59 Terrasse 16.30 16.59 99.90
49591 2021-09-24 01:42:48 Terrasse 16.50 16.81 99.90
49590 2021-09-24 01:14:35 Terrasse 16.50 16.81 99.90
49589 2021-09-24 00:46:22 Terrasse 16.50 16.81 99.90
49588 2021-09-24 00:18:09 Terrasse 16.60 16.92 99.90
49587 2021-09-23 23:49:55 Terrasse 16.70 17.03 99.90
49586 2021-09-23 23:21:43 Terrasse 16.90 17.15 95.80
49585 2021-09-23 22:53:30 Terrasse 17.10 17.25 91.20
49584 2021-09-23 22:25:17 Terrasse 17.20 17.26 87.60
49583 2021-09-23 21:57:06 Terrasse 17.50 17.51 84.60
49582 2021-09-23 21:28:54 Terrasse 17.70 17.66 81.60
49581 2021-09-23 21:00:43 Terrasse 18.10 18.12 82.50
49580 2021-09-23 20:32:33 Terrasse 18.70 18.73 80.70
49579 2021-09-23 20:04:23 Terrasse 19.30 19.37 80.00
49578 2021-09-23 19:36:12 Terrasse 19.90 19.91 75.20
49577 2021-09-23 19:08:04 Terrasse 20.60 20.57 71.00
49576 2021-09-23 18:39:55 Terrasse 21.50 21.45 66.70
49575 2021-09-23 18:11:44 Terrasse 22.20 22.11 62.50
49574 2021-09-23 17:43:34 Terrasse 23.30 23.24 59.50
49573 2021-09-23 17:15:26 Terrasse 24.60 24.59 56.40
49572 2021-09-23 16:47:14 Terrasse 25.10 25.18 58.20
49571 2021-09-23 16:18:57 Terrasse 24.90 25.04 61.10
49570 2021-09-23 15:50:40 Terrasse 24.50 24.67 63.80
49569 2021-09-23 15:22:25 Terrasse 24.30 24.52 66.40
49568 2021-09-23 14:54:10 Terrasse 23.70 23.93 69.20
49567 2021-09-23 14:25:53 Terrasse 23.10 23.53 79.20
49566 2021-09-23 13:57:37 Terrasse 22.80 23.13 76.40
49565 2021-09-23 13:29:25 Terrasse 22.60 22.97 78.50
49564 2021-09-23 13:01:34 Terrasse 23.50 24.00 80.10
49563 2021-09-23 12:33:02 Terrasse 21.70 19.95 1.00
49562 2021-09-23 12:04:22 Terrasse 18.20 16.10 1.00
49561 2021-09-23 11:36:01 Terrasse 17.10 14.89 1.00
49560 2021-09-23 11:07:40 Terrasse 16.10 16.37 99.90
49559 2021-09-23 10:39:21 Terrasse 15.20 15.38 99.90
49558 2021-09-23 10:11:01 Terrasse 14.20 14.28 99.90
49557 2021-09-23 09:42:42 Terrasse 13.40 10.82 1.00
49556 2021-09-23 09:14:24 Terrasse 12.60 9.94 1.00
49555 2021-09-23 08:46:07 Terrasse 12.00 9.42 6.20
49554 2021-09-23 08:17:51 Terrasse 11.60 8.84 1.00
49553 2021-09-23 07:49:37 Terrasse 11.50 8.73 1.00
49552 2021-09-23 07:21:27 Terrasse 11.40 8.62 1.00
49551 2021-09-23 06:53:15 Terrasse 11.60 11.42 99.90
49550 2021-09-23 06:25:02 Terrasse 11.70 11.53 99.90
49549 2021-09-23 05:56:49 Terrasse 11.80 11.64 99.90
49548 2021-09-23 05:28:36 Terrasse 11.90 10.60 55.60
49547 2021-09-23 05:00:23 Terrasse 12.00 9.28 1.00
49546 2021-09-23 04:32:09 Terrasse 12.00 9.28 1.00
49545 2021-09-23 04:03:58 Terrasse 12.10 9.39 1.00
49544 2021-09-23 03:35:45 Terrasse 12.10 9.39 1.00
49543 2021-09-23 03:07:33 Terrasse 12.50 9.83 1.00
49542 2021-09-23 02:39:21 Terrasse 12.70 12.63 99.90
49541 2021-09-23 02:11:09 Terrasse 13.00 11.35 37.90
49540 2021-09-23 01:42:56 Terrasse 13.10 11.81 51.40
49539 2021-09-23 01:14:43 Terrasse 13.30 10.71 1.00
49538 2021-09-23 00:46:31 Terrasse 13.40 10.82 1.00
49537 2021-09-23 00:18:19 Terrasse 13.60 11.04 1.00
49536 2021-09-22 23:50:07 Terrasse 13.80 11.26 1.00
49535 2021-09-22 23:21:55 Terrasse 14.10 13.95 91.30
49534 2021-09-22 22:53:45 Terrasse 14.30 11.81 1.00
49533 2021-09-22 22:25:33 Terrasse 14.60 12.14 1.00
49532 2021-09-22 21:57:22 Terrasse 14.80 12.36 1.00
49531 2021-09-22 21:29:11 Terrasse 15.10 12.69 1.00
49530 2021-09-22 21:01:00 Terrasse 15.50 13.29 7.10
49529 2021-09-22 20:32:48 Terrasse 15.90 13.57 1.00
49528 2021-09-22 20:04:39 Terrasse 16.50 16.81 99.90
49527 2021-09-22 19:36:29 Terrasse 17.20 15.00 1.00
49526 2021-09-22 19:08:21 Terrasse 18.10 18.03 79.00
49525 2021-09-22 18:40:12 Terrasse 19.10 19.23 82.80
49524 2021-09-22 18:12:03 Terrasse 19.80 19.90 79.10
49523 2021-09-22 17:43:55 Terrasse 20.80 20.93 76.20
49522 2021-09-22 17:15:47 Terrasse 22.00 22.17 73.30
49521 2021-09-22 16:47:36 Terrasse 22.50 22.75 74.60
49520 2021-09-22 16:19:22 Terrasse 22.80 23.10 75.40
49519 2021-09-22 15:51:05 Terrasse 22.80 23.16 77.40
49518 2021-09-22 15:22:48 Terrasse 22.40 22.71 77.10
49517 2021-09-22 14:54:30 Terrasse 21.30 21.75 86.60
49516 2021-09-22 14:26:13 Terrasse 20.70 21.10 87.20
49515 2021-09-22 13:57:56 Terrasse 20.00 20.42 90.50
49514 2021-09-22 13:29:42 Terrasse 19.80 20.25 92.30
49513 2021-09-22 13:01:43 Terrasse 19.90 20.41 94.40
49512 2021-09-22 12:33:10 Terrasse 18.50 16.43 1.00
49511 2021-09-22 12:04:48 Terrasse 16.30 16.59 99.90
49510 2021-09-22 11:36:28 Terrasse 15.40 13.02 1.00
49509 2021-09-22 11:08:06 Terrasse 14.40 12.01 4.20
49508 2021-09-22 10:39:49 Terrasse 13.80 11.26 1.00
49507 2021-09-22 10:11:31 Terrasse 13.10 13.07 99.90
49506 2021-09-22 09:43:14 Terrasse 12.40 9.72 1.00
49505 2021-09-22 09:14:55 Terrasse 11.60 8.84 1.00
49504 2021-09-22 08:46:39 Terrasse 10.80 10.54 99.90
49503 2021-09-22 08:18:25 Terrasse 10.40 8.47 37.40
49502 2021-09-22 07:50:11 Terrasse 10.20 7.30 1.00
49501 2021-09-22 07:21:56 Terrasse 10.00 7.08 1.00
49500 2021-09-22 06:53:45 Terrasse 10.30 9.99 99.90
49499 2021-09-22 06:25:49 Terrasse 10.50 7.63 1.00
49498 2021-09-22 05:57:32 Terrasse 10.70 7.85 1.00
49497 2021-09-22 05:29:21 Terrasse 10.80 9.83 72.70
49496 2021-09-22 05:01:07 Terrasse 10.90 8.07 1.00
49495 2021-09-22 04:32:55 Terrasse 10.90 8.07 1.00
49494 2021-09-22 04:04:43 Terrasse 11.10 10.87 99.90
49493 2021-09-22 03:36:30 Terrasse 11.10 10.87 99.90
49492 2021-09-22 03:08:18 Terrasse 11.30 11.09 99.90
49491 2021-09-22 02:40:07 Terrasse 11.50 9.47 29.40
49490 2021-09-22 02:11:54 Terrasse 11.60 8.84 1.00
49489 2021-09-22 01:43:42 Terrasse 11.80 11.64 99.90
49488 2021-09-22 01:15:29 Terrasse 11.90 11.75 99.90
49487 2021-09-22 00:47:18 Terrasse 12.00 11.08 69.80
49486 2021-09-22 00:19:06 Terrasse 12.00 9.28 1.00
49485 2021-09-21 23:50:55 Terrasse 12.20 9.50 1.00
49484 2021-09-21 23:23:36 Terrasse 12.40 9.72 1.00
49483 2021-09-21 22:54:50 Terrasse 12.50 9.83 1.00
49482 2021-09-21 22:26:37 Terrasse 12.50 9.83 1.00
49481 2021-09-21 21:58:53 Terrasse 12.70 12.63 99.90
49480 2021-09-21 21:30:44 Terrasse 13.10 13.07 99.90
49479 2021-09-21 21:02:47 Terrasse 13.50 10.93 1.00
49478 2021-09-21 20:34:37 Terrasse 13.70 13.73 99.90
49477 2021-09-21 20:07:17 Terrasse 14.10 14.17 99.90
49476 2021-09-21 19:38:35 Terrasse 14.60 12.14 1.00
49475 2021-09-21 19:10:39 Terrasse 15.20 15.00 85.10
49474 2021-09-21 18:42:28 Terrasse 15.90 15.57 77.40
49473 2021-09-21 18:14:16 Terrasse 16.30 15.95 75.20
49472 2021-09-21 17:46:04 Terrasse 16.70 16.33 73.00
49471 2021-09-21 17:17:52 Terrasse 17.20 16.82 70.50
49470 2021-09-21 16:49:40 Terrasse 17.60 17.22 69.00
49469 2021-09-21 16:21:28 Terrasse 18.20 17.86 68.50
49468 2021-09-21 15:53:17 Terrasse 17.90 17.55 69.20
49467 2021-09-21 15:25:09 Terrasse 19.20 18.94 67.70
49466 2021-09-21 14:56:57 Terrasse 19.00 18.71 67.30
49465 2021-09-21 14:28:46 Terrasse 19.40 19.09 64.90
49464 2021-09-21 14:00:26 Terrasse 18.60 18.35 70.10
49463 2021-09-21 13:32:10 Terrasse 17.50 17.19 72.10
49462 2021-09-21 13:03:51 Terrasse 16.50 16.10 72.70
49461 2021-09-21 12:35:40 Terrasse 16.60 16.23 73.20
49460 2021-09-21 12:07:31 Terrasse 16.70 16.40 75.60
49459 2021-09-21 11:39:11 Terrasse 16.50 16.25 78.20
49458 2021-09-21 11:10:50 Terrasse 15.40 15.31 88.80
49457 2021-09-21 10:42:30 Terrasse 14.50 12.62 23.50
49456 2021-09-21 10:14:10 Terrasse 13.60 13.62 99.90
49455 2021-09-21 09:45:52 Terrasse 12.90 10.27 1.00
49454 2021-09-21 09:17:33 Terrasse 12.30 12.19 99.90
49453 2021-09-21 08:49:13 Terrasse 11.50 8.73 1.00
49452 2021-09-21 08:20:57 Terrasse 10.90 8.07 1.00
49451 2021-09-21 07:52:44 Terrasse 10.80 10.54 99.90
49450 2021-09-21 07:24:33 Terrasse 11.00 8.18 1.00
49449 2021-09-21 06:56:23 Terrasse 11.50 8.73 1.00
49448 2021-09-21 06:28:12 Terrasse 11.90 11.75 99.90
49447 2021-09-21 06:00:00 Terrasse 12.30 10.58 37.90
49446 2021-09-21 05:31:47 Terrasse 12.50 12.41 99.90
49445 2021-09-21 05:03:33 Terrasse 12.50 12.41 99.90
49444 2021-09-21 04:35:20 Terrasse 12.60 9.94 1.00
49443 2021-09-21 04:07:07 Terrasse 12.80 12.74 99.90
49442 2021-09-21 03:38:53 Terrasse 12.80 12.74 99.90
49441 2021-09-21 03:10:41 Terrasse 13.00 10.38 1.00
49440 2021-09-21 02:42:27 Terrasse 13.00 10.38 1.00
49439 2021-09-21 02:14:13 Terrasse 13.10 10.49 1.00
49438 2021-09-21 01:46:00 Terrasse 13.20 12.44 71.30
49437 2021-09-21 01:17:46 Terrasse 13.30 10.71 1.00
49436 2021-09-21 00:49:33 Terrasse 13.50 10.93 1.00
49435 2021-09-21 00:21:20 Terrasse 13.50 13.51 99.90
49434 2021-09-20 23:53:10 Terrasse 13.70 13.58 94.10
49433 2021-09-20 23:24:58 Terrasse 13.70 13.73 99.90
49432 2021-09-20 22:56:44 Terrasse 13.90 13.95 99.90
49431 2021-09-20 22:28:31 Terrasse 14.00 11.48 1.00
49430 2021-09-20 22:00:19 Terrasse 14.10 14.17 99.90
49429 2021-09-20 21:32:08 Terrasse 14.20 14.28 99.90
49428 2021-09-20 21:03:56 Terrasse 14.30 11.81 1.00
49427 2021-09-20 20:35:44 Terrasse 14.50 12.03 1.00
49426 2021-09-20 20:07:30 Terrasse 14.60 12.14 1.00
49425 2021-09-20 19:39:18 Terrasse 14.80 12.36 1.00
49424 2021-09-20 19:11:07 Terrasse 15.10 12.69 1.00
49423 2021-09-20 18:42:56 Terrasse 15.60 13.24 1.00
49422 2021-09-20 18:14:44 Terrasse 16.00 13.68 1.00
49421 2021-09-20 17:46:32 Terrasse 16.20 13.90 1.00
49420 2021-09-20 17:18:21 Terrasse 16.40 14.12 1.00
49419 2021-09-20 16:50:11 Terrasse 16.80 14.56 1.00
49418 2021-09-20 16:22:00 Terrasse 17.20 17.58 99.90
49417 2021-09-20 15:53:48 Terrasse 17.60 18.02 99.90
49416 2021-09-20 15:25:35 Terrasse 17.70 18.13 99.90
49415 2021-09-20 14:57:22 Terrasse 17.70 15.55 1.00
49414 2021-09-20 14:29:06 Terrasse 17.30 17.56 94.90
49413 2021-09-20 14:00:56 Terrasse 17.60 17.84 92.70
49412 2021-09-20 13:32:50 Terrasse 18.20 18.48 92.20
49411 2021-09-20 13:04:50 Terrasse 19.40 19.78 91.20
49410 2021-09-20 12:36:09 Terrasse 18.00 18.46 99.90
49409 2021-09-20 12:07:43 Terrasse 16.20 13.90 1.00
49408 2021-09-20 11:39:26 Terrasse 15.50 15.71 99.90
49407 2021-09-20 11:11:06 Terrasse 14.50 12.03 1.00
49406 2021-09-20 10:42:50 Terrasse 13.90 13.95 99.90
49405 2021-09-20 10:14:35 Terrasse 13.60 11.04 1.00
49404 2021-09-20 09:46:21 Terrasse 13.50 10.93 1.00
49403 2021-09-20 09:18:07 Terrasse 13.30 10.71 1.00
49402 2021-09-20 08:49:53 Terrasse 13.20 13.18 99.90
49401 2021-09-20 08:21:38 Terrasse 13.00 10.62 10.20
49400 2021-09-20 07:53:26 Terrasse 12.90 10.27 1.00
49399 2021-09-20 07:25:14 Terrasse 12.90 12.85 99.90
49398 2021-09-20 06:57:01 Terrasse 13.00 12.96 99.90
49397 2021-09-20 06:28:47 Terrasse 13.00 10.38 1.00
49396 2021-09-20 06:00:34 Terrasse 13.20 13.18 99.90
49395 2021-09-20 05:32:21 Terrasse 13.30 10.71 1.00
49394 2021-09-20 05:04:08 Terrasse 13.40 10.82 1.00
49393 2021-09-20 04:35:55 Terrasse 13.50 13.51 99.90
49392 2021-09-20 04:07:43 Terrasse 13.60 13.40 91.20
49391 2021-09-20 03:39:30 Terrasse 13.70 13.73 99.90
49390 2021-09-20 03:11:18 Terrasse 13.80 13.84 99.90
49389 2021-09-20 02:43:06 Terrasse 13.90 11.37 1.00
49388 2021-09-20 02:14:54 Terrasse 14.00 14.06 99.90
49387 2021-09-20 01:46:41 Terrasse 14.10 14.17 99.90
49386 2021-09-20 01:18:28 Terrasse 14.10 11.59 1.00
49385 2021-09-20 00:50:15 Terrasse 14.20 14.28 99.90
49384 2021-09-20 00:22:03 Terrasse 14.30 11.81 1.00
49383 2021-09-19 23:53:51 Terrasse 14.20 13.73 78.50
49382 2021-09-19 23:25:37 Terrasse 14.20 14.28 99.90
49381 2021-09-19 22:57:24 Terrasse 14.20 11.70 1.00
49380 2021-09-19 22:29:13 Terrasse 14.50 12.03 1.00
49379 2021-09-19 22:01:01 Terrasse 14.70 12.25 1.00
49378 2021-09-19 21:32:51 Terrasse 15.10 12.69 1.00
49377 2021-09-19 21:04:40 Terrasse 15.50 13.13 1.00
49376 2021-09-19 20:36:29 Terrasse 15.80 16.04 99.90
49375 2021-09-19 20:08:19 Terrasse 16.20 13.90 1.00
49374 2021-09-19 19:40:09 Terrasse 16.50 14.52 12.10
49373 2021-09-19 19:11:58 Terrasse 16.70 14.45 1.00
49372 2021-09-19 18:43:48 Terrasse 17.20 15.00 1.00
49371 2021-09-19 18:15:38 Terrasse 17.70 15.55 1.00
49370 2021-09-19 17:47:31 Terrasse 18.70 19.23 99.90
49369 2021-09-19 17:19:20 Terrasse 19.70 17.75 1.00
49368 2021-09-19 16:51:08 Terrasse 19.80 17.86 1.00
49367 2021-09-19 16:22:50 Terrasse 18.80 19.34 99.90
49366 2021-09-19 15:54:35 Terrasse 18.60 16.54 1.00
49365 2021-09-19 15:26:24 Terrasse 18.80 16.76 1.00
49364 2021-09-19 14:58:13 Terrasse 19.10 17.09 1.00
49363 2021-09-19 14:30:06 Terrasse 20.00 18.08 1.00
49362 2021-09-19 14:01:50 Terrasse 20.30 18.41 1.00
49361 2021-09-19 13:33:35 Terrasse 20.00 18.26 7.80
49360 2021-09-19 13:05:31 Terrasse 19.70 17.75 1.00
49359 2021-09-19 12:37:04 Terrasse 18.00 18.46 99.90
49358 2021-09-19 12:08:49 Terrasse 17.60 18.02 99.90
49357 2021-09-19 11:40:33 Terrasse 17.20 15.00 1.00
49356 2021-09-19 11:12:16 Terrasse 16.90 14.67 1.00
49355 2021-09-19 10:43:57 Terrasse 15.90 16.15 99.90
49354 2021-09-19 10:15:42 Terrasse 15.50 15.71 99.90
49353 2021-09-19 09:47:25 Terrasse 14.90 15.05 99.90
49352 2021-09-19 09:19:08 Terrasse 14.50 14.61 99.90
49351 2021-09-19 08:50:54 Terrasse 14.20 14.28 99.90
49350 2021-09-19 08:22:39 Terrasse 14.00 11.48 1.00
49349 2021-09-19 07:54:26 Terrasse 13.80 11.26 1.00
49348 2021-09-19 07:26:13 Terrasse 13.80 11.26 1.00
49347 2021-09-19 06:58:00 Terrasse 13.80 11.26 1.00
49346 2021-09-19 06:29:47 Terrasse 13.80 11.26 1.00
49345 2021-09-19 06:01:38 Terrasse 13.90 11.37 1.00
49344 2021-09-19 05:33:24 Terrasse 14.00 11.48 1.00
49343 2021-09-19 05:05:11 Terrasse 14.10 11.59 1.00
49342 2021-09-19 04:36:59 Terrasse 14.30 11.81 1.00
49341 2021-09-19 04:08:46 Terrasse 14.40 11.92 1.00
49340 2021-09-19 03:40:32 Terrasse 14.50 12.03 1.00
49339 2021-09-19 03:12:20 Terrasse 14.70 14.83 99.90
49338 2021-09-19 02:44:07 Terrasse 14.90 15.05 99.90
49337 2021-09-19 02:15:53 Terrasse 14.90 15.05 99.90
49336 2021-09-19 01:47:40 Terrasse 15.10 12.69 1.00
49335 2021-09-19 01:19:27 Terrasse 15.20 12.80 1.00
49334 2021-09-19 00:51:14 Terrasse 15.50 15.71 99.90
49333 2021-09-19 00:23:02 Terrasse 15.70 13.35 1.00
49332 2021-09-18 23:54:48 Terrasse 15.90 16.15 99.90
49331 2021-09-18 23:26:37 Terrasse 16.10 16.37 99.90
49330 2021-09-18 22:58:24 Terrasse 16.30 16.59 99.90
49329 2021-09-18 22:30:14 Terrasse 16.50 14.23 1.00
49328 2021-09-18 22:02:00 Terrasse 16.70 16.00 60.30
49327 2021-09-18 21:33:48 Terrasse 17.00 14.78 1.00
49326 2021-09-18 21:05:35 Terrasse 17.20 17.58 99.90
49325 2021-09-18 20:37:23 Terrasse 17.40 15.22 1.00
49324 2021-09-18 20:09:13 Terrasse 17.70 18.13 99.90
49323 2021-09-18 19:41:01 Terrasse 18.30 16.21 1.00
49322 2021-09-18 19:12:51 Terrasse 18.80 19.34 99.90
49321 2021-09-18 18:44:41 Terrasse 19.60 17.64 1.00
49320 2021-09-18 18:16:30 Terrasse 20.30 18.41 1.00
49319 2021-09-18 17:48:20 Terrasse 20.80 18.96 1.00
49318 2021-09-18 17:20:10 Terrasse 21.60 19.84 1.00
49317 2021-09-18 16:51:55 Terrasse 21.90 20.17 1.00
49316 2021-09-18 16:23:40 Terrasse 21.00 19.18 1.00
49315 2021-09-18 15:55:35 Terrasse 22.50 20.83 1.00
49314 2021-09-18 15:27:10 Terrasse 21.10 19.29 1.00
49313 2021-09-18 14:58:54 Terrasse 20.70 18.85 1.00
49312 2021-09-18 14:30:49 Terrasse 22.00 20.28 1.00
49311 2021-09-18 14:02:26 Terrasse 20.20 20.88 99.90
49310 2021-09-18 13:34:25 Terrasse 21.50 19.73 1.00
49309 2021-09-18 13:06:09 Terrasse 22.20 21.87 53.30
49308 2021-09-18 12:37:58 Terrasse 20.70 18.85 1.00
49307 2021-09-18 12:09:33 Terrasse 20.40 18.52 1.00
49306 2021-09-18 11:41:15 Terrasse 19.60 17.64 1.00
49305 2021-09-18 11:12:53 Terrasse 18.50 16.43 1.00
49304 2021-09-18 10:44:32 Terrasse 17.40 15.22 1.00
49303 2021-09-18 10:16:13 Terrasse 16.40 16.70 99.90
49302 2021-09-18 09:47:56 Terrasse 15.80 16.04 99.90
49301 2021-09-18 09:19:38 Terrasse 15.30 15.49 99.90
49300 2021-09-18 08:51:21 Terrasse 14.70 14.83 99.90
49299 2021-09-18 08:23:05 Terrasse 14.20 14.28 99.90
49298 2021-09-18 07:54:53 Terrasse 14.00 14.06 99.90
49297 2021-09-18 07:26:39 Terrasse 13.90 13.95 99.90
49296 2021-09-18 06:58:26 Terrasse 13.90 13.95 99.90
49295 2021-09-18 06:30:14 Terrasse 14.20 14.28 99.90
49294 2021-09-18 06:02:01 Terrasse 14.20 14.28 99.90
49293 2021-09-18 05:33:50 Terrasse 14.20 14.28 99.90
49292 2021-09-18 05:05:35 Terrasse 14.20 13.53 71.20
49291 2021-09-18 04:37:23 Terrasse 14.30 11.81 1.00
49290 2021-09-18 04:09:10 Terrasse 14.50 12.03 1.00
49289 2021-09-18 03:40:56 Terrasse 14.40 11.92 1.00
49288 2021-09-18 03:12:43 Terrasse 14.40 11.92 1.00
49287 2021-09-18 02:44:31 Terrasse 14.50 12.03 1.00
49286 2021-09-18 02:16:18 Terrasse 14.60 12.14 1.00
49285 2021-09-18 01:48:05 Terrasse 15.00 12.58 1.00
49284 2021-09-18 01:19:53 Terrasse 15.00 12.58 1.00
49283 2021-09-18 00:51:39 Terrasse 15.10 12.69 1.00
49282 2021-09-18 00:23:27 Terrasse 15.40 13.02 1.00
49281 2021-09-17 23:55:15 Terrasse 15.60 15.82 99.90
49280 2021-09-17 23:26:59 Terrasse 15.60 13.24 1.00
49279 2021-09-17 22:58:46 Terrasse 15.80 13.46 1.00
49278 2021-09-17 22:30:35 Terrasse 16.10 16.37 99.90
49277 2021-09-17 22:02:20 Terrasse 16.30 14.45 17.80
49276 2021-09-17 21:34:08 Terrasse 16.40 14.12 1.00
49275 2021-09-17 21:05:56 Terrasse 16.70 17.03 99.90
49274 2021-09-17 20:37:43 Terrasse 17.10 14.89 1.00
49273 2021-09-17 20:09:33 Terrasse 17.60 18.02 99.90
49272 2021-09-17 19:41:21 Terrasse 18.20 16.10 1.00
49271 2021-09-17 19:13:10 Terrasse 18.70 19.23 99.90
49270 2021-09-17 18:44:59 Terrasse 19.20 19.78 99.90
49269 2021-09-17 18:16:45 Terrasse 19.40 17.42 1.00
49268 2021-09-17 17:48:34 Terrasse 20.00 19.59 58.90
49267 2021-09-17 17:20:17 Terrasse 20.00 20.66 99.90
49266 2021-09-17 16:52:04 Terrasse 20.00 18.08 1.00
49265 2021-09-17 16:23:49 Terrasse 20.00 18.08 1.00
49264 2021-09-17 15:55:42 Terrasse 20.80 18.96 1.00
49263 2021-09-17 15:27:37 Terrasse 22.40 21.23 20.60
49262 2021-09-17 14:59:15 Terrasse 21.70 22.53 99.90
49261 2021-09-17 14:31:08 Terrasse 21.00 19.18 1.00
49260 2021-09-17 14:02:46 Terrasse 19.80 17.86 1.00
49259 2021-09-17 13:34:35 Terrasse 19.80 17.86 1.00
49258 2021-09-17 13:06:36 Terrasse 21.20 19.40 1.00
49257 2021-09-17 12:38:13 Terrasse 19.90 20.55 99.90
49256 2021-09-17 12:09:53 Terrasse 19.00 19.56 99.90
49255 2021-09-17 11:41:34 Terrasse 18.30 16.21 1.00
49254 2021-09-17 11:13:15 Terrasse 17.40 17.80 99.90
49253 2021-09-17 10:44:56 Terrasse 16.80 14.56 1.00
49252 2021-09-17 10:16:38 Terrasse 16.00 14.17 19.70
49251 2021-09-17 09:48:20 Terrasse 15.20 15.38 99.90
49250 2021-09-17 09:20:02 Terrasse 14.60 12.14 1.00
49249 2021-09-17 08:51:45 Terrasse 14.00 11.48 1.00
49248 2021-09-17 08:23:30 Terrasse 13.50 13.51 99.90
49247 2021-09-17 07:55:17 Terrasse 13.20 13.18 99.90
49246 2021-09-17 07:27:04 Terrasse 13.20 13.18 99.90
49245 2021-09-17 06:58:51 Terrasse 13.20 13.18 99.90
49244 2021-09-17 06:30:38 Terrasse 13.10 13.07 99.90
49243 2021-09-17 06:02:24 Terrasse 13.40 13.40 99.90
49242 2021-09-17 05:34:13 Terrasse 13.60 13.62 99.90
49241 2021-09-17 05:06:02 Terrasse 13.80 13.84 99.90
49240 2021-09-17 04:37:50 Terrasse 14.00 14.06 99.90
49239 2021-09-17 04:09:37 Terrasse 13.90 13.95 99.90
49238 2021-09-17 03:41:25 Terrasse 14.10 12.69 43.00
49237 2021-09-17 03:13:14 Terrasse 14.50 12.03 1.00
49236 2021-09-17 02:45:02 Terrasse 14.50 12.03 1.00
49235 2021-09-17 02:16:50 Terrasse 14.70 12.25 1.00
49234 2021-09-17 01:48:37 Terrasse 14.80 12.36 1.00
49233 2021-09-17 01:20:25 Terrasse 15.00 12.58 1.00
49232 2021-09-17 00:52:12 Terrasse 15.20 12.80 1.00
49231 2021-09-17 00:23:59 Terrasse 15.20 12.80 1.00
49230 2021-09-16 23:55:45 Terrasse 15.40 13.02 1.00
49229 2021-09-16 23:27:32 Terrasse 15.60 13.24 1.00
49228 2021-09-16 22:59:19 Terrasse 15.80 13.46 1.00
49227 2021-09-16 22:31:09 Terrasse 16.10 13.79 1.00
49226 2021-09-16 22:02:55 Terrasse 16.20 13.90 1.00
49225 2021-09-16 21:34:42 Terrasse 16.50 16.81 99.90
49224 2021-09-16 21:06:29 Terrasse 16.60 14.34 1.00
49223 2021-09-16 20:38:19 Terrasse 16.70 17.03 99.90
49222 2021-09-16 20:10:06 Terrasse 16.80 17.14 99.90
49221 2021-09-16 19:41:54 Terrasse 17.10 17.47 99.90
49220 2021-09-16 19:13:42 Terrasse 17.40 15.22 1.00
49219 2021-09-16 18:45:30 Terrasse 17.70 18.13 99.90
49218 2021-09-16 18:17:17 Terrasse 18.00 17.31 55.80
49217 2021-09-16 17:49:04 Terrasse 18.10 15.99 1.00
49216 2021-09-16 17:20:51 Terrasse 18.30 18.79 99.90
49215 2021-09-16 16:52:39 Terrasse 18.60 19.12 99.90
49214 2021-09-16 16:24:26 Terrasse 18.70 16.65 1.00
49213 2021-09-16 15:56:09 Terrasse 18.30 16.21 1.00
49212 2021-09-16 15:27:56 Terrasse 18.50 19.01 99.90
49211 2021-09-16 14:59:48 Terrasse 18.50 16.43 1.00
49210 2021-09-16 14:31:30 Terrasse 18.40 17.18 34.00
49209 2021-09-16 14:03:13 Terrasse 17.70 15.55 1.00
49208 2021-09-16 13:34:55 Terrasse 17.00 14.78 1.00
49207 2021-09-16 13:06:40 Terrasse 16.90 17.25 99.90
49206 2021-09-16 12:38:26 Terrasse 17.00 17.36 99.90
49205 2021-09-16 12:10:16 Terrasse 17.30 15.11 1.00
49204 2021-09-16 11:42:06 Terrasse 17.70 15.55 1.00
49203 2021-09-16 11:13:55 Terrasse 18.00 18.46 99.90
49202 2021-09-16 10:45:36 Terrasse 17.90 15.77 1.00
49201 2021-09-16 10:17:16 Terrasse 17.20 15.60 24.00
49200 2021-09-16 09:48:58 Terrasse 16.60 14.34 1.00
49199 2021-09-16 09:20:43 Terrasse 16.40 16.70 99.90
49198 2021-09-16 08:52:29 Terrasse 16.30 16.59 99.90
49197 2021-09-16 08:24:14 Terrasse 16.10 13.79 1.00
49196 2021-09-16 07:56:02 Terrasse 16.10 14.80 39.50
49195 2021-09-16 07:27:49 Terrasse 16.20 14.41 20.60
49194 2021-09-16 06:59:35 Terrasse 16.40 14.25 6.00
49193 2021-09-16 06:31:23 Terrasse 16.50 16.81 99.90
49192 2021-09-16 06:03:11 Terrasse 16.70 17.03 99.90
49191 2021-09-16 05:34:58 Terrasse 16.90 17.25 99.90
49190 2021-09-16 05:06:46 Terrasse 17.10 17.47 99.90
49189 2021-09-16 04:38:32 Terrasse 17.30 15.11 1.00
49188 2021-09-16 04:10:20 Terrasse 17.30 15.11 1.00
49187 2021-09-16 03:42:08 Terrasse 17.40 15.22 1.00
49186 2021-09-16 03:13:55 Terrasse 17.50 15.33 1.00
49185 2021-09-16 02:45:41 Terrasse 17.50 17.91 99.90
49184 2021-09-16 02:17:33 Terrasse 17.60 15.44 1.00
49183 2021-09-16 01:49:18 Terrasse 17.70 18.13 99.90
49182 2021-09-16 01:21:05 Terrasse 17.80 18.24 99.90
49181 2021-09-16 00:20:57 Terrasse 18.00 18.46 99.90
49180 2021-09-15 23:47:33 Terrasse 18.30 18.79 99.90
49179 2021-09-15 23:19:20 Terrasse 18.70 16.65 1.00
49178 2021-09-15 22:51:08 Terrasse 19.00 16.98 1.00
49177 2021-09-15 21:50:58 Terrasse 19.10 17.09 1.00
49176 2021-09-15 21:19:32 Terrasse 19.10 17.09 1.00
49175 2021-09-15 20:51:17 Terrasse 19.20 17.20 1.00
49174 2021-09-15 20:23:04 Terrasse 19.30 17.31 1.00
49173 2021-09-15 19:54:52 Terrasse 19.50 17.53 1.00
49172 2021-09-15 19:26:39 Terrasse 19.60 17.64 1.00
49171 2021-09-15 18:58:25 Terrasse 19.80 17.86 1.00
49170 2021-09-15 18:30:12 Terrasse 19.90 17.97 1.00
49169 2021-09-15 18:01:58 Terrasse 20.10 18.19 1.00
49168 2021-09-15 17:33:48 Terrasse 20.40 18.52 1.00
49167 2021-09-15 17:05:36 Terrasse 20.80 18.96 1.00
49166 2021-09-15 16:37:23 Terrasse 20.80 18.96 1.00
49165 2021-09-15 16:09:08 Terrasse 20.40 18.52 1.00
49164 2021-09-15 15:40:53 Terrasse 20.50 18.63 1.00
49163 2021-09-15 15:12:40 Terrasse 20.60 18.74 1.00
49162 2021-09-15 14:44:25 Terrasse 20.30 18.41 1.00
49161 2021-09-15 14:16:08 Terrasse 20.10 18.19 1.00
49160 2021-09-15 13:47:57 Terrasse 20.20 18.30 1.00
49159 2021-09-15 13:19:44 Terrasse 20.20 18.30 1.00
49158 2021-09-15 12:51:32 Terrasse 20.20 18.30 1.00
49157 2021-09-15 12:23:13 Terrasse 19.60 17.64 1.00
49156 2021-09-15 11:54:57 Terrasse 19.40 17.42 1.00
49155 2021-09-15 11:26:42 Terrasse 19.30 17.31 1.00
49154 2021-09-15 10:58:27 Terrasse 19.10 17.09 1.00
49153 2021-09-15 10:30:12 Terrasse 18.90 16.87 1.00
49152 2021-09-15 10:01:59 Terrasse 18.90 16.87 1.00
49151 2021-09-15 09:33:44 Terrasse 18.90 16.87 1.00
49150 2021-09-15 09:05:29 Terrasse 18.80 16.76 1.00
49149 2021-09-15 08:37:16 Terrasse 18.80 16.76 1.00
49148 2021-09-15 08:09:01 Terrasse 18.80 16.76 1.00
49147 2021-09-15 07:40:46 Terrasse 18.80 16.76 1.00
49146 2021-09-15 07:12:32 Terrasse 18.70 16.65 1.00
49145 2021-09-15 06:44:19 Terrasse 18.70 19.23 99.90
49144 2021-09-15 06:16:05 Terrasse 18.80 19.34 99.90
49143 2021-09-15 05:47:50 Terrasse 18.80 19.34 99.90
49142 2021-09-15 05:19:37 Terrasse 18.90 19.45 99.90
49141 2021-09-15 04:51:23 Terrasse 19.00 19.56 99.90
49140 2021-09-15 04:23:08 Terrasse 19.10 19.67 99.90
49139 2021-09-15 03:54:55 Terrasse 19.20 19.78 99.90
49138 2021-09-15 03:26:45 Terrasse 19.30 19.89 99.90
49137 2021-09-15 02:58:33 Terrasse 19.40 20.00 99.90
49136 2021-09-15 02:30:19 Terrasse 19.50 20.11 99.90
49135 2021-09-15 02:02:05 Terrasse 19.60 20.22 99.90
49134 2021-09-15 01:33:51 Terrasse 19.70 17.75 1.00
49133 2021-09-15 01:05:38 Terrasse 19.90 17.97 1.00
49132 2021-09-15 00:37:23 Terrasse 19.80 17.86 1.00
49131 2021-09-15 00:09:09 Terrasse 20.10 18.19 1.00
49130 2021-09-14 23:40:58 Terrasse 20.30 18.41 1.00
49129 2021-09-14 23:12:43 Terrasse 20.40 18.52 1.00
49128 2021-09-14 22:44:31 Terrasse 20.70 21.43 99.90
49127 2021-09-14 22:16:18 Terrasse 20.90 21.65 99.90
49126 2021-09-14 21:48:04 Terrasse 21.00 19.18 1.00
49125 2021-09-14 21:19:52 Terrasse 21.10 19.29 1.00
49124 2021-09-14 20:51:39 Terrasse 21.30 22.09 99.90
49123 2021-09-14 20:23:26 Terrasse 21.50 19.73 1.00
49122 2021-09-14 19:55:16 Terrasse 21.90 20.17 1.00
49121 2021-09-14 19:27:05 Terrasse 22.40 20.72 1.00
49120 2021-09-14 18:58:53 Terrasse 23.00 21.38 1.00
49119 2021-09-14 18:30:41 Terrasse 23.30 21.71 1.00
49118 2021-09-14 18:02:29 Terrasse 23.70 22.15 1.00
49117 2021-09-14 17:34:14 Terrasse 23.80 24.84 99.90
49116 2021-09-14 17:06:04 Terrasse 24.20 25.28 99.90
49115 2021-09-14 16:37:56 Terrasse 24.60 23.14 1.00
49114 2021-09-14 16:09:45 Terrasse 25.20 26.07 92.20
49113 2021-09-14 15:41:34 Terrasse 25.80 27.50 88.70
49112 2021-09-14 15:13:22 Terrasse 26.20 28.56 90.10
49111 2021-09-14 14:45:14 Terrasse 26.80 29.73 85.00
49110 2021-09-14 14:17:09 Terrasse 26.90 30.34 87.20
49109 2021-09-14 13:48:51 Terrasse 26.50 29.53 92.50
49108 2021-09-14 13:20:48 Terrasse 27.20 31.70 90.30
49107 2021-09-14 12:52:39 Terrasse 27.40 32.79 92.90
49106 2021-09-14 12:23:41 Terrasse 23.60 22.04 1.00
49105 2021-09-14 11:55:18 Terrasse 21.70 22.53 99.90
49104 2021-09-14 11:26:57 Terrasse 20.60 21.32 99.90
49103 2021-09-14 10:58:39 Terrasse 20.30 20.99 99.90
49102 2021-09-14 10:30:20 Terrasse 19.40 20.00 99.90
49101 2021-09-14 10:02:03 Terrasse 18.90 16.87 1.00
49100 2021-09-14 09:33:45 Terrasse 18.40 18.90 99.90
49099 2021-09-14 09:05:27 Terrasse 17.80 15.66 1.00
49098 2021-09-14 08:37:11 Terrasse 17.30 17.69 99.90
49097 2021-09-14 08:08:54 Terrasse 16.70 14.45 1.00
49096 2021-09-14 07:40:39 Terrasse 16.40 14.12 1.00
49095 2021-09-14 07:12:26 Terrasse 16.40 16.70 99.90
49094 2021-09-14 06:44:12 Terrasse 16.40 16.70 99.90
49093 2021-09-14 06:16:00 Terrasse 16.70 17.03 99.90
49092 2021-09-14 05:47:48 Terrasse 16.90 15.04 15.00
49091 2021-09-14 05:19:33 Terrasse 17.00 14.78 1.00
49090 2021-09-14 04:51:20 Terrasse 17.10 14.89 1.00
49089 2021-09-14 04:23:07 Terrasse 17.20 15.00 1.00
49088 2021-09-14 03:54:54 Terrasse 17.30 17.15 79.00
49087 2021-09-14 03:26:41 Terrasse 17.40 15.22 1.00
49086 2021-09-14 02:58:29 Terrasse 17.50 15.33 1.00
49085 2021-09-14 02:30:17 Terrasse 17.60 18.02 99.90
49084 2021-09-14 02:02:09 Terrasse 17.80 18.24 99.90
49083 2021-09-14 01:33:53 Terrasse 17.80 18.20 98.40
49082 2021-09-14 01:05:40 Terrasse 17.80 18.24 99.90
49081 2021-09-14 00:37:26 Terrasse 17.80 15.66 1.00
49080 2021-09-14 00:09:14 Terrasse 17.70 15.55 1.00
49079 2021-09-13 23:41:02 Terrasse 17.80 15.66 1.00
49078 2021-09-13 23:12:49 Terrasse 17.90 15.77 1.00
49077 2021-09-13 22:44:38 Terrasse 18.00 15.88 1.00
49076 2021-09-13 22:16:26 Terrasse 18.20 18.68 99.90
49075 2021-09-13 21:48:14 Terrasse 18.40 16.32 1.00
49074 2021-09-13 21:20:02 Terrasse 18.60 16.54 1.00
49073 2021-09-13 20:51:50 Terrasse 19.10 17.09 1.00
49072 2021-09-13 20:23:40 Terrasse 19.50 20.11 99.90
49071 2021-09-13 19:55:30 Terrasse 20.00 18.08 1.00
49070 2021-09-13 19:27:20 Terrasse 20.80 21.54 99.90
49069 2021-09-13 18:59:11 Terrasse 21.50 19.73 1.00
49068 2021-09-13 18:31:01 Terrasse 22.10 22.59 85.30
49067 2021-09-13 18:02:52 Terrasse 22.90 23.36 80.90
49066 2021-09-13 17:34:45 Terrasse 23.80 24.31 79.30
49065 2021-09-13 17:06:34 Terrasse 24.40 24.83 74.20
49064 2021-09-13 16:38:19 Terrasse 24.70 25.29 79.10
49063 2021-09-13 16:10:07 Terrasse 25.10 25.72 78.80
49062 2021-09-13 15:41:53 Terrasse 25.20 25.84 79.00
49061 2021-09-13 15:13:33 Terrasse 24.60 25.20 80.00
49060 2021-09-13 14:45:22 Terrasse 24.20 24.88 84.60
49059 2021-09-13 14:17:10 Terrasse 25.00 25.92 90.70
49058 2021-09-13 13:48:47 Terrasse 23.70 24.56 93.40
49057 2021-09-13 13:20:48 Terrasse 24.60 25.40 87.40
49056 2021-09-13 12:52:49 Terrasse 26.70 30.28 90.00
49055 2021-09-13 12:23:51 Terrasse 22.80 21.16 1.00
49054 2021-09-13 11:55:28 Terrasse 20.80 21.54 99.90
49053 2021-09-13 11:27:10 Terrasse 19.80 18.16 12.30
49052 2021-09-13 10:58:53 Terrasse 19.10 17.09 1.00
49051 2021-09-13 10:30:34 Terrasse 18.20 16.10 1.00
49050 2021-09-13 10:02:12 Terrasse 17.20 17.58 99.90
49049 2021-09-13 09:33:54 Terrasse 16.40 16.70 99.90
49048 2021-09-13 09:05:36 Terrasse 15.70 13.35 1.00
49047 2021-09-13 08:37:20 Terrasse 14.90 12.47 1.00
49046 2021-09-13 08:09:08 Terrasse 14.60 12.14 1.00
49045 2021-09-13 07:40:55 Terrasse 14.30 14.39 99.90
49044 2021-09-13 07:12:43 Terrasse 14.40 13.69 68.70
49043 2021-09-13 06:16:29 Terrasse 14.60 12.14 1.00
49042 2021-09-13 05:48:18 Terrasse 14.80 12.36 1.00
49041 2021-09-13 05:20:05 Terrasse 14.80 12.36 1.00
49040 2021-09-13 04:51:51 Terrasse 14.90 12.47 1.00
49039 2021-09-13 04:23:39 Terrasse 14.90 12.47 1.00
49038 2021-09-13 03:55:26 Terrasse 15.00 12.58 1.00
49037 2021-09-13 03:27:14 Terrasse 15.20 12.80 1.00
49036 2021-09-13 02:59:03 Terrasse 15.20 12.80 1.00
49035 2021-09-13 02:30:51 Terrasse 15.60 13.24 1.00
49034 2021-09-13 02:02:44 Terrasse 15.80 16.04 99.90
49033 2021-09-13 01:34:34 Terrasse 16.30 14.01 1.00
49032 2021-09-13 01:06:24 Terrasse 16.90 14.67 1.00
49031 2021-09-13 00:38:12 Terrasse 17.10 17.47 99.90
49030 2021-09-13 00:10:00 Terrasse 17.20 15.00 1.00
49029 2021-09-12 23:41:48 Terrasse 17.30 17.69 99.90
49028 2021-09-12 23:13:35 Terrasse 17.40 15.22 1.00
49027 2021-09-12 22:45:23 Terrasse 17.50 17.91 99.90
49026 2021-09-12 22:17:10 Terrasse 17.70 15.55 1.00
49025 2021-09-12 21:48:59 Terrasse 17.90 15.77 1.00
49024 2021-09-12 21:20:46 Terrasse 18.20 18.68 99.90
49023 2021-09-12 20:52:33 Terrasse 18.40 16.32 1.00
49022 2021-09-12 20:24:23 Terrasse 19.10 17.09 1.00
49021 2021-09-12 19:56:12 Terrasse 19.60 20.22 99.90
49020 2021-09-12 19:28:03 Terrasse 20.30 18.41 1.00
49019 2021-09-12 18:59:53 Terrasse 21.00 19.18 1.00
49018 2021-09-12 18:31:44 Terrasse 21.70 22.05 81.30
49017 2021-09-12 18:03:36 Terrasse 22.60 22.97 78.50
49016 2021-09-12 17:35:23 Terrasse 23.10 23.45 75.90
49015 2021-09-12 17:07:13 Terrasse 23.90 24.32 75.50
49014 2021-09-12 16:38:55 Terrasse 23.20 23.61 77.80
49013 2021-09-12 16:10:48 Terrasse 24.20 24.55 71.70
49012 2021-09-12 15:42:34 Terrasse 25.50 25.97 71.30
49011 2021-09-12 15:14:21 Terrasse 25.30 25.84 74.70
49010 2021-09-12 14:46:04 Terrasse 24.80 25.41 79.50
49009 2021-09-12 14:17:48 Terrasse 24.40 25.13 85.50
49008 2021-09-12 13:49:26 Terrasse 23.40 24.22 92.90
49007 2021-09-12 13:21:31 Terrasse 24.50 25.29 87.50
49006 2021-09-12 12:53:26 Terrasse 25.30 26.27 96.60
49005 2021-09-12 12:24:32 Terrasse 21.60 19.84 1.00
49004 2021-09-12 11:56:14 Terrasse 19.90 17.97 1.00
49003 2021-09-12 11:28:06 Terrasse 20.40 21.10 99.90
49002 2021-09-12 10:59:47 Terrasse 19.60 17.64 1.00
49001 2021-09-12 10:31:27 Terrasse 18.70 16.65 1.00
49000 2021-09-12 10:03:09 Terrasse 18.00 18.46 99.90
48999 2021-09-12 09:34:50 Terrasse 17.40 17.80 99.90
48998 2021-09-12 09:06:32 Terrasse 16.70 17.03 99.90
48997 2021-09-12 08:38:15 Terrasse 16.10 13.79 1.00
48996 2021-09-12 08:09:59 Terrasse 15.70 15.93 99.90
48995 2021-09-12 07:41:45 Terrasse 15.50 15.71 99.90
48994 2021-09-12 07:13:33 Terrasse 15.60 15.82 99.90
48993 2021-09-12 06:45:21 Terrasse 15.80 16.04 99.90
48992 2021-09-12 06:17:12 Terrasse 16.10 16.37 99.90
48991 2021-09-12 05:48:58 Terrasse 16.20 16.48 99.90
48990 2021-09-12 05:20:45 Terrasse 16.20 16.48 99.90
48989 2021-09-12 04:52:35 Terrasse 16.30 16.59 99.90
48988 2021-09-12 04:24:21 Terrasse 16.30 16.59 99.90
48987 2021-09-12 03:56:07 Terrasse 16.30 16.59 99.90
48986 2021-09-12 03:27:53 Terrasse 16.30 16.59 99.90
48985 2021-09-12 02:59:40 Terrasse 16.30 16.59 99.90
48984 2021-09-12 02:31:27 Terrasse 16.60 14.58 10.20
48983 2021-09-12 02:03:14 Terrasse 16.80 17.14 99.90
48982 2021-09-12 01:35:02 Terrasse 16.90 15.43 30.00
48981 2021-09-12 01:06:48 Terrasse 17.10 14.89 1.00
48980 2021-09-12 00:38:34 Terrasse 17.20 15.00 1.00
48979 2021-09-12 00:10:21 Terrasse 17.30 15.11 1.00
48978 2021-09-11 23:42:09 Terrasse 17.40 15.22 1.00
48977 2021-09-11 23:13:55 Terrasse 17.40 15.56 14.10
48976 2021-09-11 22:45:43 Terrasse 17.70 15.64 4.40
48975 2021-09-11 22:17:30 Terrasse 17.90 18.35 99.90
48974 2021-09-11 21:49:18 Terrasse 18.30 16.21 1.00
48973 2021-09-11 21:21:06 Terrasse 18.70 16.65 1.00
48972 2021-09-11 20:52:55 Terrasse 19.00 16.98 1.00
48971 2021-09-11 20:24:43 Terrasse 19.40 19.80 92.00
48970 2021-09-11 19:56:33 Terrasse 19.90 20.55 99.90
48969 2021-09-11 19:28:24 Terrasse 20.40 18.52 1.00
48968 2021-09-11 19:00:11 Terrasse 20.50 21.21 99.90
48967 2021-09-11 18:31:58 Terrasse 20.70 21.43 99.90
48966 2021-09-11 18:03:46 Terrasse 20.90 21.65 99.90
48965 2021-09-11 17:35:33 Terrasse 21.00 21.76 99.90
48964 2021-09-11 17:07:21 Terrasse 21.30 22.09 99.90
48963 2021-09-11 16:39:13 Terrasse 22.10 20.39 1.00
48962 2021-09-11 16:11:04 Terrasse 22.60 20.94 1.00
48961 2021-09-11 15:42:48 Terrasse 22.30 20.61 1.00
48960 2021-09-11 15:14:31 Terrasse 22.40 20.72 1.00
48959 2021-09-11 14:46:14 Terrasse 21.60 20.22 15.60
48958 2021-09-11 14:17:45 Terrasse 20.20 18.30 1.00
48957 2021-09-11 13:49:27 Terrasse 19.40 17.42 1.00
48956 2021-09-11 13:21:14 Terrasse 19.20 17.20 1.00
48955 2021-09-11 12:53:03 Terrasse 19.60 17.64 1.00
48954 2021-09-11 12:25:01 Terrasse 20.90 21.65 99.90
48953 2021-09-11 11:56:48 Terrasse 21.20 19.40 1.00
48952 2021-09-11 11:28:28 Terrasse 19.80 17.86 1.00
48951 2021-09-11 11:00:09 Terrasse 18.80 16.76 1.00
48950 2021-09-11 10:31:55 Terrasse 18.60 16.54 1.00
48949 2021-09-11 10:03:37 Terrasse 18.10 15.99 1.00
48948 2021-09-11 09:35:23 Terrasse 17.80 15.66 1.00
48947 2021-09-11 09:07:09 Terrasse 17.80 15.66 1.00
48946 2021-09-11 08:38:56 Terrasse 17.80 15.66 1.00
48945 2021-09-11 08:10:41 Terrasse 17.70 15.55 1.00
48944 2021-09-11 07:42:27 Terrasse 17.60 15.44 1.00
48943 2021-09-11 07:14:13 Terrasse 17.60 15.44 1.00
48942 2021-09-11 06:46:00 Terrasse 17.60 15.44 1.00
48941 2021-09-11 06:17:45 Terrasse 17.60 15.44 1.00
48940 2021-09-11 05:49:31 Terrasse 17.50 15.33 1.00
48939 2021-09-11 05:21:19 Terrasse 17.50 15.33 1.00
48938 2021-09-11 04:53:08 Terrasse 17.90 15.77 1.00
48937 2021-09-11 04:24:54 Terrasse 17.90 15.77 1.00
48936 2021-09-11 03:56:39 Terrasse 18.00 15.88 1.00
48935 2021-09-11 03:28:26 Terrasse 18.00 15.88 1.00
48934 2021-09-11 03:00:10 Terrasse 17.90 15.77 1.00
48933 2021-09-11 02:31:58 Terrasse 18.00 15.88 1.00
48932 2021-09-11 02:03:45 Terrasse 18.10 15.99 1.00
48931 2021-09-11 01:35:34 Terrasse 18.30 16.21 1.00
48930 2021-09-11 01:07:20 Terrasse 18.40 16.32 1.00
48929 2021-09-11 00:39:07 Terrasse 18.60 16.54 1.00
48928 2021-09-11 00:10:54 Terrasse 18.70 16.65 1.00
48927 2021-09-10 23:42:41 Terrasse 18.80 16.76 1.00
48926 2021-09-10 23:14:27 Terrasse 18.80 16.76 1.00
48925 2021-09-10 22:46:14 Terrasse 18.90 16.87 1.00
48924 2021-09-10 22:18:01 Terrasse 19.10 17.09 1.00
48923 2021-09-10 21:49:47 Terrasse 19.10 17.09 1.00
48922 2021-09-10 21:21:33 Terrasse 19.10 19.67 99.90
48921 2021-09-10 20:53:19 Terrasse 19.10 19.67 99.90
48920 2021-09-10 20:25:06 Terrasse 19.30 19.89 99.90
48919 2021-09-10 19:56:53 Terrasse 19.50 20.11 99.90
48918 2021-09-10 19:28:40 Terrasse 19.80 20.44 99.90
48917 2021-09-10 19:00:28 Terrasse 19.80 20.44 99.90
48916 2021-09-10 17:56:03 Terrasse 21.50 22.31 99.90
48915 2021-09-10 17:27:52 Terrasse 22.00 22.86 99.90
48914 2021-09-10 16:59:44 Terrasse 22.90 23.85 99.90
48913 2021-09-10 16:31:36 Terrasse 23.70 22.15 1.00
48912 2021-09-10 16:03:28 Terrasse 24.70 23.25 1.00
48911 2021-09-10 15:35:15 Terrasse 25.40 24.02 1.00
48910 2021-09-10 15:06:52 Terrasse 24.40 22.92 1.00
48909 2021-09-10 14:38:31 Terrasse 22.40 20.72 1.00
48908 2021-09-10 14:10:18 Terrasse 22.30 20.61 1.00
48907 2021-09-10 13:42:06 Terrasse 22.70 21.05 1.00
48906 2021-09-10 13:13:53 Terrasse 22.70 21.05 1.00
48905 2021-09-10 12:45:39 Terrasse 22.80 21.76 24.00
48904 2021-09-10 12:17:31 Terrasse 23.30 22.77 41.70
48903 2021-09-10 11:49:12 Terrasse 23.20 21.60 1.00
48902 2021-09-10 11:21:03 Terrasse 23.40 24.40 99.90
48901 2021-09-10 10:52:36 Terrasse 21.90 22.75 99.90
48900 2021-09-10 10:24:16 Terrasse 21.30 19.51 1.00
48899 2021-09-10 09:55:59 Terrasse 20.70 18.91 3.10
48898 2021-09-10 09:27:42 Terrasse 20.30 20.99 99.90
48897 2021-09-10 08:59:25 Terrasse 19.70 17.75 1.00
48896 2021-09-10 08:31:09 Terrasse 19.40 18.45 40.30
48895 2021-09-10 08:02:52 Terrasse 19.00 17.91 36.60
48894 2021-09-10 07:34:38 Terrasse 18.70 18.35 66.20
48893 2021-09-10 07:06:24 Terrasse 18.80 16.76 1.00
48892 2021-09-10 06:38:11 Terrasse 18.80 16.76 1.00
48891 2021-09-10 06:10:06 Terrasse 18.90 17.07 8.50
48890 2021-09-10 05:41:52 Terrasse 19.20 17.20 1.00
48889 2021-09-10 05:13:41 Terrasse 19.30 17.31 1.00
48888 2021-09-10 04:45:29 Terrasse 19.60 17.64 1.00
48887 2021-09-10 03:45:02 Terrasse 19.90 17.97 1.00
48886 2021-09-10 03:16:57 Terrasse 20.10 18.19 1.00
48885 2021-09-10 02:48:43 Terrasse 20.30 18.41 1.00
48884 2021-09-10 02:20:29 Terrasse 20.40 18.52 1.00
48883 2021-09-10 01:52:16 Terrasse 20.50 18.63 1.00
48882 2021-09-10 01:24:04 Terrasse 20.60 18.74 1.00
48881 2021-09-10 00:55:51 Terrasse 20.70 18.85 1.00
48880 2021-09-09 23:55:23 Terrasse 21.10 21.87 99.90
48879 2021-09-09 23:27:09 Terrasse 21.30 22.09 99.90
48878 2021-09-09 22:58:58 Terrasse 21.70 22.53 99.90
48877 2021-09-09 22:30:45 Terrasse 22.10 22.97 99.90
48876 2021-09-09 22:02:33 Terrasse 22.60 20.94 1.00
48875 2021-09-09 21:34:23 Terrasse 22.80 21.16 1.00
48874 2021-09-09 21:06:10 Terrasse 23.00 22.09 28.20
48873 2021-09-09 20:37:58 Terrasse 23.30 24.29 99.90
48872 2021-09-09 20:09:46 Terrasse 23.60 22.04 1.00
48871 2021-09-09 19:41:34 Terrasse 23.90 24.95 99.90
48870 2021-09-09 19:13:22 Terrasse 24.30 22.81 1.00
48869 2021-09-09 18:45:11 Terrasse 24.70 25.83 99.90
48868 2021-09-09 18:17:00 Terrasse 25.10 23.69 1.00
48867 2021-09-09 17:48:46 Terrasse 25.30 23.91 1.00
48866 2021-09-09 17:20:36 Terrasse 25.70 27.45 99.90
48865 2021-09-09 16:52:27 Terrasse 26.40 25.12 1.00
48864 2021-09-09 16:24:24 Terrasse 28.00 25.76 1.00
48863 2021-09-09 15:56:14 Terrasse 28.80 26.39 1.00
48862 2021-09-09 15:27:57 Terrasse 28.50 26.12 1.00
48861 2021-09-09 14:59:44 Terrasse 28.40 26.04 1.00
48860 2021-09-09 14:31:35 Terrasse 27.80 25.58 1.00
48859 2021-09-09 14:03:17 Terrasse 27.40 34.23 99.90
48858 2021-09-09 13:35:11 Terrasse 27.40 34.23 99.90
48857 2021-09-09 13:07:10 Terrasse 29.30 26.75 1.00
48856 2021-09-09 12:38:41 Terrasse 27.60 34.93 99.90
48855 2021-09-09 12:10:07 Terrasse 24.10 24.86 87.70
48854 2021-09-09 11:41:44 Terrasse 22.90 21.27 1.00
48853 2021-09-09 11:13:24 Terrasse 22.00 20.28 1.00
48852 2021-09-09 10:45:06 Terrasse 21.20 21.81 93.30
48851 2021-09-09 10:16:48 Terrasse 20.40 21.10 99.90
48850 2021-09-09 09:48:31 Terrasse 19.80 17.86 1.00
48849 2021-09-09 09:20:12 Terrasse 19.20 17.20 1.00
48848 2021-09-09 08:51:55 Terrasse 18.60 16.54 1.00
48847 2021-09-09 08:23:38 Terrasse 17.80 18.24 99.90
48846 2021-09-09 07:55:24 Terrasse 17.50 15.33 1.00
48845 2021-09-09 07:27:09 Terrasse 17.20 17.58 99.90
48844 2021-09-09 06:58:56 Terrasse 17.40 15.22 1.00
48843 2021-09-09 06:30:42 Terrasse 17.50 16.38 41.10
48842 2021-09-09 06:02:28 Terrasse 17.60 18.02 99.90
48841 2021-09-09 05:34:16 Terrasse 17.90 15.77 1.00
48840 2021-09-09 05:06:05 Terrasse 18.30 18.79 99.90
48839 2021-09-09 04:37:52 Terrasse 18.40 16.32 1.00
48838 2021-09-09 04:09:41 Terrasse 18.70 17.22 22.90
48837 2021-09-09 03:41:27 Terrasse 18.50 19.01 99.90
48836 2021-09-09 03:13:15 Terrasse 18.70 19.23 99.90
48835 2021-09-09 02:45:03 Terrasse 18.80 16.76 1.00
48834 2021-09-09 02:16:50 Terrasse 19.10 19.67 99.90
48833 2021-09-09 01:48:38 Terrasse 19.30 19.89 99.90
48832 2021-09-09 01:20:26 Terrasse 19.30 18.54 48.10
48831 2021-09-09 00:52:14 Terrasse 19.50 19.49 75.90
48830 2021-09-09 00:24:04 Terrasse 20.00 19.98 73.60
48829 2021-09-08 23:55:53 Terrasse 20.30 20.28 72.40
48828 2021-09-08 23:27:41 Terrasse 20.70 20.67 70.60
48827 2021-09-08 22:59:29 Terrasse 20.90 20.89 70.50
48826 2021-09-08 22:31:16 Terrasse 21.10 21.09 69.90
48825 2021-09-08 22:03:04 Terrasse 21.50 21.51 69.10
48824 2021-09-08 21:34:54 Terrasse 21.80 21.83 68.90
48823 2021-09-08 21:06:43 Terrasse 22.20 22.26 68.40
48822 2021-09-08 20:38:33 Terrasse 22.60 22.70 68.30
48821 2021-09-08 20:10:23 Terrasse 23.20 23.31 66.60
48820 2021-09-08 19:42:16 Terrasse 24.10 24.27 65.20
48819 2021-09-08 19:14:07 Terrasse 25.00 25.17 61.70
48818 2021-09-08 18:45:56 Terrasse 25.50 25.73 62.30
48817 2021-09-08 18:17:49 Terrasse 26.30 27.30 61.00
48816 2021-09-08 17:49:38 Terrasse 27.10 28.11 58.70
48815 2021-09-08 17:21:28 Terrasse 27.80 28.91 57.50
48814 2021-09-08 16:53:16 Terrasse 28.10 29.30 57.30
48813 2021-09-08 16:25:05 Terrasse 28.70 29.82 54.60
48812 2021-09-08 15:56:51 Terrasse 29.10 31.03 58.90
48811 2021-09-08 15:28:35 Terrasse 28.80 30.40 57.90
48810 2021-09-08 15:00:21 Terrasse 28.90 31.08 61.40
48809 2021-09-08 14:32:04 Terrasse 28.50 30.68 63.40
48808 2021-09-08 14:03:48 Terrasse 28.10 30.23 65.20
48807 2021-09-08 13:35:40 Terrasse 28.50 31.02 65.80
48806 2021-09-08 13:07:33 Terrasse 28.70 31.72 67.80
48805 2021-09-08 12:39:05 Terrasse 27.10 29.58 76.10
48804 2021-09-08 12:10:37 Terrasse 24.10 22.59 1.00
48803 2021-09-08 11:42:15 Terrasse 23.00 21.38 1.00
48802 2021-09-08 11:13:56 Terrasse 22.00 20.28 1.00
48801 2021-09-08 10:45:46 Terrasse 21.20 21.98 99.90
48800 2021-09-08 10:17:26 Terrasse 20.40 21.10 99.90
48799 2021-09-08 09:49:09 Terrasse 19.60 17.64 1.00
48798 2021-09-08 09:20:53 Terrasse 19.20 17.20 1.00
48797 2021-09-08 08:52:36 Terrasse 18.60 16.54 1.00
48796 2021-09-08 08:24:19 Terrasse 18.10 18.57 99.90
48795 2021-09-08 07:56:16 Terrasse 17.80 15.66 1.00
48794 2021-09-08 07:28:11 Terrasse 17.80 15.66 1.00
48793 2021-09-08 06:59:55 Terrasse 17.90 18.35 99.90
48792 2021-09-08 06:31:52 Terrasse 18.00 15.88 1.00
48791 2021-09-08 06:03:47 Terrasse 18.20 16.10 1.00
48790 2021-09-08 05:35:42 Terrasse 18.30 18.79 99.90
48789 2021-09-08 05:07:27 Terrasse 18.60 19.12 99.90
48788 2021-09-08 04:39:14 Terrasse 18.70 16.65 1.00
48787 2021-09-08 03:39:04 Terrasse 18.90 16.87 1.00
48786 2021-09-08 03:11:06 Terrasse 19.00 19.56 99.90
48785 2021-09-08 02:42:59 Terrasse 19.20 17.20 1.00
48784 2021-09-08 02:14:44 Terrasse 19.40 17.42 1.00
48783 2021-09-08 01:46:32 Terrasse 19.60 20.22 99.90
48782 2021-09-08 01:18:21 Terrasse 19.80 17.86 1.00
48781 2021-09-08 00:50:09 Terrasse 20.00 20.66 99.90
48780 2021-09-07 23:53:53 Terrasse 20.30 18.41 1.00
48779 2021-09-07 23:25:41 Terrasse 20.50 18.63 1.00
48778 2021-09-07 22:57:30 Terrasse 20.70 18.85 1.00
48777 2021-09-07 22:29:18 Terrasse 21.00 19.18 1.00
48776 2021-09-07 22:01:06 Terrasse 21.30 19.51 1.00
48775 2021-09-07 21:32:53 Terrasse 21.40 19.62 1.00
48774 2021-09-07 21:04:42 Terrasse 21.60 21.91 80.30
48773 2021-09-07 20:36:32 Terrasse 22.20 22.48 76.70
48772 2021-09-07 20:08:22 Terrasse 22.70 22.97 74.30
48771 2021-09-07 19:40:13 Terrasse 23.30 23.59 72.80
48770 2021-09-07 19:12:03 Terrasse 24.00 24.22 67.70
48769 2021-09-07 18:43:52 Terrasse 24.50 24.68 64.30
48768 2021-09-07 18:15:43 Terrasse 25.10 25.26 60.90
48767 2021-09-07 17:47:33 Terrasse 25.70 25.83 57.60
48766 2021-09-07 17:19:23 Terrasse 26.30 27.09 56.60
48765 2021-09-07 16:51:12 Terrasse 26.80 27.61 56.50
48764 2021-09-07 16:23:01 Terrasse 27.30 28.01 54.20
48763 2021-09-07 15:54:47 Terrasse 27.50 28.69 59.50
48762 2021-09-07 15:26:33 Terrasse 27.60 28.55 56.40
48761 2021-09-07 14:58:21 Terrasse 27.90 29.21 59.10
48760 2021-09-07 14:30:05 Terrasse 27.20 28.56 62.80
48759 2021-09-07 14:01:50 Terrasse 26.90 28.61 69.00
48758 2021-09-07 13:33:41 Terrasse 27.20 29.58 74.00
48757 2021-09-07 13:05:28 Terrasse 27.20 30.01 78.30
48756 2021-09-07 12:36:57 Terrasse 25.30 23.91 1.00
48755 2021-09-07 12:08:36 Terrasse 23.40 24.40 99.90
48754 2021-09-07 11:40:13 Terrasse 22.20 20.50 1.00
48753 2021-09-07 11:11:53 Terrasse 21.20 19.40 1.00
48752 2021-09-07 10:43:35 Terrasse 20.30 20.99 99.90
48751 2021-09-07 10:15:16 Terrasse 19.50 17.53 1.00
48750 2021-09-07 09:46:59 Terrasse 18.90 19.41 98.20
48749 2021-09-07 09:18:43 Terrasse 18.40 16.46 6.30
48748 2021-09-07 08:50:26 Terrasse 17.90 15.77 1.00
48747 2021-09-07 08:22:11 Terrasse 17.50 17.91 99.90
48746 2021-09-07 07:53:57 Terrasse 17.20 17.58 99.90
48745 2021-09-07 07:25:44 Terrasse 17.10 14.89 1.00
48744 2021-09-07 06:57:33 Terrasse 17.20 15.00 1.00
48743 2021-09-07 06:29:20 Terrasse 17.40 15.22 1.00
48742 2021-09-07 06:01:07 Terrasse 17.50 15.33 1.00
48741 2021-09-07 05:32:56 Terrasse 17.70 15.55 1.00
48740 2021-09-07 05:04:44 Terrasse 17.70 18.13 99.90
48739 2021-09-07 04:36:33 Terrasse 17.90 15.77 1.00
48738 2021-09-07 04:08:22 Terrasse 18.10 16.15 7.20
48737 2021-09-07 03:40:12 Terrasse 18.30 18.79 99.90
48736 2021-09-07 03:12:01 Terrasse 18.50 16.43 1.00
48735 2021-09-07 02:43:51 Terrasse 18.80 16.76 1.00
48734 2021-09-07 02:15:39 Terrasse 19.10 17.09 1.00
48733 2021-09-07 01:47:28 Terrasse 19.40 17.42 1.00
48732 2021-09-07 01:19:18 Terrasse 19.70 17.75 1.00
48731 2021-09-07 00:51:07 Terrasse 20.10 20.31 82.30
48730 2021-09-07 00:22:54 Terrasse 20.40 20.57 79.60
48729 2021-09-06 23:54:42 Terrasse 20.60 20.72 76.90
48728 2021-09-06 23:26:29 Terrasse 20.70 20.79 75.40
48727 2021-09-06 22:58:18 Terrasse 20.90 20.97 73.70
48726 2021-09-06 22:30:06 Terrasse 21.20 21.27 72.50
48725 2021-09-06 22:01:55 Terrasse 21.40 21.45 70.90
48724 2021-09-06 21:33:43 Terrasse 21.80 21.85 69.40
48723 2021-09-06 21:05:31 Terrasse 22.00 22.07 69.40
48722 2021-09-06 20:37:19 Terrasse 22.40 22.53 70.20
48721 2021-09-06 20:09:08 Terrasse 22.80 22.92 68.50
48720 2021-09-06 19:41:01 Terrasse 23.50 23.66 67.20
48719 2021-09-06 19:12:51 Terrasse 24.40 24.64 66.90
48718 2021-09-06 18:44:41 Terrasse 25.20 25.40 62.30
48717 2021-09-06 18:16:30 Terrasse 25.80 26.00 59.80
48716 2021-09-06 17:48:18 Terrasse 26.20 27.20 61.40
48715 2021-09-06 17:20:07 Terrasse 26.60 27.58 59.80
48714 2021-09-06 16:51:53 Terrasse 26.60 27.61 60.30
48713 2021-09-06 16:23:44 Terrasse 27.60 28.67 57.80
48712 2021-09-06 15:55:35 Terrasse 28.70 30.13 57.00
48711 2021-09-06 15:27:23 Terrasse 29.20 30.64 55.20
48710 2021-09-06 14:59:08 Terrasse 29.30 30.87 55.70
48709 2021-09-06 14:30:50 Terrasse 28.70 30.65 60.80
48708 2021-09-06 14:02:39 Terrasse 28.80 30.28 57.00
48707 2021-09-06 13:34:28 Terrasse 28.70 30.84 62.10
48706 2021-09-06 13:06:20 Terrasse 29.10 32.35 66.80
48705 2021-09-06 12:37:49 Terrasse 27.00 30.79 88.30
48704 2021-09-06 12:09:23 Terrasse 24.20 25.28 99.90
48703 2021-09-06 11:40:59 Terrasse 22.90 23.85 99.90
48702 2021-09-06 11:12:39 Terrasse 21.90 22.75 99.90
48701 2021-09-06 10:44:20 Terrasse 20.90 21.65 99.90
48700 2021-09-06 10:16:02 Terrasse 20.20 20.88 99.90
48699 2021-09-06 09:47:44 Terrasse 19.40 20.00 99.90
48698 2021-09-06 09:19:26 Terrasse 18.70 19.23 99.90
48697 2021-09-06 08:51:08 Terrasse 18.00 18.46 99.90
48696 2021-09-06 08:22:53 Terrasse 17.40 17.80 99.90
48695 2021-09-06 07:54:39 Terrasse 17.00 17.36 99.90
48694 2021-09-06 07:26:26 Terrasse 16.90 17.25 99.90
48693 2021-09-06 06:58:15 Terrasse 17.10 17.47 99.90
48692 2021-09-06 06:30:03 Terrasse 17.40 17.80 99.90
48691 2021-09-06 06:01:51 Terrasse 17.50 17.91 99.90
48690 2021-09-06 05:33:38 Terrasse 17.60 18.02 99.90
48689 2021-09-06 05:05:24 Terrasse 17.60 18.02 99.90
48688 2021-09-06 04:37:12 Terrasse 17.70 18.13 99.90
48687 2021-09-06 04:09:00 Terrasse 18.10 18.57 99.90
48686 2021-09-06 03:40:48 Terrasse 18.30 18.79 99.90
48685 2021-09-06 03:12:34 Terrasse 18.20 18.68 99.90
48684 2021-09-06 02:44:22 Terrasse 18.30 18.79 99.90
48683 2021-09-06 02:16:10 Terrasse 18.30 18.79 99.90
48682 2021-09-06 01:47:59 Terrasse 18.80 19.27 96.90
48681 2021-09-06 01:19:47 Terrasse 19.20 19.60 93.00
48680 2021-09-06 00:51:34 Terrasse 19.50 20.00 95.40
48679 2021-09-06 00:23:22 Terrasse 19.70 20.33 99.90
48678 2021-09-05 23:55:10 Terrasse 19.90 20.55 99.90
48677 2021-09-05 23:26:58 Terrasse 20.20 20.88 99.90
48676 2021-09-05 22:58:46 Terrasse 20.40 21.10 99.90
48675 2021-09-05 22:30:32 Terrasse 20.50 21.21 99.90
48674 2021-09-05 22:02:20 Terrasse 20.80 21.47 96.90
48673 2021-09-05 21:34:08 Terrasse 21.00 21.54 91.30
48672 2021-09-05 21:05:55 Terrasse 21.40 21.86 86.60
48671 2021-09-05 20:37:45 Terrasse 21.90 22.28 81.70
48670 2021-09-05 20:09:33 Terrasse 22.50 22.82 77.10
48669 2021-09-05 19:41:25 Terrasse 23.40 23.73 74.00
48668 2021-09-05 19:13:16 Terrasse 24.30 24.59 69.20
48667 2021-09-05 18:45:07 Terrasse 25.20 25.40 62.30
48666 2021-09-05 18:16:58 Terrasse 25.90 26.83 60.30
48665 2021-09-05 17:48:48 Terrasse 26.70 27.59 57.90
48664 2021-09-05 17:20:35 Terrasse 27.20 28.19 58.10
48663 2021-09-05 16:52:26 Terrasse 27.80 29.06 59.00
48662 2021-09-05 16:24:11 Terrasse 28.00 29.16 57.30
48661 2021-09-05 15:55:57 Terrasse 28.10 29.61 60.10
48660 2021-09-05 15:27:44 Terrasse 27.40 28.44 58.10
48659 2021-09-05 14:59:31 Terrasse 28.70 30.15 57.20
48658 2021-09-05 14:31:15 Terrasse 28.20 29.81 60.50
48657 2021-09-05 14:03:03 Terrasse 28.70 30.78 61.70
48656 2021-09-05 13:34:53 Terrasse 28.80 31.92 67.80
48655 2021-09-05 13:06:45 Terrasse 29.00 33.22 72.60
48654 2021-09-05 12:38:13 Terrasse 26.80 30.81 91.60
48653 2021-09-05 12:09:50 Terrasse 24.20 25.28 99.90
48652 2021-09-05 11:41:25 Terrasse 22.90 23.85 99.90
48651 2021-09-05 11:13:03 Terrasse 21.70 22.53 99.90
48650 2021-09-05 10:44:41 Terrasse 20.70 21.43 99.90
48649 2021-09-05 10:16:23 Terrasse 19.80 20.44 99.90
48648 2021-09-05 09:48:05 Terrasse 19.10 19.67 99.90
48647 2021-09-05 09:19:48 Terrasse 18.50 19.01 99.90
48646 2021-09-05 08:51:32 Terrasse 17.90 18.35 99.90
48645 2021-09-05 08:23:15 Terrasse 17.30 17.69 99.90
48644 2021-09-05 07:55:00 Terrasse 16.90 17.25 99.90
48643 2021-09-05 07:26:45 Terrasse 16.50 16.81 99.90
48642 2021-09-05 06:58:32 Terrasse 16.50 16.81 99.90
48641 2021-09-05 06:30:19 Terrasse 16.50 16.81 99.90
48640 2021-09-05 06:02:08 Terrasse 16.70 17.03 99.90
48639 2021-09-05 05:33:55 Terrasse 16.80 17.14 99.90
48638 2021-09-05 05:05:43 Terrasse 16.90 17.25 99.90
48637 2021-09-05 04:37:32 Terrasse 17.10 17.47 99.90
48636 2021-09-05 04:09:20 Terrasse 17.40 17.80 99.90
48635 2021-09-05 03:41:09 Terrasse 17.70 18.13 99.90
48634 2021-09-05 03:12:58 Terrasse 18.20 18.68 99.90
48633 2021-09-05 02:44:48 Terrasse 18.80 19.34 99.90
48632 2021-09-05 02:16:36 Terrasse 19.20 19.66 95.00
48631 2021-09-05 01:48:23 Terrasse 19.50 19.90 91.80
48630 2021-09-05 01:20:12 Terrasse 19.70 20.13 92.00
48629 2021-09-05 00:51:59 Terrasse 19.80 20.25 92.50
48628 2021-09-05 00:23:46 Terrasse 20.00 20.44 91.50
48627 2021-09-04 23:55:35 Terrasse 20.40 20.81 88.80
48626 2021-09-04 23:27:24 Terrasse 20.60 20.98 86.90
48625 2021-09-04 22:59:11 Terrasse 20.80 21.18 86.00
48624 2021-09-04 22:30:59 Terrasse 21.10 21.51 86.10
48623 2021-09-04 22:02:48 Terrasse 21.30 21.69 84.60
48622 2021-09-04 21:34:35 Terrasse 21.50 21.91 84.40
48621 2021-09-04 21:06:22 Terrasse 21.70 22.07 82.10
48620 2021-09-04 20:38:10 Terrasse 21.90 22.20 78.60
48619 2021-09-04 20:09:58 Terrasse 21.90 22.12 75.80
48618 2021-09-04 19:41:51 Terrasse 23.00 23.25 72.70
48617 2021-09-04 19:13:43 Terrasse 24.00 24.14 64.50
48616 2021-09-04 18:45:33 Terrasse 24.60 24.77 63.30
48615 2021-09-04 18:17:21 Terrasse 25.20 25.33 59.50
48614 2021-09-04 17:49:10 Terrasse 25.80 26.02 60.50
48613 2021-09-04 17:20:59 Terrasse 26.30 27.16 58.00
48612 2021-09-04 16:52:48 Terrasse 26.80 27.66 57.30
48611 2021-09-04 16:24:35 Terrasse 27.30 28.19 56.50
48610 2021-09-04 15:56:32 Terrasse 27.90 28.84 55.50
48609 2021-09-04 15:28:13 Terrasse 27.80 28.93 57.70
48608 2021-09-04 15:00:04 Terrasse 27.90 28.84 55.50
48607 2021-09-04 14:31:50 Terrasse 28.10 29.58 59.80
48606 2021-09-04 14:03:36 Terrasse 27.90 29.27 59.70
48605 2021-09-04 13:35:29 Terrasse 28.30 30.55 65.00
48604 2021-09-04 13:07:23 Terrasse 28.90 31.50 64.10
48603 2021-09-04 12:38:48 Terrasse 26.60 29.39 87.00
48602 2021-09-04 12:10:27 Terrasse 24.00 25.06 99.90
48601 2021-09-04 11:41:58 Terrasse 22.60 23.52 99.90
48600 2021-09-04 11:13:37 Terrasse 21.30 22.09 99.90
48599 2021-09-04 10:45:17 Terrasse 20.20 18.30 1.00
48598 2021-09-04 10:16:58 Terrasse 19.20 17.20 1.00
48597 2021-09-04 09:48:38 Terrasse 18.30 18.79 99.90
48596 2021-09-04 09:20:19 Terrasse 17.40 15.22 1.00
48595 2021-09-04 08:52:01 Terrasse 16.60 16.92 99.90
48594 2021-09-04 08:23:43 Terrasse 15.80 13.46 1.00
48593 2021-09-04 07:55:31 Terrasse 15.40 13.02 1.00
48592 2021-09-04 07:27:18 Terrasse 15.20 15.38 99.90
48591 2021-09-04 06:59:04 Terrasse 15.10 14.00 51.30
48590 2021-09-04 06:30:53 Terrasse 15.30 12.91 1.00
48589 2021-09-04 06:02:41 Terrasse 15.40 13.02 1.00
48588 2021-09-04 05:34:29 Terrasse 15.70 13.35 1.00
48587 2021-09-04 05:06:17 Terrasse 15.90 16.15 99.90
48586 2021-09-04 04:38:04 Terrasse 16.20 13.90 1.00
48585 2021-09-04 04:09:51 Terrasse 16.30 16.59 99.90
48584 2021-09-04 03:41:38 Terrasse 16.20 15.44 60.10
48583 2021-09-04 03:13:28 Terrasse 16.50 14.23 1.00
48582 2021-09-04 02:45:16 Terrasse 16.80 14.56 1.00
48581 2021-09-04 02:17:18 Terrasse 17.20 17.58 99.90
48580 2021-09-04 01:49:03 Terrasse 17.70 15.55 1.00
48579 2021-09-04 01:20:50 Terrasse 17.80 16.34 26.80
48578 2021-09-04 00:52:37 Terrasse 17.90 18.04 87.70
48577 2021-09-04 00:24:24 Terrasse 17.90 15.77 1.00
48576 2021-09-03 23:56:24 Terrasse 18.20 16.10 1.00
48575 2021-09-03 23:28:11 Terrasse 18.40 16.32 1.00
48574 2021-09-03 23:00:00 Terrasse 18.80 16.76 1.00
48573 2021-09-03 22:31:52 Terrasse 19.20 19.78 99.90
48572 2021-09-03 22:03:44 Terrasse 19.50 17.53 1.00
48571 2021-09-03 21:35:31 Terrasse 19.70 17.75 1.00
48570 2021-09-03 21:07:20 Terrasse 20.10 18.19 1.00
48569 2021-09-03 20:39:10 Terrasse 20.70 18.85 1.00
48568 2021-09-03 20:11:00 Terrasse 21.40 21.69 80.10
48567 2021-09-03 19:42:52 Terrasse 22.40 22.69 76.50
48566 2021-09-03 19:14:42 Terrasse 23.20 23.46 72.00
48565 2021-09-03 18:46:31 Terrasse 23.70 23.96 70.30
48564 2021-09-03 18:18:20 Terrasse 24.30 24.59 69.20
48563 2021-09-03 17:50:11 Terrasse 24.80 25.09 67.10
48562 2021-09-03 17:22:00 Terrasse 25.30 25.65 67.50
48561 2021-09-03 16:53:47 Terrasse 25.60 25.91 65.00
48560 2021-09-03 16:25:36 Terrasse 26.00 27.07 63.90
48559 2021-09-03 15:57:26 Terrasse 26.50 27.75 65.00
48558 2021-09-03 15:29:12 Terrasse 26.60 27.76 62.80
48557 2021-09-03 15:00:59 Terrasse 26.80 28.18 65.20
48556 2021-09-03 14:32:44 Terrasse 26.80 28.09 63.90
48555 2021-09-03 14:04:33 Terrasse 26.80 28.21 65.60
48554 2021-09-03 13:36:25 Terrasse 27.20 28.83 65.90
48553 2021-09-03 13:08:18 Terrasse 27.60 29.47 65.90
48552 2021-09-03 12:39:45 Terrasse 25.40 26.57 82.90
48551 2021-09-03 12:11:25 Terrasse 22.80 23.74 99.90
48550 2021-09-03 11:42:56 Terrasse 21.50 22.31 99.90
48549 2021-09-03 11:14:36 Terrasse 20.30 20.99 99.90
48548 2021-09-03 10:46:16 Terrasse 19.20 19.78 99.90
48547 2021-09-03 10:18:33 Terrasse 18.40 18.90 99.90
48546 2021-09-03 09:49:57 Terrasse 17.50 17.91 99.90
48545 2021-09-03 09:21:38 Terrasse 16.80 17.14 99.90
48544 2021-09-03 08:53:19 Terrasse 16.00 16.26 99.90
48543 2021-09-03 08:25:03 Terrasse 15.20 15.38 99.90
48542 2021-09-03 07:56:48 Terrasse 14.70 14.83 99.90
48541 2021-09-03 07:28:35 Terrasse 14.50 14.15 82.00
48540 2021-09-03 07:00:24 Terrasse 14.70 12.25 1.00
48539 2021-09-03 06:32:13 Terrasse 15.00 15.16 99.90
48538 2021-09-03 06:04:03 Terrasse 15.30 15.49 99.90
48537 2021-09-03 05:35:51 Terrasse 15.20 12.80 1.00
48536 2021-09-03 05:07:39 Terrasse 15.50 13.13 1.00
48535 2021-09-03 04:39:28 Terrasse 15.60 15.82 99.90
48534 2021-09-03 04:11:16 Terrasse 16.00 13.68 1.00
48533 2021-09-03 03:43:07 Terrasse 16.50 14.23 1.00
48532 2021-09-03 03:14:55 Terrasse 16.70 17.03 99.90
48531 2021-09-03 02:46:42 Terrasse 16.80 14.56 1.00
48530 2021-09-03 02:18:28 Terrasse 16.90 17.25 99.90
48529 2021-09-03 01:50:16 Terrasse 17.00 14.78 1.00
48528 2021-09-03 01:22:04 Terrasse 17.10 14.89 1.00
48527 2021-09-03 00:53:51 Terrasse 17.20 15.39 15.90
48526 2021-09-03 00:25:40 Terrasse 17.40 17.80 99.90
48525 2021-09-02 23:57:26 Terrasse 17.60 15.44 1.00
48524 2021-09-02 23:29:14 Terrasse 17.80 15.66 1.00
48523 2021-09-02 23:01:02 Terrasse 18.10 18.57 99.90
48522 2021-09-02 22:32:49 Terrasse 18.40 16.32 1.00
48521 2021-09-02 22:04:38 Terrasse 18.70 16.65 1.00
48520 2021-09-02 21:36:27 Terrasse 19.00 19.56 99.90
48519 2021-09-02 21:08:15 Terrasse 19.20 17.20 1.00
48518 2021-09-02 20:40:04 Terrasse 19.90 20.55 99.90
48517 2021-09-02 20:11:54 Terrasse 20.50 21.21 99.90
48516 2021-09-02 19:43:44 Terrasse 21.20 19.40 1.00
48515 2021-09-02 19:15:35 Terrasse 22.00 22.32 78.90
48514 2021-09-02 18:47:25 Terrasse 22.50 22.86 78.70
48513 2021-09-02 18:19:14 Terrasse 23.00 23.35 76.40
48512 2021-09-02 17:51:05 Terrasse 23.70 24.04 73.30
48511 2021-09-02 17:22:52 Terrasse 24.20 24.57 72.40
48510 2021-09-02 16:54:42 Terrasse 24.70 25.14 73.40
48509 2021-09-02 16:26:29 Terrasse 25.10 25.56 72.50
48508 2021-09-02 15:58:16 Terrasse 25.60 26.82 74.60
48507 2021-09-02 15:30:01 Terrasse 25.70 26.96 73.80
48506 2021-09-02 15:01:48 Terrasse 25.70 26.98 74.60
48505 2021-09-02 14:33:30 Terrasse 25.00 25.55 76.40
48504 2021-09-02 14:05:20 Terrasse 25.70 27.18 84.20
48503 2021-09-02 13:37:09 Terrasse 25.30 26.04 82.60
48502 2021-09-02 13:09:08 Terrasse 26.30 28.35 81.80
48501 2021-09-02 12:40:32 Terrasse 24.30 25.39 99.90
48500 2021-09-02 12:12:14 Terrasse 21.60 19.84 1.00
48499 2021-09-02 11:43:42 Terrasse 20.40 21.10 99.90
48498 2021-09-02 11:15:22 Terrasse 19.10 19.67 99.90
48497 2021-09-02 10:47:02 Terrasse 18.20 18.68 99.90
48496 2021-09-02 10:18:43 Terrasse 17.20 17.58 99.90
48495 2021-09-02 09:50:25 Terrasse 16.40 14.12 1.00
48494 2021-09-02 09:22:08 Terrasse 15.70 13.35 1.00
48493 2021-09-02 08:53:52 Terrasse 15.10 15.27 99.90
48492 2021-09-02 08:25:35 Terrasse 14.50 14.61 99.90
48491 2021-09-02 07:57:20 Terrasse 14.00 14.06 99.90
48490 2021-09-02 07:29:08 Terrasse 13.90 11.55 7.70
48489 2021-09-02 07:00:55 Terrasse 13.90 11.37 1.00
48488 2021-09-02 06:32:43 Terrasse 14.00 11.48 1.00
48487 2021-09-02 06:04:31 Terrasse 14.10 11.59 1.00
48486 2021-09-02 05:36:19 Terrasse 14.00 11.48 1.00
48485 2021-09-02 05:08:05 Terrasse 14.00 11.48 1.00
48484 2021-09-02 04:39:52 Terrasse 13.90 11.37 1.00
48483 2021-09-02 04:11:38 Terrasse 13.70 11.15 1.00
48482 2021-09-02 03:43:26 Terrasse 13.50 10.93 1.00
48481 2021-09-02 03:15:16 Terrasse 13.50 10.93 1.00
48480 2021-09-02 02:47:03 Terrasse 13.50 13.51 99.90
48479 2021-09-02 02:18:52 Terrasse 13.70 11.15 1.00
48478 2021-09-02 01:50:44 Terrasse 14.10 14.17 99.90
48477 2021-09-02 01:22:32 Terrasse 14.30 14.39 99.90
48476 2021-09-02 00:54:23 Terrasse 14.80 14.94 99.90
48475 2021-09-02 00:26:12 Terrasse 15.20 12.80 1.00
48474 2021-09-01 23:58:02 Terrasse 15.50 15.71 99.90
48473 2021-09-01 23:29:51 Terrasse 15.80 13.46 1.00
48472 2021-09-01 23:01:40 Terrasse 15.90 16.15 99.90
48471 2021-09-01 22:33:29 Terrasse 16.20 13.90 1.00
48470 2021-09-01 22:05:17 Terrasse 16.30 16.59 99.90
48469 2021-09-01 21:37:05 Terrasse 16.40 16.70 99.90
48468 2021-09-01 21:08:54 Terrasse 16.70 14.45 1.00
48467 2021-09-01 20:40:43 Terrasse 16.90 14.67 1.00
48466 2021-09-01 20:12:33 Terrasse 17.40 15.22 1.00
48465 2021-09-01 19:44:27 Terrasse 18.20 18.68 99.90
48464 2021-09-01 19:16:17 Terrasse 18.90 16.87 1.00
48463 2021-09-01 18:48:06 Terrasse 19.10 17.09 1.00
48462 2021-09-01 18:19:58 Terrasse 20.00 20.66 99.90
48461 2021-09-01 17:51:48 Terrasse 20.30 20.99 99.90
48460 2021-09-01 17:23:39 Terrasse 20.90 19.07 1.00
48459 2021-09-01 16:55:25 Terrasse 21.00 21.76 99.90
48458 2021-09-01 16:27:24 Terrasse 20.90 21.46 92.60
48457 2021-09-01 15:59:10 Terrasse 21.30 21.91 92.80
48456 2021-09-01 15:30:54 Terrasse 20.90 21.60 97.70
48455 2021-09-01 15:02:45 Terrasse 21.30 22.03 97.30
48454 2021-09-01 14:34:37 Terrasse 22.20 22.97 95.40
48453 2021-09-01 14:06:16 Terrasse 20.10 20.77 99.90
48452 2021-09-01 13:38:10 Terrasse 21.20 21.98 99.90
48451 2021-09-01 13:09:52 Terrasse 19.00 19.56 99.90
48450 2021-09-01 12:41:40 Terrasse 18.80 19.34 99.90
48449 2021-09-01 12:13:31 Terrasse 19.20 19.78 99.90
48448 2021-09-01 11:45:10 Terrasse 17.60 18.02 99.90
48447 2021-09-01 11:17:04 Terrasse 18.30 18.79 99.90
48446 2021-09-01 10:48:41 Terrasse 17.40 17.80 99.90
48445 2021-09-01 10:20:27 Terrasse 16.70 17.03 99.90
48444 2021-09-01 09:52:10 Terrasse 16.30 16.59 99.90
48443 2021-09-01 09:23:57 Terrasse 16.00 16.26 99.90
48442 2021-09-01 08:55:37 Terrasse 15.20 15.38 99.90
48441 2021-09-01 08:27:23 Terrasse 14.40 14.50 99.90
48440 2021-09-01 07:59:07 Terrasse 14.00 14.06 99.90
48439 2021-09-01 07:30:55 Terrasse 13.80 13.84 99.90
48438 2021-09-01 07:02:42 Terrasse 13.60 13.62 99.90
48437 2021-09-01 06:34:30 Terrasse 13.80 13.84 99.90
48436 2021-09-01 06:06:18 Terrasse 13.90 13.95 99.90
48435 2021-09-01 05:38:07 Terrasse 14.00 14.06 99.90
48434 2021-09-01 05:09:55 Terrasse 14.10 14.17 99.90
48433 2021-09-01 04:41:44 Terrasse 14.50 14.61 99.90
48432 2021-09-01 04:13:33 Terrasse 14.70 14.83 99.90
48431 2021-09-01 03:45:21 Terrasse 14.70 14.83 99.90
48430 2021-09-01 03:17:09 Terrasse 14.60 14.72 99.90
48429 2021-09-01 02:48:56 Terrasse 14.70 14.83 99.90
48428 2021-09-01 02:20:44 Terrasse 14.90 15.05 99.90
48427 2021-09-01 01:52:33 Terrasse 15.00 15.16 99.90
48426 2021-09-01 01:24:21 Terrasse 15.10 15.27 99.90
48425 2021-09-01 00:56:09 Terrasse 15.10 15.27 99.90
48424 2021-09-01 00:27:57 Terrasse 15.30 15.49 99.90
48423 2021-08-31 23:59:45 Terrasse 15.40 15.60 99.90
48422 2021-08-31 23:31:35 Terrasse 15.70 15.93 99.90
48421 2021-08-31 23:03:24 Terrasse 15.80 16.04 99.90
48420 2021-08-31 22:35:11 Terrasse 16.00 16.26 99.90
48419 2021-08-31 22:07:01 Terrasse 16.20 16.48 99.90
48418 2021-08-31 21:38:49 Terrasse 16.40 16.70 99.90
48417 2021-08-31 21:10:38 Terrasse 16.60 16.92 99.90
48416 2021-08-31 20:42:28 Terrasse 17.00 17.36 99.90
48415 2021-08-31 20:14:19 Terrasse 17.60 18.02 99.90
48414 2021-08-31 19:46:09 Terrasse 18.20 18.68 99.90
48413 2021-08-31 19:17:59 Terrasse 18.80 19.34 99.90
48412 2021-08-31 18:49:48 Terrasse 19.30 19.89 99.90
48411 2021-08-31 18:21:38 Terrasse 19.90 20.55 99.90
48410 2021-08-31 17:53:29 Terrasse 20.60 21.32 99.90
48409 2021-08-31 17:25:16 Terrasse 20.40 21.10 99.90
48408 2021-08-31 16:57:07 Terrasse 21.10 21.87 99.90
48407 2021-08-31 16:28:54 Terrasse 21.00 21.76 99.90
48406 2021-08-31 16:00:42 Terrasse 21.30 22.09 99.90
48405 2021-08-31 15:32:31 Terrasse 21.00 21.76 99.90
48404 2021-08-31 15:04:21 Terrasse 20.90 21.65 99.90
48403 2021-08-31 14:36:02 Terrasse 20.80 21.54 99.90
48402 2021-08-31 14:07:43 Terrasse 19.40 20.00 99.90
48401 2021-08-31 13:39:35 Terrasse 20.20 20.88 99.90
48400 2021-08-31 13:11:37 Terrasse 21.70 22.53 99.90
48399 2021-08-31 12:43:31 Terrasse 22.20 23.08 99.90
48398 2021-08-31 12:15:06 Terrasse 19.40 20.00 99.90
48397 2021-08-31 11:46:47 Terrasse 19.30 19.89 99.90
48396 2021-08-31 11:18:30 Terrasse 18.30 18.79 99.90
48395 2021-08-31 10:50:14 Terrasse 17.80 18.24 99.90
48394 2021-08-31 10:21:56 Terrasse 16.80 17.14 99.90
48393 2021-08-31 09:53:38 Terrasse 16.10 16.37 99.90
48392 2021-08-31 09:25:22 Terrasse 15.60 15.82 99.90
48391 2021-08-31 08:57:05 Terrasse 15.00 15.16 99.90
48390 2021-08-31 08:28:50 Terrasse 14.60 14.72 99.90
48389 2021-08-31 08:00:36 Terrasse 14.10 14.17 99.90
48388 2021-08-31 07:32:24 Terrasse 14.00 14.06 99.90
48387 2021-08-31 07:04:11 Terrasse 14.10 14.17 99.90
48386 2021-08-31 06:35:58 Terrasse 14.10 14.17 99.90
48385 2021-08-31 06:07:45 Terrasse 13.90 13.95 99.90
48384 2021-08-31 05:39:33 Terrasse 14.00 14.06 99.90
48383 2021-08-31 05:11:22 Terrasse 14.10 14.17 99.90
48382 2021-08-31 04:43:11 Terrasse 14.20 14.28 99.90
48381 2021-08-31 04:15:00 Terrasse 14.40 14.50 99.90
48380 2021-08-31 03:46:49 Terrasse 14.60 14.72 99.90
48379 2021-08-31 03:18:38 Terrasse 14.60 14.72 99.90
48378 2021-08-31 02:50:25 Terrasse 14.70 14.83 99.90
48377 2021-08-31 02:22:13 Terrasse 14.90 15.05 99.90
48376 2021-08-31 01:54:02 Terrasse 14.90 15.05 99.90
48375 2021-08-31 01:25:51 Terrasse 15.20 15.38 99.90
48374 2021-08-31 00:57:40 Terrasse 15.50 15.71 99.90
48373 2021-08-31 00:29:28 Terrasse 15.70 15.93 99.90
48372 2021-08-31 00:01:17 Terrasse 15.80 16.04 99.90
48371 2021-08-30 23:33:06 Terrasse 16.10 16.37 99.90
48370 2021-08-30 23:04:54 Terrasse 16.30 16.59 99.90
48369 2021-08-30 22:36:43 Terrasse 16.50 16.81 99.90
48368 2021-08-30 22:08:31 Terrasse 16.80 17.14 99.90
48367 2021-08-30 21:40:19 Terrasse 17.00 17.36 99.90
48366 2021-08-30 21:12:08 Terrasse 17.20 17.58 99.90
48365 2021-08-30 20:43:57 Terrasse 17.40 17.80 99.90
48364 2021-08-30 20:15:47 Terrasse 17.80 18.24 99.90
48363 2021-08-30 19:47:36 Terrasse 18.20 18.68 99.90
48362 2021-08-30 19:19:25 Terrasse 18.60 19.12 99.90
48361 2021-08-30 18:51:15 Terrasse 19.00 19.56 99.90
48360 2021-08-30 18:23:04 Terrasse 19.40 20.00 99.90
48359 2021-08-30 17:54:51 Terrasse 19.40 20.00 99.90
48358 2021-08-30 17:26:38 Terrasse 19.50 20.11 99.90
48357 2021-08-30 16:58:23 Terrasse 19.20 19.78 99.90
48356 2021-08-30 16:30:07 Terrasse 18.60 19.12 99.90
48355 2021-08-30 16:01:54 Terrasse 18.50 19.01 99.90
48354 2021-08-30 15:33:36 Terrasse 17.80 18.24 99.90
48353 2021-08-30 15:05:23 Terrasse 17.60 18.02 99.90
48352 2021-08-30 14:37:19 Terrasse 17.40 17.80 99.90
48351 2021-08-30 14:09:05 Terrasse 17.50 17.91 99.90
48350 2021-08-30 13:40:54 Terrasse 17.80 18.24 99.90
48349 2021-08-30 13:12:41 Terrasse 17.90 18.35 99.90
48348 2021-08-30 12:44:31 Terrasse 17.90 18.35 99.90
48347 2021-08-30 12:16:18 Terrasse 18.00 18.46 99.90
48346 2021-08-30 11:48:02 Terrasse 17.60 18.02 99.90
48345 2021-08-30 11:19:47 Terrasse 17.00 17.36 99.90
48344 2021-08-30 10:51:31 Terrasse 16.50 16.81 99.90
48343 2021-08-30 10:23:15 Terrasse 16.20 16.48 99.90
48342 2021-08-30 09:55:01 Terrasse 15.80 16.04 99.90
48341 2021-08-30 09:26:51 Terrasse 15.70 15.93 99.90
48340 2021-08-30 08:58:38 Terrasse 15.60 15.82 99.90
48339 2021-08-30 08:30:27 Terrasse 15.40 15.60 99.90
48338 2021-08-30 08:02:13 Terrasse 15.30 15.49 99.90
48337 2021-08-30 07:34:00 Terrasse 15.20 15.38 99.90
48336 2021-08-30 07:05:47 Terrasse 15.10 15.27 99.90
48335 2021-08-30 06:37:33 Terrasse 15.10 15.27 99.90
48334 2021-08-30 06:09:21 Terrasse 15.00 15.16 99.90
48333 2021-08-30 05:41:09 Terrasse 15.00 15.16 99.90
48332 2021-08-30 05:12:58 Terrasse 15.10 15.27 99.90
48331 2021-08-30 04:44:48 Terrasse 15.10 15.27 99.90
48330 2021-08-30 04:16:37 Terrasse 15.00 15.16 99.90
48329 2021-08-30 03:48:24 Terrasse 15.00 15.16 99.90
48328 2021-08-30 03:20:12 Terrasse 15.00 15.16 99.90
48327 2021-08-30 02:51:59 Terrasse 15.00 15.16 99.90
48326 2021-08-30 02:23:47 Terrasse 15.00 15.16 99.90
48325 2021-08-30 01:55:35 Terrasse 14.90 15.05 99.90
48324 2021-08-30 01:27:22 Terrasse 14.90 15.05 99.90
48323 2021-08-30 00:59:10 Terrasse 14.90 15.05 99.90
48322 2021-08-30 00:30:58 Terrasse 15.00 15.16 99.90
48321 2021-08-30 00:02:47 Terrasse 15.00 15.16 99.90
48320 2021-08-29 23:34:33 Terrasse 15.00 15.16 99.90
48319 2021-08-29 23:06:21 Terrasse 15.10 15.27 99.90
48318 2021-08-29 22:38:10 Terrasse 15.20 15.38 99.90
48317 2021-08-29 22:09:58 Terrasse 15.30 15.49 99.90
48316 2021-08-29 21:41:46 Terrasse 15.40 15.60 99.90
48315 2021-08-29 21:13:34 Terrasse 15.40 15.60 99.90
48314 2021-08-29 20:45:21 Terrasse 15.50 15.71 99.90
48313 2021-08-29 20:17:10 Terrasse 15.70 15.93 99.90
48312 2021-08-29 19:48:58 Terrasse 15.80 16.04 99.90
48311 2021-08-29 19:20:46 Terrasse 15.90 16.15 99.90
48310 2021-08-29 18:52:35 Terrasse 16.00 16.26 99.90
48309 2021-08-29 18:24:22 Terrasse 16.00 16.26 99.90
48308 2021-08-29 17:56:10 Terrasse 16.10 16.37 99.90
48307 2021-08-29 17:27:59 Terrasse 16.10 16.37 99.90
48306 2021-08-29 16:59:45 Terrasse 15.90 16.15 99.90
48305 2021-08-29 16:31:35 Terrasse 15.90 16.15 99.90
48304 2021-08-29 16:03:23 Terrasse 15.90 16.15 99.90
48303 2021-08-29 15:35:09 Terrasse 15.70 15.93 99.90
48302 2021-08-29 15:06:56 Terrasse 15.60 15.82 99.90
48301 2021-08-29 14:38:43 Terrasse 15.50 15.71 99.90
48300 2021-08-29 14:10:31 Terrasse 15.40 15.60 99.90
48299 2021-08-29 13:42:18 Terrasse 15.40 15.60 99.90
48298 2021-08-29 13:14:05 Terrasse 15.40 15.60 99.90
48297 2021-08-29 12:45:52 Terrasse 15.30 15.49 99.90
48296 2021-08-29 12:17:40 Terrasse 15.40 15.60 99.90
48295 2021-08-29 11:49:26 Terrasse 15.20 15.38 99.90
48294 2021-08-29 11:21:14 Terrasse 15.10 15.27 99.90
48293 2021-08-29 10:53:00 Terrasse 15.10 15.27 99.90
48292 2021-08-29 10:24:47 Terrasse 14.90 15.05 99.90
48291 2021-08-29 09:56:35 Terrasse 14.80 14.94 99.90
48290 2021-08-29 09:28:22 Terrasse 14.70 14.83 99.90
48289 2021-08-29 09:00:13 Terrasse 14.60 14.72 99.90
48288 2021-08-29 08:32:00 Terrasse 14.60 14.72 99.90
48287 2021-08-29 08:03:48 Terrasse 14.60 14.72 99.90
48286 2021-08-29 07:35:36 Terrasse 14.50 14.61 99.90
48285 2021-08-29 07:07:27 Terrasse 14.50 14.61 99.90
48284 2021-08-29 06:39:15 Terrasse 14.50 14.61 99.90
48283 2021-08-29 06:11:04 Terrasse 14.60 14.72 99.90
48282 2021-08-29 05:42:53 Terrasse 14.60 14.72 99.90
48281 2021-08-29 05:14:42 Terrasse 14.70 14.83 99.90
48280 2021-08-29 04:46:30 Terrasse 14.80 14.94 99.90
48279 2021-08-29 04:18:19 Terrasse 14.90 15.05 99.90
48278 2021-08-29 03:50:08 Terrasse 15.00 15.16 99.90
48277 2021-08-29 03:21:56 Terrasse 15.00 15.16 99.90
48276 2021-08-29 02:53:44 Terrasse 15.00 15.16 99.90
48275 2021-08-29 02:25:33 Terrasse 15.00 15.16 99.90
48274 2021-08-29 01:57:21 Terrasse 15.10 15.27 99.90
48273 2021-08-29 01:29:08 Terrasse 15.20 15.38 99.90
48272 2021-08-29 01:00:57 Terrasse 15.20 15.38 99.90
48271 2021-08-29 00:32:46 Terrasse 15.30 15.49 99.90
48270 2021-08-29 00:04:33 Terrasse 15.40 15.60 99.90
48269 2021-08-28 23:36:21 Terrasse 15.60 15.82 99.90
48268 2021-08-28 23:08:11 Terrasse 15.80 16.04 99.90
48267 2021-08-28 22:40:00 Terrasse 16.00 16.26 99.90
48266 2021-08-28 22:11:48 Terrasse 16.00 16.26 99.90
48265 2021-08-28 21:43:36 Terrasse 16.00 16.26 99.90
48264 2021-08-28 21:15:24 Terrasse 16.10 16.37 99.90
48263 2021-08-28 20:47:13 Terrasse 16.40 16.70 99.90
48262 2021-08-28 20:19:03 Terrasse 16.80 17.14 99.90
48261 2021-08-28 19:50:54 Terrasse 17.20 17.58 99.90
48260 2021-08-28 19:22:43 Terrasse 17.60 18.02 99.90
48259 2021-08-28 18:54:33 Terrasse 18.00 18.46 99.90
48258 2021-08-28 18:26:24 Terrasse 18.50 19.01 99.90
48257 2021-08-28 17:58:13 Terrasse 18.70 19.23 99.90
48256 2021-08-28 17:30:05 Terrasse 19.40 20.00 99.90
48255 2021-08-28 17:01:54 Terrasse 19.60 20.22 99.90
48254 2021-08-28 16:33:43 Terrasse 19.60 20.22 99.90
48253 2021-08-28 16:05:34 Terrasse 20.10 20.77 99.90
48252 2021-08-28 15:37:18 Terrasse 19.80 20.44 99.90
48251 2021-08-28 15:09:12 Terrasse 19.60 20.22 99.90
48250 2021-08-28 14:40:52 Terrasse 18.90 19.45 99.90
48249 2021-08-28 14:12:38 Terrasse 18.30 18.79 99.90
48248 2021-08-28 13:44:16 Terrasse 16.70 17.03 99.90
48247 2021-08-28 13:16:07 Terrasse 17.00 17.36 99.90
48246 2021-08-28 12:47:47 Terrasse 16.30 16.59 99.90
48245 2021-08-28 12:19:36 Terrasse 16.30 16.59 99.90
48244 2021-08-28 11:51:21 Terrasse 15.80 16.04 99.90
48243 2021-08-28 11:23:10 Terrasse 15.70 15.93 99.90
48242 2021-08-28 10:55:00 Terrasse 15.90 16.15 99.90
48241 2021-08-28 10:26:39 Terrasse 14.80 14.94 99.90
48240 2021-08-28 09:58:24 Terrasse 14.10 14.17 99.90
48239 2021-08-28 09:30:10 Terrasse 13.80 13.84 99.90
48238 2021-08-28 09:01:58 Terrasse 13.60 13.62 99.90
48237 2021-08-28 08:33:46 Terrasse 13.40 13.40 99.90
48236 2021-08-28 08:06:00 Terrasse 13.50 13.51 99.90
48235 2021-08-28 07:37:34 Terrasse 13.30 13.29 99.90
48234 2021-08-28 07:09:21 Terrasse 12.80 12.74 99.90
48233 2021-08-28 06:41:11 Terrasse 12.80 12.74 99.90
48232 2021-08-28 06:12:59 Terrasse 12.90 12.85 99.90
48231 2021-08-28 05:44:49 Terrasse 13.00 12.96 99.90
48230 2021-08-28 05:16:38 Terrasse 13.10 13.07 99.90
48229 2021-08-28 04:48:28 Terrasse 13.30 13.29 99.90
48228 2021-08-28 04:20:20 Terrasse 13.70 13.73 99.90
48227 2021-08-28 03:52:12 Terrasse 13.80 13.84 99.90
48226 2021-08-28 03:24:02 Terrasse 14.00 14.06 99.90
48225 2021-08-28 02:55:54 Terrasse 14.40 14.50 99.90
48224 2021-08-28 02:27:43 Terrasse 14.60 14.72 99.90
48223 2021-08-28 01:59:32 Terrasse 14.70 14.83 99.90
48222 2021-08-28 01:31:25 Terrasse 14.80 14.94 99.90
48221 2021-08-28 01:03:13 Terrasse 14.80 14.94 99.90
48220 2021-08-28 00:35:03 Terrasse 14.90 15.05 99.90
48219 2021-08-28 00:06:51 Terrasse 15.00 15.16 99.90
48218 2021-08-27 23:38:39 Terrasse 15.00 15.16 99.90
48217 2021-08-27 23:10:28 Terrasse 15.00 15.16 99.90
48216 2021-08-27 22:42:17 Terrasse 15.10 15.27 99.90
48215 2021-08-27 22:14:06 Terrasse 15.30 15.49 99.90
48214 2021-08-27 21:45:55 Terrasse 15.50 15.71 99.90
48213 2021-08-27 21:17:45 Terrasse 15.70 15.93 99.90
48212 2021-08-27 20:49:35 Terrasse 15.80 16.04 99.90
48211 2021-08-27 20:21:24 Terrasse 16.10 16.37 99.90
48210 2021-08-27 19:53:16 Terrasse 16.50 16.81 99.90
48209 2021-08-27 19:25:05 Terrasse 16.90 17.25 99.90
48208 2021-08-27 18:56:56 Terrasse 17.20 17.58 99.90
48207 2021-08-27 18:28:50 Terrasse 18.10 18.57 99.90
48206 2021-08-27 18:00:39 Terrasse 18.50 19.01 99.90
48205 2021-08-27 17:32:25 Terrasse 18.40 18.90 99.90
48204 2021-08-27 17:04:18 Terrasse 19.10 19.67 99.90
48203 2021-08-27 16:36:06 Terrasse 19.50 20.11 99.90
48202 2021-08-27 16:07:46 Terrasse 18.50 19.01 99.90
48201 2021-08-27 15:39:35 Terrasse 19.10 19.67 99.90
48200 2021-08-27 15:11:25 Terrasse 19.50 20.11 99.90
48199 2021-08-27 14:43:18 Terrasse 20.00 20.49 93.10
48198 2021-08-27 14:15:10 Terrasse 20.30 20.78 91.80
48197 2021-08-27 13:47:07 Terrasse 21.60 22.10 87.50
48196 2021-08-27 13:19:01 Terrasse 22.20 22.69 84.90
48195 2021-08-27 12:50:43 Terrasse 21.40 22.02 93.00
48194 2021-08-27 12:22:01 Terrasse 16.70 17.03 99.90
48193 2021-08-27 11:53:48 Terrasse 16.20 16.48 99.90
48192 2021-08-27 11:25:36 Terrasse 16.40 16.70 99.90
48191 2021-08-27 10:57:25 Terrasse 16.40 16.70 99.90
48190 2021-08-27 10:29:04 Terrasse 15.00 15.16 99.90
48189 2021-08-27 10:00:49 Terrasse 14.40 14.50 99.90
48188 2021-08-27 09:32:36 Terrasse 14.00 14.06 99.90
48187 2021-08-27 09:04:22 Terrasse 13.70 13.73 99.90
48186 2021-08-27 08:36:10 Terrasse 13.30 13.29 99.90
48185 2021-08-27 08:07:57 Terrasse 13.00 12.96 99.90
48184 2021-08-27 07:39:44 Terrasse 12.90 12.85 99.90
48183 2021-08-27 07:11:33 Terrasse 12.90 12.85 99.90
48182 2021-08-27 06:43:23 Terrasse 12.90 12.85 99.90
48181 2021-08-27 06:15:14 Terrasse 13.00 12.96 99.90
48180 2021-08-27 05:47:03 Terrasse 13.10 13.07 99.90
48179 2021-08-27 05:18:50 Terrasse 13.20 13.18 99.90
48178 2021-08-27 04:50:40 Terrasse 13.30 13.29 99.90
48177 2021-08-27 04:22:29 Terrasse 13.30 13.29 99.90
48176 2021-08-27 03:54:19 Terrasse 13.50 13.51 99.90
48175 2021-08-27 03:26:10 Terrasse 13.70 13.73 99.90
48174 2021-08-27 02:58:01 Terrasse 14.20 14.28 99.90
48173 2021-08-27 02:29:50 Terrasse 14.40 14.50 99.90
48172 2021-08-27 02:01:39 Terrasse 14.50 14.61 99.90
48171 2021-08-27 01:33:30 Terrasse 14.80 14.94 99.90
48170 2021-08-27 01:05:20 Terrasse 15.00 15.16 99.90
48169 2021-08-27 00:37:10 Terrasse 15.30 15.49 99.90
48168 2021-08-27 00:09:00 Terrasse 15.40 15.60 99.90
48167 2021-08-26 23:40:50 Terrasse 15.60 15.82 99.90
48166 2021-08-26 23:12:50 Terrasse 15.80 16.04 99.90
48165 2021-08-26 22:44:40 Terrasse 16.30 16.59 99.90
48164 2021-08-26 22:16:33 Terrasse 17.10 14.89 1.00
48163 2021-08-26 21:48:21 Terrasse 17.30 17.69 99.90
48162 2021-08-26 21:20:18 Terrasse 17.60 15.44 1.00
48161 2021-08-26 20:52:06 Terrasse 18.00 18.46 99.90
48160 2021-08-26 20:23:56 Terrasse 18.40 18.52 85.20
48159 2021-08-26 19:55:49 Terrasse 18.70 18.97 89.80
48158 2021-08-26 19:27:40 Terrasse 19.00 19.18 85.10
48157 2021-08-26 18:59:31 Terrasse 19.50 19.57 79.20
48156 2021-08-26 18:31:22 Terrasse 20.10 20.31 82.20
48155 2021-08-26 18:03:11 Terrasse 20.50 20.75 82.20
48154 2021-08-26 17:35:00 Terrasse 20.60 20.84 81.20
48153 2021-08-26 17:06:49 Terrasse 20.70 20.92 80.10
48152 2021-08-26 16:38:36 Terrasse 21.00 21.26 80.70
48151 2021-08-26 16:10:26 Terrasse 20.80 21.00 79.00
48150 2021-08-26 15:42:13 Terrasse 21.20 21.53 82.50
48149 2021-08-26 15:14:02 Terrasse 20.50 20.75 82.00
48148 2021-08-26 14:45:48 Terrasse 20.40 20.65 82.40
48147 2021-08-26 14:17:39 Terrasse 20.50 20.66 78.60
48146 2021-08-26 13:49:39 Terrasse 22.00 22.16 72.90
48145 2021-08-26 13:21:33 Terrasse 22.60 23.01 80.30
48144 2021-08-26 12:53:12 Terrasse 20.60 20.87 82.70
48143 2021-08-26 12:25:04 Terrasse 21.30 21.63 82.20
48142 2021-08-26 11:56:54 Terrasse 21.50 22.10 91.60
48141 2021-08-26 11:28:22 Terrasse 19.50 20.11 99.90
48140 2021-08-26 11:00:02 Terrasse 18.40 18.90 99.90
48139 2021-08-26 10:31:47 Terrasse 17.80 18.24 99.90
48138 2021-08-26 10:03:29 Terrasse 16.80 17.14 99.90
48137 2021-08-26 09:35:14 Terrasse 16.30 16.59 99.90
48136 2021-08-26 09:07:00 Terrasse 15.70 15.93 99.90
48135 2021-08-26 08:38:49 Terrasse 15.80 16.04 99.90
48134 2021-08-26 08:10:38 Terrasse 15.80 16.04 99.90
48133 2021-08-26 07:42:26 Terrasse 15.70 15.93 99.90
48132 2021-08-26 07:14:14 Terrasse 15.70 15.93 99.90
48131 2021-08-26 06:46:03 Terrasse 15.60 15.82 99.90
48130 2021-08-26 06:17:52 Terrasse 15.90 16.15 99.90
48129 2021-08-26 05:49:42 Terrasse 15.90 16.15 99.90
48128 2021-08-26 05:21:31 Terrasse 16.20 16.48 99.90
48127 2021-08-26 04:53:20 Terrasse 16.30 16.59 99.90
48126 2021-08-26 04:25:08 Terrasse 16.40 16.70 99.90
48125 2021-08-26 03:56:57 Terrasse 16.50 16.81 99.90
48124 2021-08-26 03:28:46 Terrasse 16.70 17.03 99.90
48123 2021-08-26 03:00:36 Terrasse 16.90 17.25 99.90
48122 2021-08-26 02:32:26 Terrasse 17.00 17.36 99.90
48121 2021-08-26 02:04:16 Terrasse 17.10 17.47 99.90
48120 2021-08-26 01:36:06 Terrasse 17.30 17.57 95.00
48119 2021-08-26 01:07:56 Terrasse 17.50 17.51 84.60
48118 2021-08-26 00:39:45 Terrasse 17.80 17.71 79.40
48117 2021-08-26 00:11:35 Terrasse 18.20 18.06 75.90
48116 2021-08-25 23:43:22 Terrasse 18.30 18.18 76.40
48115 2021-08-25 23:15:10 Terrasse 18.40 18.29 76.40
48114 2021-08-25 22:47:01 Terrasse 18.90 18.73 72.10
48113 2021-08-25 22:18:51 Terrasse 19.30 19.15 71.40
48112 2021-08-25 21:50:40 Terrasse 19.50 19.36 71.10
48111 2021-08-25 21:22:30 Terrasse 19.80 19.64 69.30
48110 2021-08-25 20:54:20 Terrasse 20.10 19.97 69.20
48109 2021-08-25 20:26:10 Terrasse 20.60 20.46 66.90
48108 2021-08-25 19:58:02 Terrasse 21.20 21.08 65.20
48107 2021-08-25 19:29:57 Terrasse 21.90 21.78 62.50
48106 2021-08-25 19:01:50 Terrasse 22.50 22.40 60.90
48105 2021-08-25 18:33:41 Terrasse 22.90 22.80 59.40
48104 2021-08-25 18:05:35 Terrasse 23.40 23.34 59.20
48103 2021-08-25 17:37:24 Terrasse 23.80 23.80 59.90
48102 2021-08-25 17:09:14 Terrasse 24.00 23.93 56.50
48101 2021-08-25 16:41:04 Terrasse 24.30 24.28 57.40
48100 2021-08-25 16:12:54 Terrasse 24.60 24.68 60.10
48099 2021-08-25 15:44:43 Terrasse 24.80 24.88 59.00
48098 2021-08-25 15:16:33 Terrasse 25.20 25.25 56.30
48097 2021-08-25 14:48:21 Terrasse 25.50 25.64 58.70
48096 2021-08-25 14:20:11 Terrasse 25.90 26.10 59.70
48095 2021-08-25 13:52:02 Terrasse 25.80 25.89 55.70
48094 2021-08-25 13:24:02 Terrasse 26.80 27.83 59.90
48093 2021-08-25 12:55:50 Terrasse 26.80 28.23 65.90
48092 2021-08-25 12:27:06 Terrasse 22.50 23.02 84.70
48091 2021-08-25 11:58:47 Terrasse 21.70 22.47 97.30
48090 2021-08-25 11:30:25 Terrasse 20.10 20.77 99.90
48089 2021-08-25 11:02:06 Terrasse 19.10 19.67 99.90
48088 2021-08-25 10:33:49 Terrasse 18.10 18.57 99.90
48087 2021-08-25 10:05:33 Terrasse 17.30 15.11 1.00
48086 2021-08-25 09:37:17 Terrasse 16.60 16.12 69.00
48085 2021-08-25 09:09:02 Terrasse 15.90 13.57 1.00
48084 2021-08-25 08:40:45 Terrasse 15.30 15.49 99.90
48083 2021-08-25 08:12:30 Terrasse 14.60 12.68 21.80
48082 2021-08-25 07:44:21 Terrasse 14.20 14.28 99.90
48081 2021-08-25 07:16:09 Terrasse 14.00 11.48 1.00
48080 2021-08-25 06:47:57 Terrasse 13.80 11.26 1.00
48079 2021-08-25 06:19:46 Terrasse 13.90 13.95 99.90
48078 2021-08-25 05:51:36 Terrasse 14.00 14.06 99.90
48077 2021-08-25 05:23:26 Terrasse 14.10 11.59 1.00
48076 2021-08-25 04:55:17 Terrasse 14.30 11.81 1.00
48075 2021-08-25 04:27:06 Terrasse 14.60 14.71 99.40
48074 2021-08-25 03:58:56 Terrasse 14.90 15.05 99.90
48073 2021-08-25 03:30:45 Terrasse 15.10 12.69 1.00
48072 2021-08-25 03:02:34 Terrasse 15.30 15.49 99.90
48071 2021-08-25 02:34:23 Terrasse 15.40 13.02 1.00
48070 2021-08-25 02:06:14 Terrasse 15.60 15.82 99.90
48069 2021-08-25 01:38:02 Terrasse 15.80 16.04 99.90
48068 2021-08-25 01:09:51 Terrasse 15.90 13.57 1.00
48067 2021-08-25 00:41:40 Terrasse 15.90 16.15 99.90
48066 2021-08-25 00:13:29 Terrasse 15.80 16.04 99.90
48065 2021-08-24 23:45:20 Terrasse 16.10 13.79 1.00
48064 2021-08-24 23:17:10 Terrasse 16.40 16.70 99.90
48063 2021-08-24 22:49:00 Terrasse 16.80 14.56 1.00
48062 2021-08-24 22:20:51 Terrasse 17.20 17.58 99.90
48061 2021-08-24 21:52:41 Terrasse 17.50 17.61 88.40
48060 2021-08-24 21:24:31 Terrasse 17.60 17.63 84.70
48059 2021-08-24 20:56:22 Terrasse 18.00 18.04 83.60
48058 2021-08-24 20:28:14 Terrasse 18.40 18.47 83.20
48057 2021-08-24 20:00:07 Terrasse 19.10 19.27 84.60
48056 2021-08-24 19:32:01 Terrasse 20.00 20.23 83.30
48055 2021-08-24 19:03:51 Terrasse 20.50 20.79 83.50
48054 2021-08-24 18:35:44 Terrasse 21.00 21.38 85.10
48053 2021-08-24 18:07:37 Terrasse 21.60 21.99 83.20
48052 2021-08-24 17:39:27 Terrasse 21.90 22.38 85.50
48051 2021-08-24 17:11:16 Terrasse 22.30 22.92 89.50
48050 2021-08-24 16:43:02 Terrasse 22.00 22.62 90.50
48049 2021-08-24 16:14:52 Terrasse 22.20 22.87 91.90
48048 2021-08-24 15:46:36 Terrasse 22.00 22.81 98.00
48047 2021-08-24 15:18:19 Terrasse 20.80 21.54 99.90
48046 2021-08-24 14:50:07 Terrasse 20.70 21.43 99.90
48045 2021-08-24 14:21:58 Terrasse 21.30 22.04 97.90
48044 2021-08-24 13:53:49 Terrasse 21.60 22.25 93.40
48043 2021-08-24 13:25:57 Terrasse 24.00 24.69 85.50
48042 2021-08-24 12:57:59 Terrasse 25.50 26.77 84.60
48041 2021-08-24 12:29:11 Terrasse 21.40 22.20 99.90
48040 2021-08-24 12:01:01 Terrasse 20.80 18.96 1.00
48039 2021-08-24 11:32:38 Terrasse 19.40 20.00 99.90
48038 2021-08-24 11:04:22 Terrasse 18.40 18.90 99.90
48037 2021-08-24 10:36:03 Terrasse 17.30 17.69 99.90
48036 2021-08-24 10:07:48 Terrasse 16.60 14.34 1.00
48035 2021-08-24 09:39:33 Terrasse 16.00 13.68 1.00
48034 2021-08-24 09:11:20 Terrasse 15.40 13.24 9.30
48033 2021-08-24 08:43:05 Terrasse 14.80 12.36 1.00
48032 2021-08-24 08:14:50 Terrasse 14.40 11.92 1.00
48031 2021-08-24 07:46:39 Terrasse 14.10 14.17 99.90
48030 2021-08-24 07:18:26 Terrasse 13.90 11.37 1.00
48029 2021-08-24 06:50:14 Terrasse 13.70 13.73 99.90
48028 2021-08-24 06:22:03 Terrasse 13.80 13.84 99.90
48027 2021-08-24 05:53:52 Terrasse 13.90 11.37 1.00
48026 2021-08-24 05:25:42 Terrasse 14.00 11.48 1.00
48025 2021-08-24 04:57:33 Terrasse 14.30 14.39 99.90
48024 2021-08-24 04:29:24 Terrasse 14.60 14.72 99.90
48023 2021-08-24 04:01:16 Terrasse 14.80 12.36 1.00
48022 2021-08-24 03:33:06 Terrasse 15.20 12.80 1.00
48021 2021-08-24 03:04:57 Terrasse 15.50 15.71 99.90
48020 2021-08-24 02:36:47 Terrasse 15.70 13.35 1.00
48019 2021-08-24 02:08:37 Terrasse 15.70 15.93 99.90
48018 2021-08-24 01:40:26 Terrasse 15.90 13.57 1.00
48017 2021-08-24 01:12:17 Terrasse 16.00 16.26 99.90
48016 2021-08-24 00:44:08 Terrasse 16.20 13.90 1.00
48015 2021-08-24 00:15:59 Terrasse 16.40 14.12 1.00
48014 2021-08-23 23:47:49 Terrasse 16.50 14.23 1.00
48013 2021-08-23 23:19:39 Terrasse 16.60 16.92 99.90
48012 2021-08-23 22:51:30 Terrasse 16.90 17.13 95.30
48011 2021-08-23 22:23:22 Terrasse 17.40 17.80 99.90
48010 2021-08-23 21:55:12 Terrasse 17.80 17.47 70.10
48009 2021-08-23 21:27:02 Terrasse 17.90 15.77 1.00
48008 2021-08-23 20:58:53 Terrasse 18.10 15.99 1.00
48007 2021-08-23 20:30:44 Terrasse 18.40 18.90 99.90
48006 2021-08-23 20:02:34 Terrasse 18.90 19.45 99.90
48005 2021-08-23 19:34:25 Terrasse 19.20 17.26 3.20
48004 2021-08-23 19:06:17 Terrasse 19.70 20.33 99.90
48003 2021-08-23 18:38:08 Terrasse 20.10 19.82 63.30
48002 2021-08-23 18:10:02 Terrasse 20.30 20.99 99.90
48001 2021-08-23 17:41:49 Terrasse 20.60 18.74 1.00
48000 2021-08-23 17:13:37 Terrasse 20.20 20.83 97.90
47999 2021-08-23 16:45:26 Terrasse 20.20 18.30 1.00
47998 2021-08-23 16:17:16 Terrasse 20.40 21.10 99.90
47997 2021-08-23 15:49:01 Terrasse 19.90 17.97 1.00
47996 2021-08-23 15:20:49 Terrasse 19.50 17.53 1.00
47995 2021-08-23 14:52:38 Terrasse 19.50 17.53 1.00
47994 2021-08-23 14:24:28 Terrasse 19.60 17.64 1.00
47993 2021-08-23 13:56:25 Terrasse 20.60 19.90 45.40
47992 2021-08-23 13:28:17 Terrasse 20.90 19.07 1.00
47991 2021-08-23 13:00:06 Terrasse 20.80 18.96 1.00
47990 2021-08-23 12:31:40 Terrasse 19.30 17.31 1.00
47989 2021-08-23 12:03:24 Terrasse 18.80 16.76 1.00
47988 2021-08-23 11:35:13 Terrasse 18.40 18.90 99.90
47987 2021-08-23 11:07:02 Terrasse 18.50 19.01 99.90
47986 2021-08-23 10:38:53 Terrasse 18.60 19.12 99.90
47985 2021-08-23 10:10:40 Terrasse 17.90 17.55 69.20
47984 2021-08-23 09:42:25 Terrasse 17.60 15.44 1.00
47983 2021-08-23 09:14:09 Terrasse 17.10 17.47 99.90
47982 2021-08-23 08:45:57 Terrasse 16.70 14.45 1.00
47981 2021-08-23 08:17:43 Terrasse 16.20 13.90 1.00
47980 2021-08-23 07:49:29 Terrasse 15.80 13.46 1.00
47979 2021-08-23 07:21:19 Terrasse 15.60 13.24 1.00
47978 2021-08-23 06:53:08 Terrasse 15.70 13.35 1.00
47977 2021-08-23 06:24:55 Terrasse 15.60 13.24 1.00
47976 2021-08-23 05:56:44 Terrasse 15.40 13.02 1.00
47975 2021-08-23 05:28:33 Terrasse 15.50 13.13 1.00
47974 2021-08-23 05:00:22 Terrasse 15.50 13.13 1.00
47973 2021-08-23 04:32:13 Terrasse 15.70 13.35 1.00
47972 2021-08-23 04:04:02 Terrasse 15.80 13.46 1.00
47971 2021-08-23 03:35:51 Terrasse 15.90 16.15 99.90
47970 2021-08-23 03:07:40 Terrasse 15.90 16.15 99.90
47969 2021-08-23 02:39:29 Terrasse 15.80 16.04 99.90
47968 2021-08-23 02:11:19 Terrasse 16.10 16.37 99.90
47967 2021-08-23 01:43:08 Terrasse 16.10 16.37 99.90
47966 2021-08-23 01:14:56 Terrasse 15.90 16.15 99.90
47965 2021-08-23 00:46:48 Terrasse 16.20 16.48 99.90
47964 2021-08-23 00:18:38 Terrasse 16.30 16.59 99.90
47963 2021-08-22 23:50:29 Terrasse 16.70 17.03 99.90
47962 2021-08-22 23:22:19 Terrasse 16.60 16.92 99.90
47961 2021-08-22 22:54:08 Terrasse 16.50 16.81 99.90
47960 2021-08-22 22:25:58 Terrasse 16.50 16.81 99.90
47959 2021-08-22 21:57:47 Terrasse 16.60 16.92 99.90
47958 2021-08-22 21:29:38 Terrasse 16.90 17.25 99.90
47957 2021-08-22 21:01:30 Terrasse 17.20 15.36 14.70
47956 2021-08-22 20:33:21 Terrasse 17.70 18.13 99.90
47955 2021-08-22 20:05:14 Terrasse 18.20 16.10 1.00
47954 2021-08-22 19:37:08 Terrasse 18.90 16.87 1.00
47953 2021-08-22 19:09:00 Terrasse 19.80 17.86 1.00
47952 2021-08-22 18:40:52 Terrasse 20.40 18.52 1.00
47951 2021-08-22 18:12:40 Terrasse 20.40 18.52 1.00
47950 2021-08-22 17:44:29 Terrasse 20.40 18.52 1.00
47949 2021-08-22 17:16:16 Terrasse 20.50 18.63 1.00
47948 2021-08-22 16:48:06 Terrasse 20.30 18.41 1.00
47947 2021-08-22 16:19:57 Terrasse 20.50 18.63 1.00
47946 2021-08-22 15:51:48 Terrasse 21.20 19.40 1.00
47945 2021-08-22 15:23:42 Terrasse 21.70 19.95 1.00
47944 2021-08-22 14:55:42 Terrasse 23.30 24.29 99.90
47943 2021-08-22 14:27:26 Terrasse 22.50 23.41 99.90
47942 2021-08-22 13:58:58 Terrasse 20.00 18.08 1.00
47941 2021-08-22 13:30:48 Terrasse 19.90 17.97 1.00
47940 2021-08-22 13:02:41 Terrasse 21.30 22.09 99.90
47939 2021-08-22 12:34:29 Terrasse 21.20 19.40 1.00
47938 2021-08-22 12:06:18 Terrasse 20.60 21.32 99.90
47937 2021-08-22 11:38:05 Terrasse 20.10 20.77 99.90
47936 2021-08-22 11:09:52 Terrasse 19.70 17.75 1.00
47935 2021-08-22 10:41:41 Terrasse 19.70 20.33 99.90
47934 2021-08-22 10:13:29 Terrasse 19.70 17.75 1.00
47933 2021-08-22 09:45:17 Terrasse 19.50 20.11 99.90
47932 2021-08-22 09:17:07 Terrasse 18.90 19.45 99.90
47931 2021-08-22 08:48:53 Terrasse 18.70 19.23 99.90
47930 2021-08-22 08:20:42 Terrasse 18.60 19.12 99.90
47929 2021-08-22 07:52:31 Terrasse 18.50 19.01 99.90
47928 2021-08-22 07:24:20 Terrasse 18.40 18.90 99.90
47927 2021-08-22 06:56:09 Terrasse 18.50 19.01 99.90
47926 2021-08-22 06:27:59 Terrasse 18.60 19.12 99.90
47925 2021-08-22 05:59:48 Terrasse 18.60 19.12 99.90
47924 2021-08-22 05:31:38 Terrasse 18.70 19.23 99.90
47923 2021-08-22 05:03:29 Terrasse 18.90 19.45 99.90
47922 2021-08-22 04:35:20 Terrasse 19.00 19.56 99.90
47921 2021-08-22 04:07:09 Terrasse 19.10 17.09 1.00
47920 2021-08-22 03:39:00 Terrasse 19.40 17.42 1.00
47919 2021-08-22 03:10:49 Terrasse 19.50 19.71 84.40
47918 2021-08-22 02:42:39 Terrasse 19.70 17.75 1.00
47917 2021-08-22 02:14:30 Terrasse 19.90 17.97 1.00
47916 2021-08-22 01:46:19 Terrasse 20.10 18.19 1.00
47915 2021-08-22 01:18:11 Terrasse 20.40 19.96 56.10
47914 2021-08-22 00:50:00 Terrasse 20.70 18.85 1.00
47913 2021-08-22 00:21:50 Terrasse 20.80 21.54 99.90
47912 2021-08-21 23:53:42 Terrasse 21.10 19.29 1.00
47911 2021-08-21 23:25:31 Terrasse 21.20 19.67 11.40
47910 2021-08-21 22:57:21 Terrasse 21.40 22.20 99.90
47909 2021-08-21 22:29:10 Terrasse 21.70 22.53 99.90
47908 2021-08-21 22:01:01 Terrasse 22.10 20.39 1.00
47907 2021-08-21 21:32:52 Terrasse 22.40 20.72 1.00
47906 2021-08-21 21:04:43 Terrasse 22.70 23.63 99.90
47905 2021-08-21 20:36:35 Terrasse 23.10 24.07 99.90
47904 2021-08-21 20:08:27 Terrasse 23.60 24.62 99.90
47903 2021-08-21 19:40:21 Terrasse 24.30 22.81 1.00
47902 2021-08-21 19:12:15 Terrasse 24.90 25.48 78.00
47901 2021-08-21 18:44:06 Terrasse 25.40 25.95 75.00
47900 2021-08-21 18:15:58 Terrasse 25.90 27.30 74.70
47899 2021-08-21 17:47:49 Terrasse 26.30 27.87 72.60
47898 2021-08-21 17:19:38 Terrasse 26.50 28.14 71.60
47897 2021-08-21 16:51:28 Terrasse 26.80 28.54 70.20
47896 2021-08-21 16:23:17 Terrasse 27.00 28.75 68.70
47895 2021-08-21 15:55:05 Terrasse 27.00 28.81 69.40
47894 2021-08-21 15:26:52 Terrasse 26.80 28.60 71.10
47893 2021-08-21 14:58:41 Terrasse 27.20 29.23 70.40
47892 2021-08-21 14:30:30 Terrasse 27.70 29.97 68.90
47891 2021-08-21 14:02:27 Terrasse 28.40 31.65 71.20
47890 2021-08-21 13:34:23 Terrasse 28.90 31.90 66.50
47889 2021-08-21 13:06:12 Terrasse 29.00 32.45 68.50
47888 2021-08-21 12:37:24 Terrasse 25.70 24.80 18.10
47887 2021-08-21 12:09:18 Terrasse 24.90 23.50 2.10
47886 2021-08-21 11:40:51 Terrasse 23.50 24.51 99.90
47885 2021-08-21 11:12:32 Terrasse 22.20 20.50 1.00
47884 2021-08-21 10:44:13 Terrasse 21.00 19.18 1.00
47883 2021-08-21 10:15:57 Terrasse 20.00 19.17 42.80
47882 2021-08-21 09:47:45 Terrasse 19.30 19.89 99.90
47881 2021-08-21 09:19:32 Terrasse 19.10 19.67 99.90
47880 2021-08-21 08:51:20 Terrasse 19.10 17.09 1.00
47879 2021-08-21 08:23:05 Terrasse 19.40 17.42 1.00
47878 2021-08-20 00:58:51 Terrasse 18.10 18.57 99.90
47877 2021-08-20 00:30:01 Terrasse 18.30 18.79 99.90
47876 2021-08-20 00:01:24 Terrasse 18.40 18.90 99.90
47875 2021-08-19 23:32:48 Terrasse 18.50 19.01 99.90
47874 2021-08-19 23:04:12 Terrasse 18.60 19.12 99.90
47873 2021-08-19 22:35:36 Terrasse 18.80 19.34 99.90
47872 2021-08-19 22:07:01 Terrasse 18.90 19.45 99.90
47871 2021-08-19 21:38:26 Terrasse 19.10 19.67 99.90
47870 2021-08-19 21:09:50 Terrasse 19.30 19.89 99.90
47869 2021-08-19 20:41:15 Terrasse 19.50 20.11 99.90
47868 2021-08-19 20:12:40 Terrasse 19.70 20.33 99.90
47867 2021-08-19 19:44:04 Terrasse 20.00 20.66 99.90
47866 2021-08-19 19:15:28 Terrasse 20.20 20.88 99.90
47865 2021-08-19 18:46:53 Terrasse 20.30 20.99 99.90
47864 2021-08-19 18:18:17 Terrasse 20.40 21.10 99.90
47863 2021-08-19 17:49:40 Terrasse 20.10 20.77 99.90
47862 2021-08-19 17:21:05 Terrasse 20.60 21.32 99.90
47861 2021-08-19 16:52:29 Terrasse 20.50 21.21 99.90
47860 2021-08-19 16:23:54 Terrasse 20.60 21.32 99.90
47859 2021-08-19 15:55:18 Terrasse 20.90 21.65 99.90
47858 2021-08-19 15:26:43 Terrasse 21.00 21.76 99.90
47857 2021-08-19 14:58:05 Terrasse 20.90 21.65 99.90
47856 2021-08-19 14:29:27 Terrasse 20.90 21.65 99.90
47855 2021-08-19 14:00:47 Terrasse 20.60 21.32 99.90
47854 2021-08-19 13:32:13 Terrasse 21.10 21.87 99.90
47853 2021-08-19 13:03:34 Terrasse 20.60 21.32 99.90
47852 2021-08-19 12:34:55 Terrasse 20.50 21.21 99.90
47851 2021-08-19 12:06:25 Terrasse 21.60 19.84 1.00
47850 2021-08-19 11:37:37 Terrasse 21.30 22.09 99.90
47849 2021-08-19 11:08:57 Terrasse 18.60 19.12 99.90
47848 2021-08-19 10:40:12 Terrasse 17.50 17.91 99.90
47847 2021-08-19 10:11:36 Terrasse 17.40 17.80 99.90
47846 2021-08-19 09:42:58 Terrasse 17.20 17.58 99.90
47845 2021-08-19 09:14:22 Terrasse 14.40 14.50 99.90
47844 2021-08-19 08:45:43 Terrasse 16.30 16.59 99.90
47843 2021-08-19 08:17:05 Terrasse 16.10 16.37 99.90
47842 2021-08-19 07:48:30 Terrasse 16.00 16.26 99.90
47841 2021-08-19 07:19:54 Terrasse 16.00 16.26 99.90
47840 2021-08-19 06:51:18 Terrasse 16.00 16.26 99.90
47839 2021-08-19 06:22:41 Terrasse 16.00 16.26 99.90
47838 2021-08-19 05:54:05 Terrasse 16.10 16.37 99.90
47837 2021-08-19 05:25:29 Terrasse 16.10 16.37 99.90
47836 2021-08-19 04:56:54 Terrasse 16.20 16.48 99.90
47835 2021-08-19 04:28:19 Terrasse 16.30 16.59 99.90
47834 2021-08-19 03:59:43 Terrasse 16.30 16.59 99.90
47833 2021-08-19 03:31:08 Terrasse 16.30 16.59 99.90
47832 2021-08-19 03:02:32 Terrasse 16.40 16.70 99.90
47831 2021-08-19 02:33:55 Terrasse 16.50 16.81 99.90
47830 2021-08-19 02:05:20 Terrasse 16.60 16.92 99.90
47829 2021-08-19 01:36:45 Terrasse 16.70 17.03 99.90
47828 2021-08-19 01:08:10 Terrasse 16.80 17.14 99.90
47827 2021-08-19 00:39:34 Terrasse 16.90 17.25 99.90
47826 2021-08-19 00:10:58 Terrasse 16.90 17.25 99.90
47825 2021-08-18 23:42:22 Terrasse 17.00 17.36 99.90
47824 2021-08-18 23:13:46 Terrasse 17.10 17.47 99.90
47823 2021-08-18 22:45:11 Terrasse 17.20 17.58 99.90
47822 2021-08-18 22:16:37 Terrasse 17.30 17.69 99.90
47821 2021-08-18 21:48:01 Terrasse 17.40 17.80 99.90
47820 2021-08-18 21:19:28 Terrasse 17.60 18.02 99.90
47819 2021-08-18 20:50:53 Terrasse 17.90 18.35 99.90
47818 2021-08-18 20:22:19 Terrasse 18.00 18.46 99.90
47817 2021-08-18 19:53:44 Terrasse 18.30 18.79 99.90
47816 2021-08-18 19:25:10 Terrasse 18.60 19.12 99.90
47815 2021-08-18 18:56:34 Terrasse 18.90 19.45 99.90
47814 2021-08-18 17:55:45 Terrasse 19.40 20.00 99.90
47813 2021-08-18 17:27:12 Terrasse 19.70 20.33 99.90
47812 2021-08-18 16:58:35 Terrasse 19.70 20.33 99.90
47811 2021-08-18 16:29:59 Terrasse 19.50 20.11 99.90
47810 2021-08-18 16:01:21 Terrasse 19.10 19.67 99.90
47809 2021-08-18 15:32:51 Terrasse 19.30 19.89 99.90
47808 2021-08-18 14:32:06 Terrasse 18.60 19.12 99.90
47807 2021-08-18 14:03:26 Terrasse 18.10 18.57 99.90
47806 2021-08-18 13:34:53 Terrasse 17.90 18.35 99.90
47805 2021-08-18 13:06:19 Terrasse 17.90 18.35 99.90
47804 2021-08-18 12:37:39 Terrasse 17.10 17.47 99.90
47803 2021-08-18 12:09:03 Terrasse 16.80 17.14 99.90
47802 2021-08-18 11:40:29 Terrasse 17.00 17.36 99.90
47801 2021-08-18 11:11:52 Terrasse 16.30 16.59 99.90
47800 2021-08-18 10:43:16 Terrasse 15.90 16.15 99.90
47799 2021-08-18 10:14:39 Terrasse 15.30 15.49 99.90
47798 2021-08-18 09:46:03 Terrasse 15.10 15.27 99.90
47797 2021-08-18 09:17:26 Terrasse 14.70 14.83 99.90
47796 2021-08-18 08:48:50 Terrasse 14.50 14.61 99.90
47795 2021-08-18 08:20:15 Terrasse 14.40 14.50 99.90
47794 2021-08-18 07:51:40 Terrasse 14.20 14.28 99.90
47793 2021-08-18 07:23:07 Terrasse 14.10 14.17 99.90
47792 2021-08-18 06:54:33 Terrasse 14.10 14.17 99.90
47791 2021-08-18 06:26:00 Terrasse 14.00 14.06 99.90
47790 2021-08-18 05:57:26 Terrasse 14.00 14.06 99.90
47789 2021-08-18 05:28:53 Terrasse 14.00 14.06 99.90
47788 2021-08-18 05:00:18 Terrasse 13.90 13.95 99.90
47787 2021-08-18 04:31:45 Terrasse 13.90 13.95 99.90
47786 2021-08-18 04:03:11 Terrasse 14.00 14.06 99.90
47785 2021-08-18 03:34:37 Terrasse 14.10 12.77 46.30
47784 2021-08-18 03:06:03 Terrasse 14.00 11.48 1.00
47783 2021-08-18 02:37:29 Terrasse 14.00 11.48 1.00
47782 2021-08-18 02:08:55 Terrasse 13.90 11.37 1.00
47781 2021-08-18 01:40:22 Terrasse 14.00 11.48 1.00
47780 2021-08-18 01:11:50 Terrasse 14.10 11.59 1.00
47779 2021-08-18 00:43:17 Terrasse 14.60 12.14 1.00
47778 2021-08-18 00:14:44 Terrasse 14.10 11.59 1.00
47777 2021-08-17 23:46:11 Terrasse 14.10 14.17 99.90
47776 2021-08-17 23:17:39 Terrasse 14.20 14.28 99.90
47775 2021-08-17 22:49:06 Terrasse 14.30 14.39 99.90
47774 2021-08-17 22:20:34 Terrasse 14.40 14.50 99.90
47773 2021-08-17 21:52:02 Terrasse 14.40 14.50 99.90
47772 2021-08-17 21:23:29 Terrasse 14.50 12.03 1.00
47771 2021-08-17 20:54:56 Terrasse 14.60 12.14 1.00
47770 2021-08-17 20:26:24 Terrasse 14.70 12.25 1.00
47769 2021-08-17 19:57:52 Terrasse 14.90 14.99 97.50
47768 2021-08-17 19:29:22 Terrasse 15.40 15.60 99.90
47767 2021-08-17 19:00:51 Terrasse 15.70 13.95 24.00
47766 2021-08-17 18:32:20 Terrasse 16.00 16.26 99.90
47765 2021-08-17 18:03:49 Terrasse 16.30 16.59 99.90
47764 2021-08-17 17:35:17 Terrasse 16.60 14.34 1.00
47763 2021-08-17 17:06:46 Terrasse 16.90 17.10 93.90
47762 2021-08-17 16:38:15 Terrasse 17.10 17.28 92.30
47761 2021-08-17 16:09:46 Terrasse 17.60 17.78 90.70
47760 2021-08-17 15:41:14 Terrasse 17.80 17.96 89.10
47759 2021-08-17 15:12:37 Terrasse 17.40 17.58 91.50
47758 2021-08-17 14:44:05 Terrasse 17.60 17.82 92.00
47757 2021-08-17 14:15:34 Terrasse 17.80 18.19 97.90
47756 2021-08-17 13:47:00 Terrasse 17.90 18.35 99.90
47755 2021-08-17 13:18:32 Terrasse 18.40 18.82 96.80
47754 2021-08-17 12:50:07 Terrasse 19.60 20.22 99.90
47753 2021-08-17 12:21:21 Terrasse 17.10 14.89 1.00
47752 2021-08-17 11:52:47 Terrasse 16.80 17.14 99.90
47751 2021-08-17 11:24:04 Terrasse 15.70 15.93 99.90
47750 2021-08-17 10:55:26 Terrasse 15.20 15.38 99.90
47749 2021-08-17 10:26:51 Terrasse 14.90 12.47 1.00
47748 2021-08-17 09:58:16 Terrasse 14.50 12.03 1.00
47747 2021-08-17 09:29:40 Terrasse 13.90 13.95 99.90
47746 2021-08-17 09:01:06 Terrasse 13.60 13.62 99.90
47745 2021-08-17 08:32:29 Terrasse 13.20 10.60 1.00
47744 2021-08-17 08:03:54 Terrasse 12.60 11.78 71.40
47743 2021-08-17 07:35:19 Terrasse 12.30 12.19 99.90
47742 2021-08-17 07:06:47 Terrasse 12.10 11.97 99.90
47741 2021-08-17 06:38:16 Terrasse 12.20 11.99 96.20
47740 2021-08-17 06:09:51 Terrasse 12.30 9.61 1.00
47739 2021-08-17 05:41:18 Terrasse 12.30 12.19 99.90
47738 2021-08-17 05:12:52 Terrasse 12.40 11.82 81.40
47737 2021-08-17 04:44:19 Terrasse 12.50 12.41 99.90
47736 2021-08-17 04:15:47 Terrasse 12.60 9.94 1.00
47735 2021-08-17 03:47:20 Terrasse 12.50 9.83 1.00
47734 2021-08-17 03:18:54 Terrasse 12.60 9.94 1.00
47733 2021-08-17 02:50:21 Terrasse 12.70 12.63 99.90
47732 2021-08-17 02:21:50 Terrasse 12.90 10.27 1.00
47731 2021-08-17 01:53:26 Terrasse 13.30 13.29 99.90
47730 2021-08-17 01:24:59 Terrasse 13.40 10.82 1.00
47729 2021-08-17 00:56:27 Terrasse 13.60 13.62 99.90
47728 2021-08-17 00:28:01 Terrasse 13.70 13.73 99.90
47727 2021-08-16 23:59:27 Terrasse 13.80 13.84 99.90
47726 2021-08-16 23:30:56 Terrasse 13.90 11.37 1.00
47725 2021-08-16 23:02:26 Terrasse 14.30 11.81 1.00
47724 2021-08-16 22:33:56 Terrasse 14.50 14.61 99.90
47723 2021-08-16 22:05:24 Terrasse 14.80 14.94 99.90
47722 2021-08-16 21:36:55 Terrasse 15.20 15.38 99.90
47721 2021-08-16 20:36:03 Terrasse 16.00 13.68 1.00
47720 2021-08-16 20:07:35 Terrasse 16.40 14.12 1.00
47719 2021-08-16 19:39:04 Terrasse 16.70 14.45 1.00
47718 2021-08-16 19:10:33 Terrasse 16.80 17.14 99.90
47717 2021-08-16 18:42:05 Terrasse 17.10 14.89 1.00
47716 2021-08-16 18:13:34 Terrasse 17.60 16.56 43.70
47715 2021-08-16 17:45:07 Terrasse 18.20 18.68 99.90
47714 2021-08-16 17:16:43 Terrasse 19.40 17.42 1.00
47713 2021-08-16 16:48:17 Terrasse 20.40 21.10 99.90
47712 2021-08-16 16:19:50 Terrasse 21.10 21.87 99.90
47711 2021-08-16 15:51:31 Terrasse 20.90 21.53 95.30
47710 2021-08-16 15:22:55 Terrasse 21.50 22.11 92.20
47709 2021-08-16 14:54:17 Terrasse 20.50 21.13 96.60
47708 2021-08-16 14:25:44 Terrasse 20.40 21.07 98.60
47707 2021-08-16 13:57:17 Terrasse 20.80 21.41 94.70
47706 2021-08-16 13:28:39 Terrasse 19.70 20.33 99.90
47705 2021-08-16 13:00:07 Terrasse 19.20 19.78 99.90
47704 2021-08-16 12:31:34 Terrasse 19.10 19.67 99.90
47703 2021-08-16 12:03:02 Terrasse 19.20 19.78 99.90
47702 2021-08-16 11:34:30 Terrasse 19.00 19.56 99.90
47701 2021-08-16 11:06:01 Terrasse 19.20 19.78 99.90
47700 2021-08-16 10:37:30 Terrasse 19.20 19.78 99.60
47699 2021-08-16 10:08:57 Terrasse 18.80 19.34 99.90
47698 2021-08-16 09:40:24 Terrasse 18.50 18.97 98.40
47697 2021-08-16 09:11:55 Terrasse 18.60 19.08 98.20
47696 2021-08-16 08:43:24 Terrasse 18.70 19.18 97.70
47695 2021-08-16 08:14:53 Terrasse 18.60 19.12 99.90
47694 2021-08-16 07:46:23 Terrasse 18.60 19.12 99.90
47693 2021-08-16 07:17:53 Terrasse 18.80 19.34 99.90
47692 2021-08-16 06:49:23 Terrasse 19.00 19.56 99.90
47691 2021-08-16 06:20:55 Terrasse 19.30 19.89 99.90
47690 2021-08-16 05:52:26 Terrasse 19.70 20.33 99.90
47689 2021-08-16 05:23:57 Terrasse 20.00 20.66 99.90
47688 2021-08-16 04:55:27 Terrasse 20.30 20.99 99.90
47687 2021-08-16 04:26:58 Terrasse 20.60 18.74 1.00
47686 2021-08-16 03:58:28 Terrasse 20.90 21.65 99.90
47685 2021-08-16 03:29:58 Terrasse 21.10 19.29 1.00
47684 2021-08-16 03:01:28 Terrasse 21.40 19.62 1.00
47683 2021-08-16 02:32:57 Terrasse 21.30 19.51 1.00
47682 2021-08-16 02:04:27 Terrasse 21.40 21.78 83.50
47681 2021-08-16 01:35:57 Terrasse 21.60 21.91 80.10
47680 2021-08-16 01:07:27 Terrasse 21.80 22.13 80.40
47679 2021-08-16 00:38:57 Terrasse 21.80 22.05 77.10
47678 2021-08-16 00:10:27 Terrasse 22.00 22.18 73.80
47677 2021-08-15 23:41:57 Terrasse 22.30 22.49 72.80
47676 2021-08-15 23:13:28 Terrasse 22.60 22.76 70.80
47675 2021-08-15 22:44:59 Terrasse 23.00 23.16 69.30
47674 2021-08-15 22:16:29 Terrasse 23.30 23.48 68.70
47673 2021-08-15 21:47:58 Terrasse 23.60 23.76 66.70
47672 2021-08-15 21:19:28 Terrasse 23.70 23.94 69.40
47671 2021-08-15 20:50:58 Terrasse 24.30 24.63 70.50
47670 2021-08-15 20:22:32 Terrasse 24.90 25.16 65.70
47669 2021-08-15 19:54:05 Terrasse 25.70 26.08 67.30
47668 2021-08-15 19:25:38 Terrasse 26.20 27.41 66.10
47667 2021-08-15 18:57:10 Terrasse 26.80 27.90 61.10
47666 2021-08-15 18:28:44 Terrasse 27.40 28.65 60.50
47665 2021-08-15 18:00:14 Terrasse 27.70 28.77 57.40
47664 2021-08-15 17:31:46 Terrasse 28.50 30.11 59.20
47663 2021-08-15 17:03:22 Terrasse 29.00 30.35 55.30
47662 2021-08-15 16:34:51 Terrasse 29.00 30.49 56.30
47661 2021-08-15 16:06:19 Terrasse 29.10 30.72 56.80
47660 2021-08-15 15:37:57 Terrasse 29.40 30.95 55.20
47659 2021-08-15 15:09:20 Terrasse 29.40 31.47 58.50
47658 2021-08-15 14:40:50 Terrasse 29.40 31.47 58.50
47657 2021-08-15 14:12:19 Terrasse 29.30 31.13 57.40
47656 2021-08-15 13:43:51 Terrasse 29.50 31.73 59.00
47655 2021-08-15 13:15:24 Terrasse 29.70 32.86 63.10
47654 2021-08-15 12:46:29 Terrasse 28.30 30.95 67.90
47653 2021-08-15 12:18:01 Terrasse 26.90 28.96 73.40
47652 2021-08-15 11:49:27 Terrasse 26.50 28.77 81.50
47651 2021-08-15 11:20:38 Terrasse 24.80 25.73 91.90
47650 2021-08-15 10:51:57 Terrasse 23.40 21.82 1.00
47649 2021-08-15 10:23:17 Terrasse 22.30 23.19 99.90
47648 2021-08-15 09:54:41 Terrasse 21.60 22.42 99.90
47647 2021-08-15 09:26:05 Terrasse 20.90 21.65 99.90
47646 2021-08-15 08:57:27 Terrasse 20.10 20.77 99.90
47645 2021-08-15 08:28:50 Terrasse 19.30 19.89 99.90
47644 2021-08-15 08:00:17 Terrasse 18.80 18.42 64.50
47643 2021-08-15 07:31:44 Terrasse 18.70 19.23 99.90
47642 2021-08-15 07:03:11 Terrasse 18.70 16.65 1.00
47641 2021-08-15 06:34:39 Terrasse 18.80 17.68 36.30
47640 2021-08-15 06:06:08 Terrasse 19.10 19.67 99.90
47639 2021-08-15 05:38:54 Terrasse 19.30 19.21 73.70
47638 2021-08-15 05:07:17 Terrasse 19.60 17.64 1.00
47637 2021-08-15 04:40:02 Terrasse 20.00 20.66 99.90
47636 2021-08-15 04:10:08 Terrasse 20.30 18.41 1.00
47635 2021-08-15 03:39:13 Terrasse 20.60 20.79 79.30
47634 2021-08-15 03:10:45 Terrasse 20.90 21.06 77.30
47633 2021-08-15 02:42:18 Terrasse 21.20 21.36 75.90
47632 2021-08-15 02:14:52 Terrasse 21.40 21.51 73.40
47631 2021-08-15 01:46:12 Terrasse 21.40 21.49 72.70
47630 2021-08-15 01:16:42 Terrasse 21.90 21.98 70.30
47629 2021-08-15 00:47:03 Terrasse 22.40 22.50 69.00
47628 2021-08-15 00:19:31 Terrasse 22.70 22.84 69.40
47627 2021-08-14 23:49:55 Terrasse 23.00 23.14 68.20
47626 2021-08-14 23:21:28 Terrasse 23.30 23.46 67.90
47625 2021-08-14 22:53:01 Terrasse 23.50 23.73 69.80
47624 2021-08-14 22:24:35 Terrasse 24.00 24.29 70.40
47623 2021-08-14 21:56:08 Terrasse 24.50 24.89 72.10
47622 2021-08-14 21:27:41 Terrasse 25.00 25.43 71.80
47621 2021-08-14 20:59:13 Terrasse 25.40 25.85 70.90
47620 2021-08-14 20:30:47 Terrasse 25.90 27.07 67.40
47619 2021-08-14 20:02:21 Terrasse 26.60 27.94 65.80
47618 2021-08-14 19:33:52 Terrasse 27.00 28.02 59.10
47617 2021-08-14 19:05:25 Terrasse 27.40 28.45 58.20
47616 2021-08-14 18:37:00 Terrasse 28.00 29.16 57.30
47615 2021-08-14 18:08:32 Terrasse 28.50 29.94 57.90
47614 2021-08-14 17:40:04 Terrasse 28.80 30.61 59.40
47613 2021-08-14 17:11:37 Terrasse 29.20 31.15 58.60
47612 2021-08-14 16:43:07 Terrasse 29.30 31.45 59.40
47611 2021-08-14 16:14:39 Terrasse 29.40 31.66 59.60
47610 2021-08-14 15:46:17 Terrasse 29.60 32.29 61.10
47609 2021-08-14 15:17:49 Terrasse 30.00 32.83 60.00
47608 2021-08-14 14:49:22 Terrasse 30.40 33.74 60.60
47607 2021-08-14 14:20:56 Terrasse 30.90 34.39 59.00
47606 2021-08-14 13:52:31 Terrasse 31.10 36.06 63.80
47605 2021-08-14 13:24:23 Terrasse 31.40 37.25 65.40
47604 2021-08-14 12:54:56 Terrasse 29.50 35.75 78.30
47603 2021-08-14 12:26:16 Terrasse 27.10 25.89 1.00
47602 2021-08-14 11:21:11 Terrasse 24.50 25.61 99.90
47601 2021-08-14 10:52:34 Terrasse 22.80 23.74 99.90
47600 2021-08-14 10:24:07 Terrasse 22.20 21.15 25.70
47599 2021-08-14 09:55:34 Terrasse 21.30 22.09 99.90
47598 2021-08-14 09:26:57 Terrasse 20.70 18.85 1.00
47597 2021-08-14 07:52:05 Terrasse 18.70 16.65 1.00
47596 2021-08-14 07:23:38 Terrasse 18.50 16.43 1.00
47595 2021-08-14 06:55:10 Terrasse 18.40 16.32 1.00
47594 2021-08-14 06:26:50 Terrasse 18.30 18.79 99.90
47593 2021-08-14 05:58:29 Terrasse 18.50 16.43 1.00
47592 2021-08-14 05:30:05 Terrasse 18.50 16.43 1.00
47591 2021-08-14 05:01:44 Terrasse 18.70 16.65 1.00
47590 2021-08-14 04:33:15 Terrasse 19.00 18.46 57.50
47589 2021-08-14 04:04:50 Terrasse 19.00 16.98 1.00
47588 2021-08-14 03:36:30 Terrasse 19.20 17.20 1.00
47587 2021-08-14 03:08:02 Terrasse 19.60 17.64 1.00
47586 2021-08-14 02:39:41 Terrasse 19.80 20.33 95.60
47585 2021-08-14 02:11:14 Terrasse 20.10 20.77 99.90
47584 2021-08-14 01:42:50 Terrasse 20.60 21.32 99.90
47583 2021-08-14 01:14:26 Terrasse 21.10 19.29 1.00
47582 2021-08-14 00:46:03 Terrasse 21.80 22.64 99.90
47581 2021-08-14 00:17:38 Terrasse 22.30 20.61 1.00
47580 2021-08-13 23:49:32 Terrasse 22.40 20.72 1.00
47579 2021-08-13 23:21:04 Terrasse 22.60 23.52 99.90
47578 2021-08-13 22:52:36 Terrasse 22.70 21.05 1.00
47577 2021-08-13 22:24:20 Terrasse 23.10 21.49 1.00
47576 2021-08-13 21:55:53 Terrasse 23.60 22.04 1.00
47575 2021-08-13 21:27:27 Terrasse 23.90 22.37 1.00
47574 2021-08-13 20:59:03 Terrasse 24.50 25.61 99.90
47573 2021-08-13 20:30:38 Terrasse 25.00 23.58 1.00
47572 2021-08-13 20:02:15 Terrasse 25.60 24.24 1.00
47571 2021-08-13 19:33:51 Terrasse 26.20 29.07 99.90
47570 2021-08-13 19:05:28 Terrasse 26.80 25.56 1.00
47569 2021-08-13 18:37:03 Terrasse 27.30 25.22 1.00
47568 2021-08-13 18:08:38 Terrasse 27.60 25.50 1.00
47567 2021-08-13 17:40:11 Terrasse 28.00 25.76 1.00
47566 2021-08-13 17:11:47 Terrasse 28.70 26.30 1.00
47565 2021-08-13 16:43:19 Terrasse 28.70 26.30 1.00
47564 2021-08-13 16:14:49 Terrasse 28.90 26.40 1.00
47563 2021-08-13 15:46:22 Terrasse 28.60 26.21 1.00
47562 2021-08-13 15:18:01 Terrasse 29.20 26.66 1.00
47561 2021-08-13 14:49:39 Terrasse 29.80 27.11 1.00
47560 2021-08-13 14:21:15 Terrasse 30.70 27.75 1.00
47559 2021-08-13 13:52:51 Terrasse 30.60 27.66 1.00
47558 2021-08-13 13:24:30 Terrasse 30.50 27.64 1.00
47557 2021-08-13 12:55:41 Terrasse 29.20 30.12 51.50
47556 2021-08-13 12:27:01 Terrasse 26.80 25.56 1.00
47555 2021-08-13 11:58:34 Terrasse 26.60 25.34 1.00
47554 2021-08-13 11:30:00 Terrasse 25.40 24.02 1.00
47553 2021-08-13 11:01:19 Terrasse 24.20 22.70 1.00
47552 2021-08-13 10:32:45 Terrasse 23.00 21.89 20.60
47551 2021-08-13 10:04:12 Terrasse 22.10 20.39 1.00
47550 2021-08-13 09:35:39 Terrasse 21.40 19.62 1.00
47549 2021-08-13 09:07:08 Terrasse 20.90 19.07 1.00
47548 2021-08-13 08:38:35 Terrasse 20.00 18.08 1.00
47547 2021-08-13 08:10:04 Terrasse 19.50 17.53 1.00
47546 2021-08-13 07:41:35 Terrasse 19.20 17.20 1.00
47545 2021-08-13 07:13:07 Terrasse 19.00 16.98 1.00
47544 2021-08-13 06:44:41 Terrasse 19.00 16.98 1.00
47543 2021-08-13 06:16:15 Terrasse 19.10 19.67 99.90
47542 2021-08-13 05:47:49 Terrasse 19.10 19.67 99.90
47541 2021-08-13 05:19:24 Terrasse 19.30 19.09 69.20
47540 2021-08-13 04:50:57 Terrasse 19.40 20.00 99.90
47539 2021-08-13 04:22:31 Terrasse 19.50 17.53 1.00
47538 2021-08-13 03:54:04 Terrasse 19.50 20.11 99.90
47537 2021-08-13 03:25:39 Terrasse 19.70 20.33 99.90
47536 2021-08-13 02:57:13 Terrasse 19.70 17.75 1.00
47535 2021-08-13 02:28:47 Terrasse 19.80 17.86 1.00
47534 2021-08-13 02:00:20 Terrasse 19.90 20.55 99.90
47533 2021-08-13 01:31:55 Terrasse 20.10 20.77 99.90
47532 2021-08-13 01:03:30 Terrasse 20.30 18.41 1.00
47531 2021-08-13 00:35:05 Terrasse 20.60 21.32 99.90
47530 2021-08-13 00:06:41 Terrasse 21.00 19.18 1.00
47529 2021-08-12 23:38:16 Terrasse 21.40 20.87 48.90
47528 2021-08-12 23:09:50 Terrasse 21.60 19.84 1.00
47527 2021-08-12 22:41:24 Terrasse 21.80 20.06 1.00
47526 2021-08-12 22:12:59 Terrasse 22.00 22.86 99.90
47525 2021-08-12 21:44:32 Terrasse 22.40 20.72 1.00
47524 2021-08-12 21:16:07 Terrasse 22.80 21.16 1.00
47523 2021-08-12 20:47:44 Terrasse 23.20 21.60 1.00
47522 2021-08-12 20:19:19 Terrasse 23.80 22.26 1.00
47521 2021-08-12 19:50:55 Terrasse 24.40 22.92 1.00
47520 2021-08-12 19:22:29 Terrasse 24.70 23.25 1.00
47519 2021-08-12 18:54:05 Terrasse 25.10 25.63 99.90
47518 2021-08-12 18:25:40 Terrasse 25.50 24.13 1.00
47517 2021-08-12 17:57:14 Terrasse 25.90 28.09 99.90
47516 2021-08-12 17:28:47 Terrasse 26.10 24.79 1.00
47515 2021-08-12 17:00:19 Terrasse 26.10 24.79 1.00
47514 2021-08-12 16:31:52 Terrasse 26.20 29.07 99.90
47513 2021-08-12 16:03:23 Terrasse 26.00 28.41 99.90
47512 2021-08-12 15:34:56 Terrasse 26.00 28.41 99.90
47511 2021-08-12 15:06:23 Terrasse 25.40 24.02 1.00
47510 2021-08-12 14:38:00 Terrasse 25.60 24.24 1.00
47509 2021-08-12 14:09:29 Terrasse 25.60 27.14 99.90
47508 2021-08-12 13:41:06 Terrasse 25.50 26.83 99.90
47507 2021-08-12 13:12:23 Terrasse 24.40 25.50 99.90
47506 2021-08-12 12:43:54 Terrasse 24.40 22.92 1.00
47505 2021-08-12 12:15:25 Terrasse 24.20 25.28 99.90
47504 2021-08-12 11:46:54 Terrasse 24.00 25.06 99.90
47503 2021-08-12 11:18:29 Terrasse 23.70 22.15 1.00
47502 2021-08-12 10:49:52 Terrasse 22.60 20.94 1.00
47501 2021-08-12 10:21:16 Terrasse 21.50 19.87 6.40
47500 2021-08-12 09:52:41 Terrasse 20.40 18.52 1.00
47499 2021-08-12 09:24:11 Terrasse 19.70 17.75 1.00
47498 2021-08-12 08:55:39 Terrasse 18.90 19.45 99.90
47497 2021-08-12 08:27:09 Terrasse 18.40 18.90 99.90
47496 2021-08-12 07:58:40 Terrasse 18.00 15.88 1.00
47495 2021-08-12 07:30:11 Terrasse 17.50 15.33 1.00
47494 2021-08-12 07:01:43 Terrasse 17.20 15.00 1.00
47493 2021-08-12 06:33:16 Terrasse 17.10 14.89 1.00
47492 2021-08-12 06:04:50 Terrasse 17.30 15.11 1.00
47491 2021-08-12 05:36:24 Terrasse 17.50 15.33 1.00
47490 2021-08-12 05:07:59 Terrasse 17.70 18.13 99.90
47489 2021-08-12 04:39:34 Terrasse 17.90 18.35 99.90
47488 2021-08-12 04:11:08 Terrasse 18.10 18.57 99.90
47487 2021-08-12 03:42:42 Terrasse 18.30 18.79 99.90
47486 2021-08-12 03:14:15 Terrasse 18.30 16.21 1.00
47485 2021-08-12 02:45:50 Terrasse 18.40 16.32 1.00
47484 2021-08-12 02:17:24 Terrasse 18.60 19.12 99.90
47483 2021-08-12 01:48:58 Terrasse 18.80 16.76 1.00
47482 2021-08-12 01:20:32 Terrasse 19.00 16.98 1.00
47481 2021-08-12 00:52:07 Terrasse 19.30 19.89 99.90
47480 2021-08-12 00:23:40 Terrasse 19.50 18.35 32.30
47479 2021-08-11 23:55:16 Terrasse 19.80 17.86 1.00
47478 2021-08-11 23:26:52 Terrasse 20.10 18.19 1.00
47477 2021-08-11 22:58:26 Terrasse 20.40 21.10 99.90
47476 2021-08-11 22:30:07 Terrasse 20.70 18.85 1.00
47475 2021-08-11 22:01:41 Terrasse 21.00 19.18 1.00
47474 2021-08-11 21:33:18 Terrasse 21.60 19.84 1.00
47473 2021-08-11 21:04:54 Terrasse 21.90 20.17 1.00
47472 2021-08-11 20:36:31 Terrasse 22.40 20.72 1.00
47471 2021-08-11 20:08:09 Terrasse 22.90 21.27 1.00
47470 2021-08-11 19:39:46 Terrasse 23.60 24.62 99.90
47469 2021-08-11 19:11:21 Terrasse 23.90 24.95 99.90
47468 2021-08-11 18:42:55 Terrasse 24.20 24.81 81.60
47467 2021-08-11 18:14:29 Terrasse 24.40 25.50 99.90
47466 2021-08-11 17:46:04 Terrasse 24.60 25.72 99.90
47465 2021-08-11 17:17:36 Terrasse 24.50 23.03 1.00
47464 2021-08-11 16:49:09 Terrasse 24.70 23.25 1.00
47463 2021-08-11 16:20:37 Terrasse 24.80 23.36 1.00
47462 2021-08-11 15:52:09 Terrasse 24.40 25.33 93.40
47461 2021-08-11 15:23:45 Terrasse 24.90 25.87 92.70
47460 2021-08-11 14:55:21 Terrasse 25.50 24.13 1.00
47459 2021-08-11 14:26:44 Terrasse 24.10 22.59 1.00
47458 2021-08-11 13:58:21 Terrasse 24.30 25.28 95.60
47457 2021-08-11 13:29:59 Terrasse 24.80 25.94 99.90
47456 2021-08-11 13:01:39 Terrasse 25.50 26.83 95.10
47455 2021-08-11 12:33:01 Terrasse 23.60 24.62 99.90
47454 2021-08-11 12:04:42 Terrasse 25.00 25.34 99.90
47453 2021-08-11 11:36:09 Terrasse 23.90 24.95 99.90
47452 2021-08-11 11:07:17 Terrasse 22.10 22.97 99.90
47451 2021-08-11 10:38:43 Terrasse 20.70 21.43 99.90
47450 2021-08-11 10:10:09 Terrasse 19.60 20.22 99.90
47449 2021-08-11 09:41:39 Terrasse 18.90 19.45 99.90
47448 2021-08-11 09:13:06 Terrasse 18.10 18.57 99.90
47447 2021-08-11 08:44:33 Terrasse 17.20 17.58 99.90
47446 2021-08-11 08:16:06 Terrasse 16.40 16.70 99.90
47445 2021-08-11 07:47:37 Terrasse 16.00 16.26 99.90
47444 2021-08-11 07:19:08 Terrasse 15.80 16.04 99.90
47443 2021-08-11 06:50:41 Terrasse 15.60 15.82 99.90
47442 2021-08-11 06:22:14 Terrasse 15.70 15.93 99.90
47441 2021-08-11 05:53:49 Terrasse 15.90 16.15 99.90
47440 2021-08-11 05:25:23 Terrasse 16.10 16.37 99.90
47439 2021-08-11 04:56:57 Terrasse 16.10 16.37 99.90
47438 2021-08-11 04:28:32 Terrasse 16.30 16.59 99.90
47437 2021-08-11 04:00:06 Terrasse 16.40 16.70 99.90
47436 2021-08-11 03:31:47 Terrasse 16.60 16.92 99.90
47435 2021-08-11 03:03:20 Terrasse 16.90 17.25 99.90
47434 2021-08-11 02:34:55 Terrasse 17.20 17.58 99.90
47433 2021-08-11 02:06:35 Terrasse 17.20 17.58 99.90
47432 2021-08-11 01:38:07 Terrasse 17.70 18.13 99.90
47431 2021-08-11 01:09:41 Terrasse 17.90 18.35 99.90
47430 2021-08-11 00:41:21 Terrasse 18.10 18.57 99.90
47429 2021-08-11 00:12:59 Terrasse 18.30 18.79 99.90
47428 2021-08-10 23:44:39 Terrasse 18.40 18.90 99.90
47427 2021-08-10 23:16:22 Terrasse 18.70 19.23 99.90
47426 2021-08-10 22:47:56 Terrasse 18.90 19.45 99.90
47425 2021-08-10 22:19:44 Terrasse 18.90 19.45 99.90
47424 2021-08-10 21:51:22 Terrasse 19.20 19.78 99.90
47423 2021-08-10 21:22:52 Terrasse 19.80 20.44 99.90
47422 2021-08-10 20:55:48 Terrasse 20.30 20.99 99.90
47421 2021-08-10 20:25:04 Terrasse 20.70 21.43 99.90
47420 2021-08-10 19:57:02 Terrasse 21.00 21.76 99.90
47419 2021-08-10 19:29:33 Terrasse 21.30 22.09 99.90
47418 2021-08-10 18:30:12 Terrasse 21.80 22.64 99.90
47417 2021-08-10 17:59:49 Terrasse 22.00 20.28 1.00
47416 2021-08-10 17:31:09 Terrasse 22.00 22.86 99.90
47415 2021-08-10 17:02:06 Terrasse 21.90 22.20 78.50
47414 2021-08-10 16:33:13 Terrasse 22.50 23.17 90.50
47413 2021-08-10 16:04:30 Terrasse 23.00 23.60 85.80
47412 2021-08-10 15:34:39 Terrasse 24.20 24.73 78.50
47411 2021-08-10 15:06:48 Terrasse 23.50 24.12 85.00
47410 2021-08-10 14:38:18 Terrasse 23.80 24.54 88.30
47409 2021-08-10 14:09:59 Terrasse 24.70 25.39 82.90
47408 2021-08-10 13:41:36 Terrasse 25.70 27.28 89.20
47407 2021-08-10 13:12:26 Terrasse 22.90 23.85 99.90
47406 2021-08-10 12:43:54 Terrasse 22.30 23.19 99.90
47405 2021-08-10 12:15:23 Terrasse 22.40 23.30 99.90
47404 2021-08-10 11:46:44 Terrasse 20.20 18.30 1.00
47403 2021-08-10 11:19:43 Terrasse 19.90 17.97 1.00
47402 2021-08-10 10:48:43 Terrasse 19.40 20.00 99.90
47401 2021-08-10 09:48:38 Terrasse 17.40 15.22 1.00
47400 2021-08-10 07:53:27 Terrasse 15.60 13.24 1.00
47399 2021-08-10 07:25:05 Terrasse 15.40 13.02 1.00
47398 2021-08-10 06:56:42 Terrasse 15.40 13.02 1.00
47397 2021-08-10 06:28:18 Terrasse 15.30 12.91 1.00
47396 2021-08-10 05:59:54 Terrasse 15.30 12.91 1.00
47395 2021-08-10 05:31:41 Terrasse 15.30 15.49 99.90
47394 2021-08-10 05:03:17 Terrasse 15.30 15.49 99.90
47393 2021-08-10 04:35:03 Terrasse 15.20 15.38 99.90
47392 2021-08-10 04:06:39 Terrasse 15.10 12.69 1.00
47391 2021-08-10 03:38:20 Terrasse 15.20 12.80 1.00
47390 2021-08-10 03:09:58 Terrasse 15.40 13.02 1.00
47389 2021-08-10 02:41:40 Terrasse 15.60 13.24 1.00
47388 2021-08-10 02:13:18 Terrasse 15.80 13.46 1.00
47387 2021-08-10 01:44:54 Terrasse 15.80 13.46 1.00
47386 2021-08-10 01:16:41 Terrasse 15.90 13.57 1.00
47385 2021-08-10 00:48:16 Terrasse 15.80 13.46 1.00
47384 2021-08-10 00:19:53 Terrasse 15.80 16.04 99.90
47383 2021-08-09 23:51:43 Terrasse 16.00 13.68 1.00
47382 2021-08-09 23:23:17 Terrasse 16.20 16.48 99.90
47381 2021-08-09 22:54:55 Terrasse 16.40 16.70 99.90
47380 2021-08-09 22:26:33 Terrasse 16.70 14.45 1.00
47379 2021-08-09 21:58:13 Terrasse 17.10 15.82 36.40
47378 2021-08-09 21:29:52 Terrasse 17.60 15.44 1.00
47377 2021-08-09 21:01:32 Terrasse 18.30 18.79 99.90
47376 2021-08-09 20:33:12 Terrasse 18.90 17.91 40.70
47375 2021-08-09 20:04:51 Terrasse 19.40 17.42 1.00
47374 2021-08-09 19:36:29 Terrasse 19.90 20.55 99.90
47373 2021-08-09 19:08:08 Terrasse 20.10 20.77 99.90
47372 2021-08-09 18:39:43 Terrasse 20.20 20.88 99.90
47371 2021-08-09 18:11:22 Terrasse 20.60 21.13 92.40
47370 2021-08-09 17:42:57 Terrasse 20.70 21.26 93.20
47369 2021-08-09 17:14:33 Terrasse 20.80 21.32 91.50
47368 2021-08-09 16:46:06 Terrasse 20.70 21.35 96.70
47367 2021-08-09 16:17:46 Terrasse 21.00 21.70 97.50
47366 2021-08-09 15:49:24 Terrasse 21.60 22.32 95.80
47365 2021-08-09 15:20:56 Terrasse 20.70 21.43 99.90
47364 2021-08-09 14:52:32 Terrasse 20.60 21.32 99.90
47363 2021-08-09 14:24:14 Terrasse 21.20 21.98 99.90
47362 2021-08-09 13:55:46 Terrasse 20.00 20.66 99.90
47361 2021-08-09 13:27:15 Terrasse 18.70 19.23 99.90
47360 2021-08-09 12:59:02 Terrasse 19.80 20.44 99.90
47359 2021-08-09 12:30:36 Terrasse 20.20 20.88 99.90
47358 2021-08-09 12:02:22 Terrasse 20.80 21.54 99.90
47357 2021-08-09 11:33:49 Terrasse 20.20 20.88 99.90
47356 2021-08-09 11:04:59 Terrasse 18.40 18.90 99.90
47355 2021-08-09 10:36:30 Terrasse 17.60 18.02 99.90
47354 2021-08-09 10:08:03 Terrasse 16.60 16.92 99.90
47353 2021-08-09 09:39:35 Terrasse 15.70 15.93 99.90
47352 2021-08-09 09:11:10 Terrasse 15.20 15.38 99.90
47351 2021-08-09 08:42:43 Terrasse 14.50 14.61 99.90
47350 2021-08-09 08:14:17 Terrasse 13.90 13.95 99.90
47349 2021-08-09 07:45:51 Terrasse 13.30 13.29 99.90
47348 2021-08-09 07:17:26 Terrasse 12.90 12.85 99.90
47347 2021-08-09 06:49:11 Terrasse 12.90 12.85 99.90
47346 2021-08-09 06:20:52 Terrasse 13.00 12.96 99.90
47345 2021-08-09 05:52:32 Terrasse 12.90 12.85 99.90
47344 2021-08-09 05:24:09 Terrasse 12.90 12.85 99.90
47343 2021-08-09 04:55:55 Terrasse 12.90 12.85 99.90
47342 2021-08-09 04:27:36 Terrasse 13.00 12.96 99.90
47341 2021-08-09 03:59:13 Terrasse 13.00 12.96 99.90
47340 2021-08-09 03:30:52 Terrasse 13.10 13.07 99.90
47339 2021-08-09 03:02:37 Terrasse 13.20 13.18 99.90
47338 2021-08-09 02:34:14 Terrasse 13.40 13.40 99.90
47337 2021-08-09 02:05:54 Terrasse 13.60 13.62 99.90
47336 2021-08-09 01:37:33 Terrasse 13.80 13.84 99.90
47335 2021-08-09 01:09:11 Terrasse 13.90 13.95 99.90
47334 2021-08-09 00:40:55 Terrasse 14.00 14.06 99.90
47333 2021-08-09 00:12:32 Terrasse 14.20 14.28 99.90
47332 2021-08-08 23:44:10 Terrasse 14.50 14.61 99.90
47331 2021-08-08 23:15:48 Terrasse 14.60 14.72 99.90
47330 2021-08-08 22:47:27 Terrasse 15.00 15.16 99.90
47329 2021-08-08 22:19:06 Terrasse 15.20 15.38 99.90
47328 2021-08-08 21:50:46 Terrasse 15.50 15.71 99.90
47327 2021-08-08 21:22:27 Terrasse 15.90 16.15 99.90
47326 2021-08-08 20:54:07 Terrasse 16.30 16.59 99.90
47325 2021-08-08 20:25:46 Terrasse 16.60 16.92 99.90
47324 2021-08-08 19:57:24 Terrasse 16.90 17.25 99.90
47323 2021-08-08 19:29:04 Terrasse 17.10 17.47 99.90
47322 2021-08-08 19:00:41 Terrasse 17.30 17.69 99.90
47321 2021-08-08 18:32:18 Terrasse 17.50 17.91 99.90
47320 2021-08-08 18:03:55 Terrasse 17.40 17.80 99.90
47319 2021-08-08 17:35:30 Terrasse 17.10 17.47 99.90
47318 2021-08-08 17:07:10 Terrasse 17.60 18.02 99.90
47317 2021-08-08 16:38:47 Terrasse 18.20 18.68 99.90
47316 2021-08-08 16:10:16 Terrasse 17.20 17.58 99.90
47315 2021-08-08 15:41:55 Terrasse 17.20 17.58 99.90
47314 2021-08-08 15:13:37 Terrasse 17.90 18.35 99.90
47313 2021-08-08 14:45:18 Terrasse 18.80 19.34 99.90
47312 2021-08-08 14:16:57 Terrasse 19.40 19.90 96.00
47311 2021-08-08 13:48:41 Terrasse 20.30 20.80 92.30
47310 2021-08-08 13:20:39 Terrasse 21.70 22.35 92.80
47309 2021-08-08 12:51:58 Terrasse 19.30 19.89 99.90
47308 2021-08-08 12:23:31 Terrasse 18.80 19.34 99.90
47307 2021-08-08 11:55:27 Terrasse 20.40 20.93 93.30
47306 2021-08-08 11:26:45 Terrasse 18.90 19.45 99.90
47305 2021-08-08 10:58:15 Terrasse 18.70 19.23 99.90
47304 2021-08-08 10:29:44 Terrasse 17.40 17.80 99.90
47303 2021-08-08 10:01:26 Terrasse 16.50 16.81 99.90
47302 2021-08-08 09:33:00 Terrasse 16.20 16.48 99.90
47301 2021-08-08 09:04:37 Terrasse 16.00 16.26 99.90
47300 2021-08-08 08:36:21 Terrasse 15.60 15.82 99.90
47299 2021-08-08 08:07:56 Terrasse 15.50 15.71 99.90
47298 2021-08-08 07:39:33 Terrasse 15.40 15.60 99.90
47297 2021-08-08 07:11:10 Terrasse 15.20 15.38 99.90
47296 2021-08-08 06:42:48 Terrasse 15.20 15.38 99.90
47295 2021-08-08 06:14:28 Terrasse 15.20 15.38 99.90
47294 2021-08-08 05:46:06 Terrasse 15.30 15.49 99.90
47293 2021-08-08 05:17:44 Terrasse 15.30 15.49 99.90
47292 2021-08-08 04:49:22 Terrasse 15.40 15.60 99.90
47291 2021-08-08 04:21:01 Terrasse 15.60 15.82 99.90
47290 2021-08-08 03:52:40 Terrasse 15.80 16.04 99.90
47289 2021-08-08 03:24:18 Terrasse 16.00 16.26 99.90
47288 2021-08-08 02:55:56 Terrasse 16.10 16.37 99.90
47287 2021-08-08 02:27:34 Terrasse 16.20 16.48 99.90
47286 2021-08-08 01:59:12 Terrasse 16.30 16.59 99.90
47285 2021-08-08 01:30:51 Terrasse 16.50 16.81 99.90
47284 2021-08-08 01:02:30 Terrasse 16.70 17.03 99.90
47283 2021-08-08 00:34:08 Terrasse 16.80 17.14 99.90
47282 2021-08-08 00:05:45 Terrasse 16.90 17.25 99.90
47281 2021-08-07 23:37:22 Terrasse 17.00 17.36 99.90
47280 2021-08-07 23:08:59 Terrasse 17.10 17.47 99.90
47279 2021-08-07 22:40:40 Terrasse 17.20 17.58 99.90
47278 2021-08-07 22:12:17 Terrasse 17.30 17.69 99.90
47277 2021-08-07 21:43:55 Terrasse 17.40 17.80 99.90
47276 2021-08-07 21:15:41 Terrasse 17.60 18.02 99.90
47275 2021-08-07 20:47:18 Terrasse 17.80 18.24 99.90
47274 2021-08-07 20:18:56 Terrasse 18.10 18.57 99.90
47273 2